Darstellungsparameter: Aktuell verwendete Einstellungen:
Skalierung der Graphiken ... ?
xyx+y,   Skalierungsfaktor:      Skalierung: Modus: x, Faktor: 1
Darstellungszeitraum ... ?
Vom - - bis: - -   Zeitraum: 28.12.2014 - 27.06.2015
Min/Max/Avg-Anzeige ... ?
Zeige MMA aktuell
Zeige MMA Monat
Zeige MMA alles
Zeige --A aktuell
Zeige --A Monat
Zeige --A alles
Keine MMA-Anzeige
MMA:
Average (ber die Originaldaten)
MMA-Basis: 28.12.2014 - 27.06.2015
Quicknavigation für Darstellung... ?
Tage:      1T, 2T, 3T, 5T -1T -2T -3T -5T +1T +2T +3T +5T
Wochen: 1W, 2W, 3W -1W -2W -3W +1W +2W +3W
Monate: 1M, 3M, 6M -1M -3M -6M +1M +3M +6M
Jahre:    1J, 3J, 5J, 10J -1J -3J -5J -10J +1J +3J +5J +10J
Nutze für die Darstellung ... ?
Originaldaten oder Mittelwerte auf ...
Stundenbasis Tagesbasis Wochenbasis
Monatsbasis Jahresbasis      Datenbasis: Original-Daten
Darstellen als:
Statistik (Auto) Statistik J:M      Darstellung:
Zur Graphik,    zurück zur Übersicht aller Sensoren.
 
Tabellarische Datenbersicht: ?
 
Sensor: Nr:Datum:Temp:Abs-Feuchte:Windchill:Wind:
Aussen-T/F 1 28-12-2014 05:40:00 -2 C 3.29 g/m*3 -5.62 C 9.7 km/h
2 28-12-2014 05:45:00 -2 C 3.29 g/m*3 -5.62 C 9.7 km/h
3 28-12-2014 05:50:00 -2 C 3.33 g/m*3 -5.62 C 9.7 km/h
4 28-12-2014 05:55:00 -2 C 3.33 g/m*3 -6.43 C 12.9 km/h
5 28-12-2014 06:00:00 -2.1 C 3.31 g/m*3 -6.17 C 11.3 km/h
6 28-12-2014 06:05:00 -2.1 C 3.31 g/m*3 -6.9 C 14.5 km/h
7 28-12-2014 06:10:00 -2.2 C 3.28 g/m*3 -6.68 C 12.9 km/h
8 28-12-2014 06:15:00 -2.2 C 3.28 g/m*3 -5.86 C 9.7 km/h
9 28-12-2014 06:20:00 -2.2 C 3.24 g/m*3 -7.34 C 16.1 km/h
10 28-12-2014 06:25:00 -2.2 C 3.28 g/m*3 -6.29 C 11.3 km/h
11 28-12-2014 06:30:00 -2.2 C 3.28 g/m*3 -6.29 C 11.3 km/h
12 28-12-2014 06:35:00 -2.2 C 3.28 g/m*3 -6.29 C 11.3 km/h
13 28-12-2014 06:40:00 -2.3 C 3.26 g/m*3 -6.8 C 12.9 km/h
14 28-12-2014 06:45:00 -2.3 C 3.26 g/m*3 -7.15 C 14.5 km/h
15 28-12-2014 06:50:00 -2.3 C 3.26 g/m*3 -6.41 C 11.3 km/h
16 28-12-2014 06:55:00 -2.3 C 3.26 g/m*3 -5.98 C 9.7 km/h
17 28-12-2014 07:00:00 -2.3 C 3.26 g/m*3 -5.98 C 9.7 km/h
18 28-12-2014 07:05:00 -2.3 C 3.3 g/m*3 -6.8 C 12.9 km/h
19 28-12-2014 07:10:00 -2.3 C 3.3 g/m*3 -5.98 C 9.7 km/h
20 28-12-2014 07:15:00 -2.4 C 3.28 g/m*3 -6.53 C 11.3 km/h
21 28-12-2014 07:20:00 -2.4 C 3.28 g/m*3 -4.95 C 6.4 km/h
22 28-12-2014 07:25:00 -2.4 C 3.28 g/m*3 -5.59 C 8.1 km/h
23 28-12-2014 07:30:00 -2.5 C 3.26 g/m*3 -5.71 C 8.1 km/h
24 28-12-2014 07:35:00 -2.5 C 3.3 g/m*3 -7.04 C 12.9 km/h
25 28-12-2014 07:40:00 -2.6 C 3.27 g/m*3 -7.17 C 12.9 km/h
Sensor: Nr:Datum:Temp:Abs-Feuchte:Windchill:Wind:
Aussen-T/F 26 28-12-2014 07:45:00 -2.7 C 3.25 g/m*3 -6.9 C 11.3 km/h
27 28-12-2014 07:50:00 -2.8 C 3.23 g/m*3 -7.76 C 14.5 km/h
28 28-12-2014 07:55:00 -2.9 C 3.2 g/m*3 -6.18 C 8.1 km/h
29 28-12-2014 08:00:00 -3 C 3.18 g/m*3 -5.65 C 6.4 km/h
30 28-12-2014 08:05:00 -3 C 3.18 g/m*3 -3 C 4.8 km/h
31 28-12-2014 08:10:00 -3.2 C 3.18 g/m*3 -5.88 C 6.4 km/h
32 28-12-2014 08:15:00 -3.2 C 3.18 g/m*3 -3.2 C 3.2 km/h
33 28-12-2014 08:20:00 -3.3 C 3.15 g/m*3 -7.17 C 9.7 km/h
34 28-12-2014 08:25:00 -3.3 C 3.15 g/m*3 -5.99 C 6.4 km/h
35 28-12-2014 08:30:00 -3.4 C 3.13 g/m*3 -6.77 C 8.1 km/h
36 28-12-2014 08:35:00 -3.4 C 3.13 g/m*3 -3.4 C 4.8 km/h
37 28-12-2014 08:40:00 -3.5 C 3.11 g/m*3 -3.5 C 1.6 km/h
38 28-12-2014 08:45:00 -3.6 C 3.12 g/m*3 -3.6 C 1.6 km/h
39 28-12-2014 08:50:00 -3.7 C 3.1 g/m*3 -3.7 C 1.6 km/h
40 28-12-2014 08:55:00 -3.7 C 3.1 g/m*3 -8.1 C 11.3 km/h
41 28-12-2014 09:00:00 -3.7 C 3.1 g/m*3 -3.7 C 3.2 km/h
42 28-12-2014 09:05:00 -3.7 C 3.06 g/m*3 -3.7 C 3.2 km/h
43 28-12-2014 09:10:00 -3.7 C 3.1 g/m*3 -3.7 C 4.8 km/h
44 28-12-2014 09:15:00 -3.8 C 3.08 g/m*3 -3.8 C 4.8 km/h
45 28-12-2014 09:20:00 -3.8 C 3.08 g/m*3 -3.8 C 3.2 km/h
46 28-12-2014 09:25:00 -3.9 C 3.06 g/m*3 -6.69 C 6.4 km/h
47 28-12-2014 09:30:00 -3.9 C 3.02 g/m*3 -3.9 C 4.8 km/h
48 28-12-2014 09:35:00 -3.9 C 3.02 g/m*3 -3.9 C 4.8 km/h
49 28-12-2014 09:40:00 -3.8 C 3.01 g/m*3 -6.57 C 6.4 km/h
50 28-12-2014 09:45:00 -3.8 C 3.01 g/m*3 -6.57 C 6.4 km/h
Sensor: Nr:Datum:Temp:Abs-Feuchte:Windchill:Wind:
Aussen-T/F 51 28-12-2014 09:50:00 -3.8 C 3.01 g/m*3 -6.57 C 6.4 km/h
52 28-12-2014 09:55:00 -3.7 C 3.03 g/m*3 -7.12 C 8.1 km/h
53 28-12-2014 10:00:00 -3.7 C 2.99 g/m*3 -7.12 C 8.1 km/h
54 28-12-2014 10:05:00 -3.7 C 2.99 g/m*3 -3.7 C 3.2 km/h
55 28-12-2014 10:10:00 -3.7 C 2.99 g/m*3 -3.7 C 1.6 km/h
56 28-12-2014 10:15:00 -3.7 C 2.95 g/m*3 -7.12 C 8.1 km/h
57 28-12-2014 10:20:00 -3.7 C 2.99 g/m*3 -3.7 C 1.6 km/h
58 28-12-2014 10:25:00 -3.7 C 3.06 g/m*3 -3.7 C 0 km/h
59 28-12-2014 10:30:00 -3.8 C 3.12 g/m*3 -3.8 C 3.2 km/h
60 28-12-2014 10:35:00 -3.9 C 3.09 g/m*3 -3.9 C 3.2 km/h
61 28-12-2014 10:40:00 -3.9 C 3.02 g/m*3 -7.35 C 8.1 km/h
62 28-12-2014 10:45:00 -3.8 C 3.08 g/m*3 -3.8 C 4.8 km/h
63 28-12-2014 10:50:00 -3.9 C 3.02 g/m*3 -3.9 C 3.2 km/h
64 28-12-2014 10:55:00 -3.8 C 2.97 g/m*3 -3.8 C 3.2 km/h
65 28-12-2014 11:00:00 -3.8 C 3.08 g/m*3 -3.8 C 4.8 km/h
66 28-12-2014 11:05:00 -3.8 C 3.01 g/m*3 -6.57 C 6.4 km/h
67 28-12-2014 11:10:00 -3.7 C 2.84 g/m*3 -7.12 C 8.1 km/h
68 28-12-2014 11:15:00 -3.5 C 2.81 g/m*3 -6.22 C 6.4 km/h
69 28-12-2014 11:20:00 -3.4 C 2.83 g/m*3 -7.74 C 11.3 km/h
70 28-12-2014 11:25:00 -3.3 C 2.85 g/m*3 -8.02 C 12.9 km/h
71 28-12-2014 11:30:00 -3.2 C 2.79 g/m*3 -7.5 C 11.3 km/h
72 28-12-2014 11:35:00 -3.1 C 2.81 g/m*3 -7.78 C 12.9 km/h
73 28-12-2014 11:40:00 -3.1 C 2.77 g/m*3 -6.93 C 9.7 km/h
74 28-12-2014 11:45:00 -3 C 2.75 g/m*3 -6.3 C 8.1 km/h
75 28-12-2014 11:50:00 -2.9 C 2.81 g/m*3 -6.18 C 8.1 km/h
Sensor: Nr:Datum:Temp:Abs-Feuchte:Windchill:Wind:
Aussen-T/F 76 28-12-2014 11:55:00 -2.9 C 2.77 g/m*3 -7.89 C 14.5 km/h
77 28-12-2014 12:00:00 -2.9 C 2.77 g/m*3 -6.18 C 8.1 km/h
78 28-12-2014 12:05:00 -2.8 C 2.79 g/m*3 -6.57 C 9.7 km/h
79 28-12-2014 12:10:00 -2.8 C 2.79 g/m*3 -7.41 C 12.9 km/h
80 28-12-2014 12:15:00 -2.7 C 2.77 g/m*3 -6.45 C 9.7 km/h
81 28-12-2014 12:20:00 -2.6 C 2.67 g/m*3 -6.77 C 11.3 km/h
82 28-12-2014 12:25:00 -2.5 C 2.65 g/m*3 -6.65 C 11.3 km/h
83 28-12-2014 12:30:00 -2.4 C 2.7 g/m*3 -5.59 C 8.1 km/h
84 28-12-2014 12:35:00 -2.3 C 2.64 g/m*3 -6.41 C 11.3 km/h
85 28-12-2014 12:40:00 -2.3 C 2.6 g/m*3 -5.98 C 9.7 km/h
86 28-12-2014 12:45:00 -2.2 C 2.62 g/m*3 -6.29 C 11.3 km/h
87 28-12-2014 12:50:00 -2.2 C 2.66 g/m*3 -4.72 C 6.4 km/h
88 28-12-2014 12:55:00 -2.2 C 2.7 g/m*3 -5.86 C 9.7 km/h
89 28-12-2014 13:00:00 -2.1 C 2.72 g/m*3 -5.24 C 8.1 km/h
90 28-12-2014 13:05:00 -2.1 C 2.76 g/m*3 -5.74 C 9.7 km/h
91 28-12-2014 13:10:00 -2 C 2.78 g/m*3 -6.43 C 12.9 km/h
92 28-12-2014 13:15:00 -2 C 2.78 g/m*3 -5.62 C 9.7 km/h
93 28-12-2014 13:20:00 -1.9 C 2.8 g/m*3 -5.5 C 9.7 km/h
94 28-12-2014 13:25:00 -1.9 C 2.76 g/m*3 -5 C 8.1 km/h
95 28-12-2014 13:30:00 -1.9 C 2.84 g/m*3 -4.38 C 6.4 km/h
96 28-12-2014 13:35:00 -1.9 C 2.8 g/m*3 -5.5 C 9.7 km/h
97 28-12-2014 13:40:00 -1.9 C 2.89 g/m*3 -5 C 8.1 km/h
98 28-12-2014 13:45:00 -1.9 C 2.84 g/m*3 -5 C 8.1 km/h
99 28-12-2014 13:50:00 -1.9 C 2.84 g/m*3 -4.38 C 6.4 km/h
100 28-12-2014 13:55:00 -1.8 C 2.82 g/m*3 -5.38 C 9.7 km/h
Sensor: Nr:Datum:Temp:Abs-Feuchte:Windchill:Wind:
Aussen-T/F 101 28-12-2014 14:00:00 -1.7 C 2.84 g/m*3 -4.15 C 6.4 km/h
102 28-12-2014 14:05:00 -1.7 C 2.84 g/m*3 -1.7 C 4.8 km/h
103 28-12-2014 14:10:00 -1.6 C 2.86 g/m*3 -1.6 C 4.8 km/h
104 28-12-2014 14:15:00 -1.6 C 2.86 g/m*3 -4.03 C 6.4 km/h
105 28-12-2014 14:20:00 -1.6 C 2.9 g/m*3 -4.03 C 6.4 km/h
106 28-12-2014 14:25:00 -1.5 C 2.88 g/m*3 -4.53 C 8.1 km/h
107 28-12-2014 14:30:00 -1.5 C 2.92 g/m*3 -3.91 C 6.4 km/h
108 28-12-2014 14:35:00 -1.5 C 2.92 g/m*3 -1.5 C 1.6 km/h
109 28-12-2014 14:40:00 -1.5 C 3.14 g/m*3 -1.5 C 4.8 km/h
110 28-12-2014 14:45:00 -1.7 C 3.27 g/m*3 -1.7 C 1.6 km/h
111 28-12-2014 14:50:00 -1.8 C 3.08 g/m*3 -1.8 C 4.8 km/h
112 28-12-2014 14:55:00 -1.7 C 2.97 g/m*3 -5.69 C 11.3 km/h
113 28-12-2014 15:00:00 -1.6 C 3.03 g/m*3 -4.65 C 8.1 km/h
114 28-12-2014 15:05:00 -1.5 C 3.06 g/m*3 -4.53 C 8.1 km/h
115 28-12-2014 15:10:00 -1.4 C 3.08 g/m*3 -4.42 C 8.1 km/h
116 28-12-2014 15:15:00 -1.4 C 3.03 g/m*3 -5.33 C 11.3 km/h
117 28-12-2014 15:20:00 -1.3 C 3.01 g/m*3 -4.78 C 9.7 km/h
118 28-12-2014 15:25:00 -1.3 C 3.05 g/m*3 -5.58 C 12.9 km/h
119 28-12-2014 15:30:00 -1.2 C 3.08 g/m*3 -3.57 C 6.4 km/h
120 28-12-2014 15:35:00 -1.2 C 3.03 g/m*3 -5.09 C 11.3 km/h
121 28-12-2014 15:40:00 -1.2 C 3.03 g/m*3 -5.09 C 11.3 km/h
122 28-12-2014 15:45:00 -1.2 C 2.99 g/m*3 -5.46 C 12.9 km/h
123 28-12-2014 15:50:00 -1.2 C 2.99 g/m*3 -5.46 C 12.9 km/h
124 28-12-2014 15:55:00 -1.2 C 2.94 g/m*3 -5.09 C 11.3 km/h
125 28-12-2014 16:00:00 -1.3 C 2.97 g/m*3 -3.68 C 6.4 km/h
Sensor: Nr:Datum:Temp:Abs-Feuchte:Windchill:Wind:
Aussen-T/F 126 28-12-2014 16:05:00 -1.3 C 3.01 g/m*3 -1.3 C 4.8 km/h
127 28-12-2014 16:10:00 -1.4 C 3.08 g/m*3 -1.4 C 3.2 km/h
128 28-12-2014 16:15:00 -1.5 C 3.01 g/m*3 -4.53 C 8.1 km/h
129 28-12-2014 16:20:00 -1.6 C 3.08 g/m*3 -1.6 C 4.8 km/h
130 28-12-2014 16:25:00 -1.7 C 3.01 g/m*3 -4.15 C 6.4 km/h
131 28-12-2014 16:30:00 -1.7 C 3.06 g/m*3 -1.7 C 3.2 km/h
132 28-12-2014 16:35:00 -1.7 C 3.06 g/m*3 -4.15 C 6.4 km/h
133 28-12-2014 16:40:00 -1.8 C 3.12 g/m*3 -1.8 C 3.2 km/h
134 28-12-2014 16:45:00 -1.8 C 3.16 g/m*3 -1.8 C 1.6 km/h
135 28-12-2014 16:50:00 -1.9 C 3.1 g/m*3 -1.9 C 3.2 km/h
136 28-12-2014 16:55:00 -2 C 3.16 g/m*3 -2 C 3.2 km/h
137 28-12-2014 17:00:00 -2.2 C 3.24 g/m*3 -2.2 C 3.2 km/h
138 28-12-2014 17:05:00 -2.4 C 3.28 g/m*3 -2.4 C 1.6 km/h
139 28-12-2014 17:10:00 -2.6 C 3.27 g/m*3 -2.6 C 3.2 km/h
140 28-12-2014 17:15:00 -2.7 C 3.25 g/m*3 -2.7 C 3.2 km/h
141 28-12-2014 17:20:00 -2.8 C 3.27 g/m*3 -2.8 C 1.6 km/h
142 28-12-2014 17:25:00 -2.8 C 3.27 g/m*3 -2.8 C 0 km/h
143 28-12-2014 17:30:00 -2.9 C 3.28 g/m*3 -2.9 C 0 km/h
144 28-12-2014 17:35:00 -2.9 C 3.28 g/m*3 -2.9 C 0 km/h
145 28-12-2014 17:40:00 -3.1 C 3.28 g/m*3 -3.1 C 0 km/h
146 28-12-2014 17:45:00 -3.1 C 3.32 g/m*3 -3.1 C 0 km/h
147 28-12-2014 17:50:00 -3.2 C 3.29 g/m*3 -3.2 C 0 km/h
148 28-12-2014 17:55:00 -3.3 C 3.27 g/m*3 -3.3 C 0 km/h
149 28-12-2014 18:00:00 -3.4 C 3.28 g/m*3 -3.4 C 4.8 km/h
150 28-12-2014 18:05:00 -3.4 C 3.32 g/m*3 -6.11 C 6.4 km/h
Sensor: Nr:Datum:Temp:Abs-Feuchte:Windchill:Wind:
Aussen-T/F 151 28-12-2014 18:10:00 -3.4 C 3.32 g/m*3 -6.11 C 6.4 km/h
152 28-12-2014 18:15:00 -3.4 C 3.32 g/m*3 -6.11 C 6.4 km/h
153 28-12-2014 18:20:00 -3.4 C 3.28 g/m*3 -3.4 C 4.8 km/h
154 28-12-2014 18:25:00 -3.4 C 3.28 g/m*3 -6.11 C 6.4 km/h
155 28-12-2014 18:30:00 -3.3 C 3.31 g/m*3 -3.3 C 4.8 km/h
156 28-12-2014 18:35:00 -3.3 C 3.31 g/m*3 -5.99 C 6.4 km/h
157 28-12-2014 18:40:00 -3.2 C 3.29 g/m*3 -7.05 C 9.7 km/h
158 28-12-2014 18:45:00 -3.1 C 3.28 g/m*3 -3.1 C 3.2 km/h
159 28-12-2014 18:50:00 -3.1 C 3.24 g/m*3 -3.1 C 4.8 km/h
160 28-12-2014 18:55:00 -3 C 3.26 g/m*3 -3 C 1.6 km/h
161 28-12-2014 19:00:00 -3.2 C 3.25 g/m*3 -3.2 C 3.2 km/h
162 28-12-2014 19:05:00 -3.3 C 3.27 g/m*3 -3.3 C 4.8 km/h
163 28-12-2014 19:10:00 -3.4 C 3.25 g/m*3 -3.4 C 3.2 km/h
164 28-12-2014 19:15:00 -3.5 C 3.26 g/m*3 -3.5 C 4.8 km/h
165 28-12-2014 19:20:00 -3.6 C 3.27 g/m*3 -3.6 C 1.6 km/h
166 28-12-2014 19:25:00 -3.7 C 3.25 g/m*3 -3.7 C 1.6 km/h
167 28-12-2014 19:30:00 -3.8 C 3.23 g/m*3 -3.8 C 1.6 km/h
168 28-12-2014 19:35:00 -3.9 C 3.24 g/m*3 -3.9 C 4.8 km/h
169 28-12-2014 19:40:00 -3.9 C 3.24 g/m*3 -3.9 C 1.6 km/h
170 28-12-2014 19:45:00 -3.9 C 3.24 g/m*3 -3.9 C 3.2 km/h
171 28-12-2014 19:50:00 -3.9 C 3.28 g/m*3 -3.9 C 4.8 km/h
172 28-12-2014 19:55:00 -3.9 C 3.28 g/m*3 -6.69 C 6.4 km/h
173 28-12-2014 20:00:00 -4.1 C 3.23 g/m*3 -4.1 C 3.2 km/h
174 28-12-2014 20:05:00 -4.2 C 3.21 g/m*3 -4.2 C 3.2 km/h
175 28-12-2014 20:10:00 -4.2 C 3.21 g/m*3 -4.2 C 4.8 km/h
Sensor: Nr:Datum:Temp:Abs-Feuchte:Windchill:Wind:
Aussen-T/F 176 28-12-2014 20:15:00 -4.2 C 3.25 g/m*3 -4.2 C 4.8 km/h
177 28-12-2014 20:20:00 -4.3 C 3.22 g/m*3 -4.3 C 4.8 km/h
178 28-12-2014 20:25:00 -4.2 C 3.25 g/m*3 -4.2 C 1.6 km/h
179 28-12-2014 20:30:00 -4.2 C 3.25 g/m*3 -4.2 C 4.8 km/h
180 28-12-2014 20:35:00 -4.3 C 3.22 g/m*3 -4.3 C 4.8 km/h
181 28-12-2014 20:40:00 -4.3 C 3.22 g/m*3 -4.3 C 4.8 km/h
182 28-12-2014 20:45:00 -4.3 C 3.26 g/m*3 -4.3 C 4.8 km/h
183 28-12-2014 20:50:00 -4.3 C 3.26 g/m*3 -7.15 C 6.4 km/h
184 28-12-2014 20:55:00 -4.3 C 3.26 g/m*3 -4.3 C 4.8 km/h
185 28-12-2014 21:00:00 -4.3 C 3.26 g/m*3 -4.3 C 3.2 km/h
186 28-12-2014 21:05:00 -4.3 C 3.26 g/m*3 -4.3 C 4.8 km/h
187 28-12-2014 21:10:00 -4.4 C 3.24 g/m*3 -4.4 C 4.8 km/h
188 28-12-2014 21:15:00 -4.4 C 3.24 g/m*3 -4.4 C 4.8 km/h
189 28-12-2014 21:20:00 -4.5 C 3.21 g/m*3 -4.5 C 4.8 km/h
190 28-12-2014 21:25:00 -4.5 C 3.21 g/m*3 -4.5 C 4.8 km/h
191 28-12-2014 21:30:00 -4.5 C 3.21 g/m*3 -4.5 C 4.8 km/h
192 28-12-2014 21:35:00 -4.5 C 3.21 g/m*3 -4.5 C 1.6 km/h
193 28-12-2014 21:40:00 -4.6 C 3.19 g/m*3 -4.6 C 3.2 km/h
194 28-12-2014 21:45:00 -4.6 C 3.19 g/m*3 -4.6 C 3.2 km/h
195 28-12-2014 21:50:00 -4.7 C 3.17 g/m*3 -4.7 C 4.8 km/h
196 28-12-2014 21:55:00 -4.8 C 3.14 g/m*3 -4.8 C 3.2 km/h
197 28-12-2014 22:00:00 -4.8 C 3.14 g/m*3 -4.8 C 3.2 km/h
198 28-12-2014 22:05:00 -4.8 C 3.14 g/m*3 -4.8 C 3.2 km/h
199 28-12-2014 22:10:00 -4.8 C 3.14 g/m*3 -4.8 C 1.6 km/h
200 28-12-2014 22:15:00 -4.9 C 3.12 g/m*3 -4.9 C 3.2 km/h
Sensor: Nr:Datum:Temp:Abs-Feuchte:Windchill:Wind:
Aussen-T/F 201 28-12-2014 22:20:00 -4.9 C 3.12 g/m*3 -4.9 C 0 km/h
202 28-12-2014 22:25:00 -5.1 C 3.08 g/m*3 -5.1 C 1.6 km/h
203 28-12-2014 22:30:00 -5.2 C 3.05 g/m*3 -5.2 C 3.2 km/h
204 28-12-2014 22:35:00 -5.2 C 3.05 g/m*3 -5.2 C 0 km/h
205 28-12-2014 22:40:00 -5.3 C 3.03 g/m*3 -5.3 C 0 km/h
206 28-12-2014 22:45:00 -5.3 C 3.03 g/m*3 -5.3 C 0 km/h
207 28-12-2014 22:50:00 -5.3 C 3.07 g/m*3 -5.3 C 1.6 km/h
208 28-12-2014 22:55:00 -5.2 C 3.09 g/m*3 -5.2 C 1.6 km/h
209 28-12-2014 23:00:00 -5.1 C 3.11 g/m*3 -5.1 C 1.6 km/h
210 28-12-2014 23:05:00 -4.8 C 3.21 g/m*3 -4.8 C 1.6 km/h
211 28-12-2014 23:10:00 -4.7 C 3.24 g/m*3 -4.7 C 3.2 km/h
212 28-12-2014 23:15:00 -4.6 C 3.22 g/m*3 -4.6 C 1.6 km/h
213 28-12-2014 23:20:00 -4.6 C 3.22 g/m*3 -4.6 C 1.6 km/h
214 28-12-2014 23:25:00 -4.5 C 3.25 g/m*3 -4.5 C 1.6 km/h
215 28-12-2014 23:30:00 -4.4 C 3.27 g/m*3 -4.4 C 1.6 km/h
216 28-12-2014 23:35:00 -4.4 C 3.27 g/m*3 -4.4 C 3.2 km/h
217 28-12-2014 23:40:00 -4.4 C 3.27 g/m*3 -4.4 C 1.6 km/h
218 28-12-2014 23:45:00 -4.3 C 3.29 g/m*3 -4.3 C 4.8 km/h
219 28-12-2014 23:50:00 -4.3 C 3.26 g/m*3 -4.3 C 0 km/h
220 28-12-2014 23:55:00 -4.3 C 3.26 g/m*3 -4.3 C 3.2 km/h
221 29-12-2014 00:00:00 -4.2 C 3.28 g/m*3 -4.2 C 3.2 km/h
222 29-12-2014 00:05:00 -4.2 C 3.28 g/m*3 -7.03 C 6.4 km/h
223 29-12-2014 00:10:00 -4.1 C 3.31 g/m*3 -6.92 C 6.4 km/h
224 29-12-2014 00:15:00 -4.1 C 3.27 g/m*3 -4.1 C 4.8 km/h
225 29-12-2014 00:20:00 -4 C 3.33 g/m*3 -4 C 3.2 km/h
Sensor: Nr:Datum:Temp:Abs-Feuchte:Windchill:Wind:
Aussen-T/F 226 29-12-2014 00:25:00 -3.9 C 3.32 g/m*3 -3.9 C 1.6 km/h
227 29-12-2014 00:30:00 -3.9 C 3.32 g/m*3 -3.9 C 4.8 km/h
228 29-12-2014 00:35:00 -3.8 C 3.34 g/m*3 -3.8 C 1.6 km/h
229 29-12-2014 00:40:00 -3.8 C 3.34 g/m*3 -3.8 C 3.2 km/h
230 29-12-2014 00:45:00 -3.7 C 3.36 g/m*3 -3.7 C 1.6 km/h
231 29-12-2014 00:50:00 -3.6 C 3.35 g/m*3 -3.6 C 1.6 km/h
232 29-12-2014 00:55:00 -3.6 C 3.35 g/m*3 -6.34 C 6.4 km/h
233 29-12-2014 01:00:00 -3.6 C 3.35 g/m*3 -3.6 C 4.8 km/h
234 29-12-2014 01:05:00 -3.5 C 3.37 g/m*3 -6.88 C 8.1 km/h
235 29-12-2014 01:10:00 -3.6 C 3.35 g/m*3 -3.6 C 4.8 km/h
236 29-12-2014 01:15:00 -3.6 C 3.35 g/m*3 -7.53 C 9.7 km/h
237 29-12-2014 01:20:00 -3.5 C 3.34 g/m*3 -7.41 C 9.7 km/h
238 29-12-2014 01:25:00 -3.4 C 3.36 g/m*3 -7.29 C 9.7 km/h
239 29-12-2014 01:30:00 -3.4 C 3.36 g/m*3 -3.4 C 3.2 km/h
240 29-12-2014 01:35:00 -3.5 C 3.34 g/m*3 -3.5 C 1.6 km/h
241 29-12-2014 01:40:00 -3.6 C 3.31 g/m*3 -3.6 C 0 km/h
242 29-12-2014 01:45:00 -3.7 C 3.29 g/m*3 -3.7 C 0 km/h
243 29-12-2014 01:50:00 -3.9 C 3.28 g/m*3 -7.35 C 8.1 km/h
244 29-12-2014 01:55:00 -4 C 3.26 g/m*3 -7.47 C 8.1 km/h
245 29-12-2014 02:00:00 -4.1 C 3.23 g/m*3 -8.12 C 9.7 km/h
246 29-12-2014 02:05:00 -4.1 C 3.23 g/m*3 -4.1 C 4.8 km/h
247 29-12-2014 02:10:00 -4.1 C 3.23 g/m*3 -4.1 C 4.8 km/h
248 29-12-2014 02:15:00 -4.1 C 3.23 g/m*3 -4.1 C 4.8 km/h
249 29-12-2014 02:20:00 -4.2 C 3.21 g/m*3 -7.03 C 6.4 km/h
250 29-12-2014 02:25:00 -4.3 C 3.19 g/m*3 -4.3 C 4.8 km/h
Sensor: Nr:Datum:Temp:Abs-Feuchte:Windchill:Wind:
Aussen-T/F 251 29-12-2014 02:30:00 -4.3 C 3.19 g/m*3 -4.3 C 0 km/h
252 29-12-2014 02:35:00 -4.4 C 3.2 g/m*3 -4.4 C 4.8 km/h
253 29-12-2014 02:40:00 -4.4 C 3.24 g/m*3 -4.4 C 3.2 km/h
254 29-12-2014 02:45:00 -4.2 C 3.28 g/m*3 -7.71 C 8.1 km/h
255 29-12-2014 02:50:00 -4.1 C 3.27 g/m*3 -4.1 C 4.8 km/h
256 29-12-2014 02:55:00 -3.9 C 3.32 g/m*3 -6.69 C 6.4 km/h
257 29-12-2014 03:00:00 -3.8 C 3.34 g/m*3 -7.24 C 8.1 km/h
258 29-12-2014 03:05:00 -3.7 C 3.33 g/m*3 -7.12 C 8.1 km/h
259 29-12-2014 03:10:00 -3.6 C 3.35 g/m*3 -7.98 C 11.3 km/h
260 29-12-2014 03:15:00 -3.6 C 3.35 g/m*3 -7.53 C 9.7 km/h
261 29-12-2014 03:20:00 -3.4 C 3.36 g/m*3 -8.14 C 12.9 km/h
262 29-12-2014 03:25:00 -3.3 C 3.38 g/m*3 -8.02 C 12.9 km/h
263 29-12-2014 03:30:00 -3.2 C 3.41 g/m*3 -7.9 C 12.9 km/h
264 29-12-2014 03:35:00 -3.2 C 3.41 g/m*3 -7.9 C 12.9 km/h
265 29-12-2014 03:40:00 -3.2 C 3.37 g/m*3 -8.26 C 14.5 km/h
266 29-12-2014 03:45:00 -3.2 C 3.37 g/m*3 -8.26 C 14.5 km/h
267 29-12-2014 03:50:00 -3.2 C 3.37 g/m*3 -7.5 C 11.3 km/h
268 29-12-2014 03:55:00 -3.1 C 3.39 g/m*3 -8.46 C 16.1 km/h
269 29-12-2014 04:00:00 -3.1 C 3.39 g/m*3 -6.41 C 8.1 km/h
270 29-12-2014 04:05:00 -3.1 C 3.35 g/m*3 -8.13 C 14.5 km/h
271 29-12-2014 04:10:00 -2.9 C 3.4 g/m*3 -7.14 C 11.3 km/h
272 29-12-2014 04:15:00 -2.8 C 3.43 g/m*3 -7.41 C 12.9 km/h
273 29-12-2014 04:20:00 -2.8 C 3.43 g/m*3 -7.76 C 14.5 km/h
274 29-12-2014 04:25:00 -2.7 C 3.45 g/m*3 -7.29 C 12.9 km/h
275 29-12-2014 04:30:00 -2.7 C 3.41 g/m*3 -7.29 C 12.9 km/h
Sensor: Nr:Datum:Temp:Abs-Feuchte:Windchill:Wind:
Aussen-T/F 276 29-12-2014 04:35:00 -2.7 C 3.45 g/m*3 -7.96 C 16.1 km/h
277 29-12-2014 04:40:00 -2.7 C 3.53 g/m*3 -7.64 C 14.5 km/h
278 29-12-2014 04:45:00 -2.8 C 3.55 g/m*3 -7.41 C 12.9 km/h
279 29-12-2014 04:50:00 -2.9 C 3.6 g/m*3 -8.21 C 16.1 km/h
280 29-12-2014 04:55:00 -3 C 3.61 g/m*3 -7.65 C 12.9 km/h
281 29-12-2014 05:00:00 -3.1 C 3.63 g/m*3 -7.38 C 11.3 km/h
282 29-12-2014 05:05:00 -3.1 C 3.63 g/m*3 -8.13 C 14.5 km/h
283 29-12-2014 05:10:00 -3.1 C 3.63 g/m*3 -8.13 C 14.5 km/h
284 29-12-2014 05:15:00 -3.1 C 3.63 g/m*3 -7.78 C 12.9 km/h
285 29-12-2014 05:20:00 -3.1 C 3.63 g/m*3 -6.41 C 8.1 km/h
286 29-12-2014 05:25:00 -3 C 3.65 g/m*3 -6.81 C 9.7 km/h
287 29-12-2014 05:30:00 -2.8 C 3.71 g/m*3 -7.76 C 14.5 km/h
288 29-12-2014 05:35:00 -2.8 C 3.71 g/m*3 -7.02 C 11.3 km/h
289 29-12-2014 05:40:00 -2.8 C 3.71 g/m*3 -7.41 C 12.9 km/h
290 29-12-2014 05:45:00 -2.8 C 3.71 g/m*3 -7.41 C 12.9 km/h
291 29-12-2014 05:50:00 -2.9 C 3.72 g/m*3 -6.69 C 9.7 km/h
292 29-12-2014 05:55:00 -2.8 C 3.75 g/m*3 -7.76 C 14.5 km/h
293 29-12-2014 06:00:00 -2.8 C 3.75 g/m*3 -6.06 C 8.1 km/h
294 29-12-2014 06:05:00 -2.8 C 3.75 g/m*3 -7.02 C 11.3 km/h
295 29-12-2014 06:10:00 -2.8 C 3.75 g/m*3 -7.02 C 11.3 km/h
296 29-12-2014 06:15:00 -2.7 C 3.77 g/m*3 -6.9 C 11.3 km/h
297 29-12-2014 06:20:00 -2.8 C 3.75 g/m*3 -6.57 C 9.7 km/h
298 29-12-2014 06:25:00 -2.8 C 3.75 g/m*3 -6.57 C 9.7 km/h
299 29-12-2014 06:30:00 -2.7 C 3.77 g/m*3 -6.9 C 11.3 km/h
300 29-12-2014 06:35:00 -2.6 C 3.8 g/m*3 -5.83 C 8.1 km/h
Sensor: Nr:Datum:Temp:Abs-Feuchte:Windchill:Wind:
Aussen-T/F 301 29-12-2014 06:40:00 -2.5 C 3.83 g/m*3 -5.71 C 8.1 km/h
302 29-12-2014 06:45:00 -2.4 C 3.85 g/m*3 -6.1 C 9.7 km/h
303 29-12-2014 06:50:00 -2.3 C 3.88 g/m*3 -7.15 C 14.5 km/h
304 29-12-2014 06:55:00 -2.3 C 3.88 g/m*3 -5.47 C 8.1 km/h
305 29-12-2014 07:00:00 -2.2 C 3.91 g/m*3 -4.72 C 6.4 km/h
306 29-12-2014 07:05:00 -2.2 C 3.91 g/m*3 -5.86 C 9.7 km/h
307 29-12-2014 07:10:00 -2.1 C 3.93 g/m*3 -2.1 C 4.8 km/h
308 29-12-2014 07:15:00 -2 C 3.96 g/m*3 -5.12 C 8.1 km/h
309 29-12-2014 07:20:00 -1.9 C 4.03 g/m*3 -5.5 C 9.7 km/h
310 29-12-2014 07:25:00 -1.9 C 4.03 g/m*3 -4.38 C 6.4 km/h
311 29-12-2014 07:30:00 -1.8 C 4.06 g/m*3 -1.8 C 4.8 km/h
312 29-12-2014 07:35:00 -1.8 C 4.06 g/m*3 -1.8 C 3.2 km/h
313 29-12-2014 07:40:00 -1.8 C 4.06 g/m*3 -1.8 C 0 km/h
314 29-12-2014 07:45:00 -1.8 C 4.06 g/m*3 -1.8 C 0 km/h
315 29-12-2014 07:50:00 -1.8 C 4.06 g/m*3 -1.8 C 0 km/h
316 29-12-2014 07:55:00 -1.8 C 4.06 g/m*3 -1.8 C 0 km/h
317 29-12-2014 08:00:00 -1.7 C 4.09 g/m*3 -1.7 C 3.2 km/h
318 29-12-2014 08:05:00 -1.7 C 4.09 g/m*3 -1.7 C 4.8 km/h
319 29-12-2014 08:10:00 -1.6 C 4.16 g/m*3 -1.6 C 3.2 km/h
320 29-12-2014 08:15:00 -1.6 C 4.16 g/m*3 -1.6 C 1.6 km/h
321 29-12-2014 08:20:00 -1.6 C 4.16 g/m*3 -1.6 C 1.6 km/h
322 29-12-2014 08:25:00 -1.5 C 4.19 g/m*3 -1.5 C 3.2 km/h
323 29-12-2014 08:30:00 -1.5 C 4.19 g/m*3 -1.5 C 3.2 km/h
324 29-12-2014 08:35:00 -1.4 C 4.18 g/m*3 -1.4 C 1.6 km/h
325 29-12-2014 08:40:00 -1.4 C 4.18 g/m*3 -1.4 C 1.6 km/h
Sensor: Nr:Datum:Temp:Abs-Feuchte:Windchill:Wind:
Aussen-T/F 326 29-12-2014 08:45:00 -1.4 C 4.22 g/m*3 -1.4 C 1.6 km/h
327 29-12-2014 08:50:00 -1.3 C 4.25 g/m*3 -1.3 C 1.6 km/h
328 29-12-2014 08:55:00 -1.3 C 4.25 g/m*3 -1.3 C 0 km/h
329 29-12-2014 09:00:00 -1.3 C 4.25 g/m*3 -1.3 C 0 km/h
330 29-12-2014 09:05:00 -1.3 C 4.25 g/m*3 -1.3 C 3.2 km/h
331 29-12-2014 09:10:00 -1.3 C 4.21 g/m*3 -1.3 C 3.2 km/h
332 29-12-2014 09:15:00 -1.4 C 4.18 g/m*3 -3.8 C 6.4 km/h
333 29-12-2014 09:20:00 -1.4 C 4.18 g/m*3 -1.4 C 3.2 km/h
334 29-12-2014 09:25:00 -1.3 C 4.21 g/m*3 -1.3 C 1.6 km/h
335 29-12-2014 09:30:00 -1.3 C 4.21 g/m*3 -1.3 C 4.8 km/h
336 29-12-2014 09:35:00 -1.3 C 4.25 g/m*3 -1.3 C 4.8 km/h
337 29-12-2014 09:40:00 -1.3 C 4.25 g/m*3 -1.3 C 1.6 km/h
338 29-12-2014 09:45:00 -1.3 C 4.25 g/m*3 -1.3 C 3.2 km/h
339 29-12-2014 09:50:00 -1.2 C 4.28 g/m*3 -1.2 C 1.6 km/h
340 29-12-2014 09:55:00 -1.2 C 4.28 g/m*3 -1.2 C 0 km/h
341 29-12-2014 10:00:00 -1.1 C 4.31 g/m*3 -1.1 C 3.2 km/h
342 29-12-2014 10:05:00 -0.9 C 4.37 g/m*3 -0.9 C 3.2 km/h
343 29-12-2014 10:10:00 -0.9 C 4.37 g/m*3 -0.9 C 1.6 km/h
344 29-12-2014 10:15:00 -0.8 C 4.4 g/m*3 -0.8 C 3.2 km/h
345 29-12-2014 10:20:00 -0.8 C 4.4 g/m*3 -0.8 C 4.8 km/h
346 29-12-2014 10:25:00 -0.7 C 4.43 g/m*3 -0.7 C 0 km/h
347 29-12-2014 10:30:00 -0.6 C 4.46 g/m*3 -2.88 C 6.4 km/h
348 29-12-2014 10:35:00 -0.5 C 4.49 g/m*3 -2.76 C 6.4 km/h
349 29-12-2014 10:40:00 -0.5 C 4.45 g/m*3 -0.5 C 3.2 km/h
350 29-12-2014 10:45:00 -0.4 C 4.48 g/m*3 -0.4 C 4.8 km/h
Sensor: Nr:Datum:Temp:Abs-Feuchte:Windchill:Wind:
Aussen-T/F 351 29-12-2014 10:50:00 -0.4 C 4.48 g/m*3 -0.4 C 4.8 km/h
352 29-12-2014 10:55:00 -0.3 C 4.51 g/m*3 -0.3 C 3.2 km/h
353 29-12-2014 11:00:00 -0.3 C 4.51 g/m*3 -0.3 C 4.8 km/h
354 29-12-2014 11:05:00 -0.3 C 4.51 g/m*3 -2.53 C 6.4 km/h
355 29-12-2014 11:10:00 -0.3 C 4.51 g/m*3 -0.3 C 3.2 km/h
356 29-12-2014 11:15:00 -0.2 C 4.54 g/m*3 -0.2 C 3.2 km/h
357 29-12-2014 11:20:00 -0.1 C 4.62 g/m*3 -0.1 C 3.2 km/h
358 29-12-2014 11:25:00 0.1 C 4.68 g/m*3 0.1 C 4.8 km/h
359 29-12-2014 11:30:00 0.4 C 4.78 g/m*3 -1.72 C 6.4 km/h
360 29-12-2014 11:35:00 0.6 C 4.85 g/m*3 0.6 C 3.2 km/h
361 29-12-2014 11:40:00 0.7 C 4.88 g/m*3 0.7 C 3.2 km/h
362 29-12-2014 11:45:00 0.8 C 4.91 g/m*3 0.8 C 3.2 km/h
363 29-12-2014 11:50:00 0.9 C 4.95 g/m*3 -1.14 C 6.4 km/h
364 29-12-2014 11:55:00 1.2 C 5.05 g/m*3 1.2 C 4.8 km/h
365 29-12-2014 12:00:00 1.2 C 5.05 g/m*3 -1.8 C 9.7 km/h
366 29-12-2014 12:05:00 1.7 C 5.23 g/m*3 -0.22 C 6.4 km/h
367 29-12-2014 12:10:00 1.8 C 5.26 g/m*3 -0.1 C 6.4 km/h
368 29-12-2014 12:15:00 1.9 C 5.3 g/m*3 -0.54 C 8.1 km/h
369 29-12-2014 12:20:00 1.9 C 5.3 g/m*3 1.9 C 3.2 km/h
370 29-12-2014 13:15:00 2.7 C 5.42 g/m*3 0.4 C 8.1 km/h
371 29-12-2014 13:20:00 2.7 C 5.42 g/m*3 0.4 C 8.1 km/h
372 29-12-2014 13:25:00 2.7 C 5.42 g/m*3 -0.38 C 11.3 km/h
373 29-12-2014 13:30:00 2.7 C 5.42 g/m*3 -0.02 C 9.7 km/h
374 29-12-2014 13:35:00 2.8 C 5.46 g/m*3 0.52 C 8.1 km/h
375 29-12-2014 13:40:00 2.8 C 5.46 g/m*3 0.52 C 8.1 km/h
Sensor: Nr:Datum:Temp:Abs-Feuchte:Windchill:Wind:
Aussen-T/F 376 29-12-2014 13:45:00 2.8 C 5.46 g/m*3 0.52 C 8.1 km/h
377 29-12-2014 13:50:00 2.8 C 5.46 g/m*3 0.1 C 9.7 km/h
378 29-12-2014 13:55:00 2.8 C 5.46 g/m*3 -0.59 C 12.9 km/h
379 29-12-2014 14:00:00 2.8 C 5.46 g/m*3 1.05 C 6.4 km/h
380 29-12-2014 14:40:00 2.9 C 5.43 g/m*3 2.9 C 3.2 km/h
381 29-12-2014 14:45:00 3 C 5.47 g/m*3 3 C 3.2 km/h
382 29-12-2014 14:50:00 3 C 5.41 g/m*3 3 C 4.8 km/h
383 29-12-2014 14:55:00 2.9 C 5.37 g/m*3 0.22 C 9.7 km/h
384 29-12-2014 15:00:00 2.9 C 5.37 g/m*3 2.9 C 4.8 km/h
385 29-12-2014 15:05:00 2.9 C 5.37 g/m*3 2.9 C 3.2 km/h
386 29-12-2014 15:25:00 2.9 C 5.26 g/m*3 0.22 C 9.7 km/h
387 29-12-2014 15:30:00 2.9 C 5.26 g/m*3 0.22 C 9.7 km/h
388 29-12-2014 15:35:00 2.9 C 5.26 g/m*3 2.9 C 4.8 km/h
389 29-12-2014 15:40:00 2.8 C 5.22 g/m*3 -0.59 C 12.9 km/h
390 29-12-2014 15:45:00 2.8 C 5.22 g/m*3 -0.26 C 11.3 km/h
391 29-12-2014 15:50:00 2.8 C 5.22 g/m*3 -0.59 C 12.9 km/h
392 29-12-2014 15:55:00 2.8 C 5.22 g/m*3 -0.59 C 12.9 km/h
393 29-12-2014 16:00:00 2.8 C 5.22 g/m*3 -0.26 C 11.3 km/h
394 29-12-2014 16:05:00 2.7 C 5.13 g/m*3 -0.71 C 12.9 km/h
395 29-12-2014 16:10:00 2.7 C 5.07 g/m*3 -1.27 C 16.1 km/h
396 29-12-2014 16:15:00 2.7 C 5.01 g/m*3 -1 C 14.5 km/h
397 29-12-2014 16:20:00 2.7 C 4.95 g/m*3 -1.74 C 19.3 km/h
398 29-12-2014 16:25:00 2.7 C 4.95 g/m*3 -0.38 C 11.3 km/h
399 29-12-2014 16:30:00 2.6 C 4.92 g/m*3 -1.39 C 16.1 km/h
400 29-12-2014 16:35:00 2.6 C 4.86 g/m*3 -0.5 C 11.3 km/h
Sensor: Nr:Datum:Temp:Abs-Feuchte:Windchill:Wind:
Aussen-T/F 401 29-12-2014 16:40:00 2.5 C 4.83 g/m*3 -0.26 C 9.7 km/h
402 29-12-2014 16:45:00 2.5 C 4.83 g/m*3 -0.26 C 9.7 km/h
403 29-12-2014 16:50:00 2.4 C 4.8 g/m*3 0.05 C 8.1 km/h
404 29-12-2014 16:55:00 2.4 C 4.8 g/m*3 0.05 C 8.1 km/h
405 29-12-2014 17:00:00 2.4 C 4.85 g/m*3 2.4 C 4.8 km/h
406 29-12-2014 17:05:00 2.3 C 4.88 g/m*3 2.3 C 3.2 km/h
407 29-12-2014 17:10:00 2.3 C 4.88 g/m*3 2.3 C 3.2 km/h
408 29-12-2014 17:15:00 2.3 C 4.88 g/m*3 2.3 C 3.2 km/h
409 29-12-2014 17:20:00 2.3 C 4.88 g/m*3 -0.07 C 8.1 km/h
410 29-12-2014 17:25:00 2.3 C 4.88 g/m*3 2.3 C 4.8 km/h
411 29-12-2014 17:30:00 2.2 C 4.84 g/m*3 -0.18 C 8.1 km/h
412 29-12-2014 17:35:00 2.2 C 4.84 g/m*3 0.36 C 6.4 km/h
413 29-12-2014 17:40:00 2.1 C 4.81 g/m*3 -0.3 C 8.1 km/h
414 29-12-2014 17:45:00 2.1 C 4.81 g/m*3 -0.73 C 9.7 km/h
415 29-12-2014 17:50:00 2.1 C 4.81 g/m*3 2.1 C 4.8 km/h
416 29-12-2014 17:55:00 2 C 4.78 g/m*3 0.13 C 6.4 km/h
417 29-12-2014 18:00:00 1.9 C 4.75 g/m*3 -1.35 C 11.3 km/h
418 29-12-2014 18:05:00 1.9 C 4.75 g/m*3 -0.54 C 8.1 km/h
419 29-12-2014 18:10:00 1.9 C 4.69 g/m*3 0.01 C 6.4 km/h
420 29-12-2014 18:15:00 1.9 C 4.69 g/m*3 -0.54 C 8.1 km/h
421 29-12-2014 18:20:00 1.9 C 4.69 g/m*3 0.01 C 6.4 km/h
422 29-12-2014 18:25:00 1.9 C 4.69 g/m*3 1.9 C 4.8 km/h
423 29-12-2014 18:30:00 1.9 C 4.69 g/m*3 1.9 C 1.6 km/h
424 29-12-2014 18:35:00 1.8 C 4.66 g/m*3 -1.47 C 11.3 km/h
425 29-12-2014 18:40:00 1.8 C 4.6 g/m*3 -0.1 C 6.4 km/h
Sensor: Nr:Datum:Temp:Abs-Feuchte:Windchill:Wind:
Aussen-T/F 426 29-12-2014 18:45:00 1.8 C 4.55 g/m*3 -1.09 C 9.7 km/h
427 29-12-2014 18:50:00 1.9 C 4.58 g/m*3 -1.35 C 11.3 km/h
428 29-12-2014 18:55:00 1.9 C 4.58 g/m*3 -0.54 C 8.1 km/h
429 29-12-2014 19:00:00 1.9 C 4.58 g/m*3 0.01 C 6.4 km/h
430 29-12-2014 19:05:00 1.8 C 4.6 g/m*3 -1.09 C 9.7 km/h
431 29-12-2014 19:10:00 1.8 C 4.55 g/m*3 -0.1 C 6.4 km/h
432 29-12-2014 19:15:00 1.8 C 4.55 g/m*3 -0.1 C 6.4 km/h
433 29-12-2014 19:20:00 1.8 C 4.55 g/m*3 1.8 C 3.2 km/h
434 29-12-2014 19:25:00 1.8 C 4.55 g/m*3 1.8 C 4.8 km/h
435 29-12-2014 19:30:00 1.8 C 4.55 g/m*3 -1.09 C 9.7 km/h
436 29-12-2014 19:35:00 1.7 C 4.52 g/m*3 -0.77 C 8.1 km/h
437 29-12-2014 19:40:00 1.7 C 4.52 g/m*3 1.7 C 3.2 km/h
438 29-12-2014 19:45:00 1.7 C 4.46 g/m*3 1.7 C 4.8 km/h
439 29-12-2014 19:50:00 1.7 C 4.52 g/m*3 -0.22 C 6.4 km/h
440 29-12-2014 19:55:00 1.7 C 4.52 g/m*3 1.7 C 3.2 km/h
441 29-12-2014 20:00:00 1.6 C 4.49 g/m*3 1.6 C 3.2 km/h
442 29-12-2014 20:05:00 1.6 C 4.49 g/m*3 -1.33 C 9.7 km/h
443 29-12-2014 20:10:00 1.6 C 4.49 g/m*3 -0.33 C 6.4 km/h
444 29-12-2014 20:15:00 1.6 C 4.49 g/m*3 -0.33 C 6.4 km/h
445 29-12-2014 20:20:00 1.5 C 4.4 g/m*3 -0.45 C 6.4 km/h
446 29-12-2014 20:25:00 1.5 C 4.4 g/m*3 -1.45 C 9.7 km/h
447 29-12-2014 20:30:00 1.5 C 4.46 g/m*3 1.5 C 1.6 km/h
448 29-12-2014 20:35:00 1.5 C 4.46 g/m*3 1.5 C 3.2 km/h
449 29-12-2014 20:40:00 1.4 C 4.43 g/m*3 1.4 C 4.8 km/h
450 29-12-2014 20:45:00 1.4 C 4.43 g/m*3 1.4 C 4.8 km/h
Sensor: Nr:Datum:Temp:Abs-Feuchte:Windchill:Wind:
Aussen-T/F 451 29-12-2014 20:50:00 1.5 C 4.4 g/m*3 1.5 C 3.2 km/h
452 29-12-2014 20:55:00 1.5 C 4.46 g/m*3 1.5 C 3.2 km/h
453 29-12-2014 21:00:00 1.5 C 4.4 g/m*3 -1.01 C 8.1 km/h
454 29-12-2014 21:05:00 1.5 C 4.4 g/m*3 1.5 C 4.8 km/h
455 29-12-2014 21:10:00 1.5 C 4.4 g/m*3 -0.45 C 6.4 km/h
456 29-12-2014 21:15:00 1.5 C 4.4 g/m*3 -0.45 C 6.4 km/h
457 29-12-2014 21:20:00 1.4 C 4.43 g/m*3 1.4 C 4.8 km/h
458 29-12-2014 21:25:00 1.4 C 4.43 g/m*3 -0.56 C 6.4 km/h
459 29-12-2014 21:30:00 1.4 C 4.43 g/m*3 1.4 C 4.8 km/h
460 29-12-2014 21:35:00 1.4 C 4.43 g/m*3 1.4 C 3.2 km/h
461 29-12-2014 21:40:00 1.4 C 4.43 g/m*3 1.4 C 3.2 km/h
462 29-12-2014 21:45:00 1.3 C 4.34 g/m*3 -0.68 C 6.4 km/h
463 29-12-2014 21:50:00 1.3 C 4.34 g/m*3 1.3 C 3.2 km/h
464 29-12-2014 21:55:00 1.3 C 4.4 g/m*3 1.3 C 3.2 km/h
465 29-12-2014 22:00:00 1.3 C 4.4 g/m*3 1.3 C 1.6 km/h
466 29-12-2014 22:05:00 1.3 C 4.4 g/m*3 1.3 C 1.6 km/h
467 29-12-2014 22:10:00 1.2 C 4.42 g/m*3 1.2 C 1.6 km/h
468 29-12-2014 22:15:00 1.1 C 4.34 g/m*3 1.1 C 3.2 km/h
469 29-12-2014 22:20:00 0.9 C 4.43 g/m*3 0.9 C 1.6 km/h
470 29-12-2014 22:25:00 0.7 C 4.37 g/m*3 0.7 C 1.6 km/h
471 29-12-2014 22:30:00 0.6 C 4.34 g/m*3 0.6 C 0 km/h
472 29-12-2014 22:35:00 0.4 C 4.38 g/m*3 0.4 C 1.6 km/h
473 29-12-2014 22:40:00 0.3 C 4.4 g/m*3 0.3 C 4.8 km/h
474 29-12-2014 22:45:00 0.3 C 4.45 g/m*3 0.3 C 4.8 km/h
475 29-12-2014 22:50:00 0.2 C 4.42 g/m*3 0.2 C 3.2 km/h
Sensor: Nr:Datum:Temp:Abs-Feuchte:Windchill:Wind:
Aussen-T/F 476 29-12-2014 22:55:00 0.2 C 4.47 g/m*3 0.2 C 4.8 km/h
477 29-12-2014 23:00:00 0.1 C 4.44 g/m*3 0.1 C 1.6 km/h
478 29-12-2014 23:05:00 0.1 C 4.39 g/m*3 0.1 C 1.6 km/h
479 29-12-2014 23:10:00 0 C 4.36 g/m*3 0 C 0 km/h
480 29-12-2014 23:15:00 -0.1 C 4.38 g/m*3 -0.1 C 1.6 km/h
481 29-12-2014 23:20:00 -0.1 C 4.33 g/m*3 -0.1 C 0 km/h
482 29-12-2014 23:25:00 -0.1 C 4.33 g/m*3 -0.1 C 0 km/h
483 29-12-2014 23:30:00 0 C 4.41 g/m*3 0 C 0 km/h
484 29-12-2014 23:35:00 0.1 C 4.39 g/m*3 0.1 C 0 km/h
485 29-12-2014 23:40:00 0.1 C 4.39 g/m*3 0.1 C 0 km/h
486 29-12-2014 23:45:00 0.1 C 4.39 g/m*3 0.1 C 0 km/h
487 29-12-2014 23:50:00 0.2 C 4.42 g/m*3 0.2 C 0 km/h
488 29-12-2014 23:55:00 0.2 C 4.42 g/m*3 0.2 C 0 km/h
489 30-12-2014 00:00:00 0.3 C 4.45 g/m*3 0.3 C 0 km/h
490 30-12-2014 00:05:00 0.3 C 4.45 g/m*3 0.3 C 0 km/h
491 30-12-2014 00:10:00 0.3 C 4.45 g/m*3 0.3 C 0 km/h
492 30-12-2014 00:15:00 0.3 C 4.45 g/m*3 0.3 C 0 km/h
493 30-12-2014 00:55:00 0.4 C 4.48 g/m*3 0.4 C 1.6 km/h
494 30-12-2014 01:00:00 0.3 C 4.45 g/m*3 0.3 C 3.2 km/h
495 30-12-2014 01:05:00 0.3 C 4.5 g/m*3 0.3 C 1.6 km/h
496 30-12-2014 01:10:00 0.3 C 4.5 g/m*3 0.3 C 0 km/h
497 30-12-2014 09:25:00 1.2 C 5.05 g/m*3 1.2 C 3.2 km/h
498 30-12-2014 09:30:00 1.2 C 5.05 g/m*3 1.2 C 1.6 km/h
499 30-12-2014 09:35:00 1.3 C 5.09 g/m*3 1.3 C 1.6 km/h
500 30-12-2014 09:40:00 1.3 C 5.09 g/m*3 1.3 C 1.6 km/h
Sensor: Nr:Datum:Temp:Abs-Feuchte:Windchill:Wind:
Aussen-T/F 501 30-12-2014 09:45:00 1.4 C 5.12 g/m*3 1.4 C 0 km/h
502 30-12-2014 09:50:00 1.4 C 5.12 g/m*3 1.4 C 1.6 km/h
503 30-12-2014 09:55:00 1.5 C 5.16 g/m*3 1.5 C 1.6 km/h
504 30-12-2014 10:00:00 1.6 C 5.19 g/m*3 1.6 C 0 km/h
505 30-12-2014 10:05:00 1.7 C 5.23 g/m*3 1.7 C 1.6 km/h
506 30-12-2014 10:10:00 1.7 C 5.23 g/m*3 1.7 C 1.6 km/h
507 30-12-2014 10:15:00 1.8 C 5.26 g/m*3 1.8 C 1.6 km/h
508 30-12-2014 10:20:00 1.8 C 5.26 g/m*3 1.8 C 3.2 km/h
509 30-12-2014 10:25:00 1.8 C 5.26 g/m*3 1.8 C 1.6 km/h
510 30-12-2014 10:30:00 1.9 C 5.3 g/m*3 1.9 C 1.6 km/h
511 30-12-2014 10:35:00 2 C 5.33 g/m*3 2 C 3.2 km/h
512 30-12-2014 10:40:00 2.2 C 5.41 g/m*3 2.2 C 3.2 km/h
513 30-12-2014 10:45:00 2.2 C 5.41 g/m*3 2.2 C 3.2 km/h
514 30-12-2014 10:50:00 2.3 C 5.44 g/m*3 2.3 C 3.2 km/h
515 30-12-2014 10:55:00 2.3 C 5.44 g/m*3 2.3 C 3.2 km/h
516 30-12-2014 11:00:00 2.4 C 5.48 g/m*3 2.4 C 3.2 km/h
517 30-12-2014 11:05:00 2.5 C 5.52 g/m*3 2.5 C 0 km/h
518 30-12-2014 11:10:00 2.6 C 5.56 g/m*3 2.6 C 4.8 km/h
519 30-12-2014 11:15:00 2.8 C 5.57 g/m*3 2.8 C 3.2 km/h
520 30-12-2014 11:20:00 2.9 C 5.61 g/m*3 2.9 C 1.6 km/h
521 30-12-2014 11:25:00 3 C 5.59 g/m*3 1.28 C 6.4 km/h
522 30-12-2014 11:30:00 2.9 C 5.55 g/m*3 2.9 C 0 km/h
523 30-12-2014 11:35:00 2.9 C 5.55 g/m*3 2.9 C 4.8 km/h
524 30-12-2014 11:40:00 3 C 5.59 g/m*3 3 C 3.2 km/h
525 30-12-2014 11:45:00 3.1 C 5.63 g/m*3 3.1 C 0 km/h
Sensor: Nr:Datum:Temp:Abs-Feuchte:Windchill:Wind:
Aussen-T/F 526 30-12-2014 11:50:00 3.2 C 5.6 g/m*3 3.2 C 1.6 km/h
527 30-12-2014 11:55:00 3.2 C 5.6 g/m*3 3.2 C 3.2 km/h
528 30-12-2014 12:00:00 3.3 C 5.64 g/m*3 3.3 C 3.2 km/h
529 30-12-2014 12:05:00 3.4 C 5.62 g/m*3 3.4 C 1.6 km/h
530 30-12-2014 12:10:00 3.4 C 5.62 g/m*3 3.4 C 3.2 km/h
531 30-12-2014 12:15:00 3.6 C 5.69 g/m*3 3.6 C 1.6 km/h
532 30-12-2014 12:20:00 3.6 C 5.63 g/m*3 3.6 C 3.2 km/h
533 30-12-2014 12:25:00 3.7 C 5.67 g/m*3 3.7 C 3.2 km/h
534 30-12-2014 12:30:00 3.7 C 5.67 g/m*3 3.7 C 1.6 km/h
535 30-12-2014 12:35:00 3.7 C 5.67 g/m*3 3.7 C 3.2 km/h
536 30-12-2014 12:40:00 3.7 C 5.61 g/m*3 3.7 C 0 km/h
537 30-12-2014 12:45:00 3.6 C 5.57 g/m*3 3.6 C 0 km/h
538 30-12-2014 12:50:00 3.6 C 5.63 g/m*3 3.6 C 3.2 km/h
539 30-12-2014 12:55:00 3.6 C 5.63 g/m*3 3.6 C 0 km/h
540 30-12-2014 13:00:00 3.5 C 5.6 g/m*3 3.5 C 0 km/h
541 30-12-2014 13:05:00 3.3 C 5.52 g/m*3 3.3 C 0 km/h
542 30-12-2014 13:10:00 3.3 C 5.52 g/m*3 3.3 C 1.6 km/h
543 30-12-2014 13:15:00 3.2 C 5.54 g/m*3 3.2 C 0 km/h
544 30-12-2014 13:20:00 3.2 C 5.54 g/m*3 3.2 C 0 km/h
545 30-12-2014 13:25:00 3.2 C 5.54 g/m*3 3.2 C 1.6 km/h
546 30-12-2014 13:30:00 3.2 C 5.54 g/m*3 3.2 C 1.6 km/h
547 30-12-2014 13:35:00 3.3 C 5.58 g/m*3 3.3 C 0 km/h
548 30-12-2014 13:40:00 3.3 C 5.58 g/m*3 3.3 C 0 km/h
549 30-12-2014 13:45:00 3.3 C 5.58 g/m*3 3.3 C 0 km/h
550 30-12-2014 13:50:00 3.2 C 5.54 g/m*3 3.2 C 0 km/h
Sensor: Nr:Datum:Temp:Abs-Feuchte:Windchill:Wind:
Aussen-T/F 551 30-12-2014 13:55:00 3.2 C 5.54 g/m*3 3.2 C 0 km/h
552 30-12-2014 14:00:00 3.4 C 5.62 g/m*3 3.4 C 4.8 km/h
553 30-12-2014 14:05:00 3.7 C 5.67 g/m*3 2.09 C 6.4 km/h
554 30-12-2014 14:10:00 3.8 C 5.65 g/m*3 2.21 C 6.4 km/h
555 30-12-2014 14:15:00 4.1 C 5.7 g/m*3 2.55 C 6.4 km/h
556 30-12-2014 14:20:00 4.2 C 5.67 g/m*3 0.84 C 14.5 km/h
557 30-12-2014 14:25:00 4.3 C 5.71 g/m*3 0.97 C 14.5 km/h
558 30-12-2014 14:30:00 4.3 C 5.71 g/m*3 4.3 C 4.8 km/h
559 30-12-2014 14:35:00 4.3 C 5.64 g/m*3 2.29 C 8.1 km/h
560 30-12-2014 14:40:00 4.3 C 5.64 g/m*3 4.3 C 4.8 km/h
561 30-12-2014 14:45:00 4.3 C 5.64 g/m*3 2.78 C 6.4 km/h
562 30-12-2014 14:50:00 4.2 C 5.61 g/m*3 4.2 C 3.2 km/h
563 30-12-2014 14:55:00 4.2 C 5.67 g/m*3 4.2 C 3.2 km/h
564 30-12-2014 15:00:00 4.1 C 5.63 g/m*3 2.05 C 8.1 km/h
565 30-12-2014 15:05:00 4 C 5.59 g/m*3 2.44 C 6.4 km/h
566 30-12-2014 15:10:00 4.1 C 5.63 g/m*3 1.65 C 9.7 km/h
567 30-12-2014 15:15:00 4.2 C 5.67 g/m*3 2.17 C 8.1 km/h
568 30-12-2014 15:20:00 4.2 C 5.67 g/m*3 1.43 C 11.3 km/h
569 30-12-2014 15:25:00 4.3 C 5.71 g/m*3 2.78 C 6.4 km/h
570 30-12-2014 15:30:00 4.3 C 5.77 g/m*3 4.3 C 3.2 km/h
571 30-12-2014 15:35:00 4.3 C 5.77 g/m*3 4.3 C 4.8 km/h
572 30-12-2014 15:40:00 4.3 C 5.77 g/m*3 4.3 C 4.8 km/h
573 30-12-2014 15:45:00 4.2 C 5.73 g/m*3 4.2 C 3.2 km/h
574 30-12-2014 15:50:00 4.1 C 5.76 g/m*3 4.1 C 4.8 km/h
575 30-12-2014 15:55:00 4.1 C 5.76 g/m*3 2.05 C 8.1 km/h
Sensor: Nr:Datum:Temp:Abs-Feuchte:Windchill:Wind:
Aussen-T/F 576 30-12-2014 16:00:00 4.1 C 5.76 g/m*3 4.1 C 3.2 km/h
577 30-12-2014 16:05:00 3.9 C 5.68 g/m*3 3.9 C 4.8 km/h
578 30-12-2014 16:10:00 3.8 C 5.65 g/m*3 3.8 C 1.6 km/h
579 30-12-2014 16:15:00 3.7 C 5.67 g/m*3 3.7 C 1.6 km/h
580 30-12-2014 16:20:00 3.6 C 5.63 g/m*3 3.6 C 1.6 km/h
581 30-12-2014 16:25:00 3.5 C 5.6 g/m*3 3.5 C 1.6 km/h
582 30-12-2014 16:30:00 3.3 C 5.58 g/m*3 3.3 C 1.6 km/h
583 30-12-2014 16:35:00 3.3 C 5.58 g/m*3 3.3 C 3.2 km/h
584 30-12-2014 16:40:00 3.3 C 5.58 g/m*3 3.3 C 1.6 km/h
585 30-12-2014 16:45:00 3.2 C 5.54 g/m*3 3.2 C 4.8 km/h
586 30-12-2014 16:50:00 3.3 C 5.58 g/m*3 1.11 C 8.1 km/h
587 30-12-2014 16:55:00 3.3 C 5.64 g/m*3 1.63 C 6.4 km/h
588 30-12-2014 17:00:00 3.3 C 5.58 g/m*3 3.3 C 1.6 km/h
589 30-12-2014 17:05:00 3.3 C 5.58 g/m*3 3.3 C 4.8 km/h
590 30-12-2014 17:10:00 3.3 C 5.58 g/m*3 3.3 C 4.8 km/h
591 30-12-2014 17:15:00 3.3 C 5.58 g/m*3 3.3 C 3.2 km/h
592 30-12-2014 17:20:00 3.2 C 5.54 g/m*3 3.2 C 1.6 km/h
593 30-12-2014 17:25:00 3.1 C 5.51 g/m*3 3.1 C 3.2 km/h
594 30-12-2014 17:30:00 3 C 5.53 g/m*3 3 C 1.6 km/h
595 30-12-2014 17:35:00 3.1 C 5.57 g/m*3 3.1 C 1.6 km/h
596 30-12-2014 17:40:00 3.2 C 5.6 g/m*3 3.2 C 3.2 km/h
597 30-12-2014 17:45:00 3.2 C 5.54 g/m*3 3.2 C 3.2 km/h
598 30-12-2014 17:50:00 3.2 C 5.54 g/m*3 3.2 C 3.2 km/h
599 30-12-2014 17:55:00 3.2 C 5.54 g/m*3 3.2 C 0 km/h
600 30-12-2014 18:00:00 3 C 5.47 g/m*3 3 C 3.2 km/h
Sensor: Nr:Datum:Temp:Abs-Feuchte:Windchill:Wind:
Aussen-T/F 601 30-12-2014 18:05:00 2.9 C 5.49 g/m*3 2.9 C 0 km/h
602 30-12-2014 18:10:00 2.8 C 5.46 g/m*3 2.8 C 3.2 km/h
603 30-12-2014 18:15:00 2.7 C 5.42 g/m*3 2.7 C 1.6 km/h
604 30-12-2014 18:20:00 2.6 C 5.38 g/m*3 2.6 C 3.2 km/h
605 30-12-2014 18:25:00 2.5 C 5.35 g/m*3 2.5 C 3.2 km/h
606 30-12-2014 18:30:00 2.4 C 5.31 g/m*3 2.4 C 3.2 km/h
607 30-12-2014 18:35:00 2.4 C 5.37 g/m*3 2.4 C 3.2 km/h
608 30-12-2014 18:40:00 2.3 C 5.33 g/m*3 2.3 C 1.6 km/h
609 30-12-2014 18:45:00 2.3 C 5.33 g/m*3 2.3 C 3.2 km/h
610 30-12-2014 18:50:00 2.2 C 5.29 g/m*3 2.2 C 3.2 km/h
611 30-12-2014 18:55:00 2.3 C 5.33 g/m*3 2.3 C 3.2 km/h
612 30-12-2014 19:00:00 2.2 C 5.29 g/m*3 2.2 C 1.6 km/h
613 30-12-2014 19:05:00 2.2 C 5.35 g/m*3 2.2 C 1.6 km/h
614 30-12-2014 19:10:00 2.2 C 5.35 g/m*3 2.2 C 1.6 km/h
615 30-12-2014 19:15:00 2.2 C 5.29 g/m*3 2.2 C 3.2 km/h
616 30-12-2014 19:20:00 2.1 C 5.31 g/m*3 2.1 C 1.6 km/h
617 30-12-2014 19:25:00 2.2 C 5.35 g/m*3 2.2 C 1.6 km/h
618 30-12-2014 19:30:00 2.2 C 5.35 g/m*3 2.2 C 1.6 km/h
619 30-12-2014 19:35:00 2.2 C 5.35 g/m*3 2.2 C 1.6 km/h
620 30-12-2014 19:40:00 2.2 C 5.35 g/m*3 2.2 C 1.6 km/h
621 30-12-2014 19:45:00 2.2 C 5.29 g/m*3 2.2 C 3.2 km/h
622 30-12-2014 19:50:00 2.2 C 5.29 g/m*3 2.2 C 4.8 km/h
623 30-12-2014 19:55:00 2.3 C 5.33 g/m*3 2.3 C 4.8 km/h
624 30-12-2014 20:00:00 2.4 C 5.31 g/m*3 2.4 C 3.2 km/h
625 30-12-2014 20:05:00 2.5 C 5.35 g/m*3 2.5 C 1.6 km/h
Sensor: Nr:Datum:Temp:Abs-Feuchte:Windchill:Wind:
Aussen-T/F 626 30-12-2014 20:10:00 2.4 C 5.25 g/m*3 2.4 C 0 km/h
627 30-12-2014 20:15:00 2.4 C 5.25 g/m*3 2.4 C 0 km/h
628 30-12-2014 20:20:00 2.3 C 5.27 g/m*3 2.3 C 4.8 km/h
629 30-12-2014 20:25:00 2.3 C 5.27 g/m*3 2.3 C 4.8 km/h
630 30-12-2014 20:30:00 2.7 C 5.3 g/m*3 2.7 C 1.6 km/h
631 30-12-2014 20:35:00 2.7 C 5.3 g/m*3 2.7 C 3.2 km/h
632 30-12-2014 20:40:00 2.5 C 5.23 g/m*3 2.5 C 3.2 km/h
633 30-12-2014 20:45:00 2.4 C 5.25 g/m*3 2.4 C 4.8 km/h
634 30-12-2014 20:50:00 2.4 C 5.25 g/m*3 0.59 C 6.4 km/h
635 30-12-2014 20:55:00 2.4 C 5.25 g/m*3 2.4 C 3.2 km/h
636 30-12-2014 21:00:00 2.3 C 5.22 g/m*3 2.3 C 1.6 km/h
637 30-12-2014 21:05:00 2.3 C 5.27 g/m*3 2.3 C 1.6 km/h
638 30-12-2014 21:10:00 2.3 C 5.27 g/m*3 2.3 C 1.6 km/h
639 30-12-2014 21:15:00 2.2 C 5.24 g/m*3 2.2 C 1.6 km/h
640 30-12-2014 21:20:00 2.1 C 5.2 g/m*3 2.1 C 1.6 km/h
641 30-12-2014 21:25:00 2.1 C 5.2 g/m*3 2.1 C 0 km/h
642 30-12-2014 21:30:00 2.1 C 5.2 g/m*3 2.1 C 1.6 km/h
643 30-12-2014 21:35:00 2 C 5.22 g/m*3 2 C 3.2 km/h
644 30-12-2014 21:40:00 2 C 5.22 g/m*3 2 C 3.2 km/h
645 30-12-2014 21:45:00 2.1 C 5.26 g/m*3 2.1 C 4.8 km/h
646 30-12-2014 21:50:00 2.1 C 5.2 g/m*3 2.1 C 1.6 km/h
647 30-12-2014 21:55:00 2.1 C 5.2 g/m*3 2.1 C 1.6 km/h
648 30-12-2014 22:00:00 2 C 5.17 g/m*3 2 C 1.6 km/h
649 30-12-2014 22:05:00 2 C 5.22 g/m*3 2 C 3.2 km/h
650 30-12-2014 22:10:00 1.9 C 5.19 g/m*3 1.9 C 1.6 km/h
Sensor: Nr:Datum:Temp:Abs-Feuchte:Windchill:Wind:
Aussen-T/F 651 30-12-2014 22:15:00 1.9 C 5.19 g/m*3 1.9 C 1.6 km/h
652 30-12-2014 22:20:00 1.9 C 5.19 g/m*3 1.9 C 1.6 km/h
653 30-12-2014 22:25:00 1.9 C 5.19 g/m*3 1.9 C 0 km/h
654 30-12-2014 22:30:00 1.9 C 5.19 g/m*3 1.9 C 0 km/h
655 30-12-2014 22:35:00 1.9 C 5.19 g/m*3 1.9 C 0 km/h
656 30-12-2014 22:40:00 1.9 C 5.19 g/m*3 1.9 C 1.6 km/h
657 30-12-2014 22:45:00 2 C 5.22 g/m*3 2 C 1.6 km/h
658 30-12-2014 22:50:00 2 C 5.22 g/m*3 2 C 1.6 km/h
659 30-12-2014 22:55:00 2 C 5.22 g/m*3 2 C 3.2 km/h
660 30-12-2014 23:00:00 2 C 5.22 g/m*3 2 C 1.6 km/h
661 30-12-2014 23:05:00 1.9 C 5.19 g/m*3 1.9 C 1.6 km/h
662 30-12-2014 23:10:00 1.9 C 5.19 g/m*3 1.9 C 1.6 km/h
663 30-12-2014 23:15:00 1.9 C 5.19 g/m*3 1.9 C 0 km/h
664 30-12-2014 23:20:00 1.9 C 5.19 g/m*3 1.9 C 0 km/h
665 30-12-2014 23:25:00 1.9 C 5.19 g/m*3 1.9 C 3.2 km/h
666 30-12-2014 23:30:00 1.9 C 5.19 g/m*3 1.9 C 3.2 km/h
667 30-12-2014 23:35:00 1.9 C 5.19 g/m*3 1.9 C 0 km/h
668 30-12-2014 23:40:00 1.9 C 5.19 g/m*3 1.9 C 1.6 km/h
669 30-12-2014 23:45:00 1.9 C 5.19 g/m*3 1.9 C 0 km/h
670 30-12-2014 23:50:00 1.9 C 5.19 g/m*3 1.9 C 1.6 km/h
671 30-12-2014 23:55:00 1.9 C 5.19 g/m*3 1.9 C 1.6 km/h
672 31-12-2014 00:00:00 1.9 C 5.24 g/m*3 1.9 C 1.6 km/h
673 31-12-2014 00:05:00 1.9 C 5.19 g/m*3 1.9 C 1.6 km/h
674 31-12-2014 00:10:00 1.9 C 5.19 g/m*3 1.9 C 0 km/h
675 31-12-2014 00:15:00 1.9 C 5.19 g/m*3 1.9 C 0 km/h
Sensor: Nr:Datum:Temp:Abs-Feuchte:Windchill:Wind:
Aussen-T/F 676 31-12-2014 00:20:00 1.9 C 5.19 g/m*3 1.9 C 0 km/h
677 31-12-2014 00:25:00 1.9 C 5.19 g/m*3 1.9 C 1.6 km/h
678 31-12-2014 00:30:00 1.9 C 5.24 g/m*3 1.9 C 0 km/h
679 31-12-2014 00:35:00 1.8 C 5.15 g/m*3 1.8 C 0 km/h
680 31-12-2014 00:40:00 1.9 C 5.24 g/m*3 1.9 C 0 km/h
681 31-12-2014 00:45:00 1.8 C 5.21 g/m*3 1.8 C 0 km/h
682 31-12-2014 00:50:00 1.9 C 5.24 g/m*3 1.9 C 1.6 km/h
683 31-12-2014 00:55:00 1.8 C 5.21 g/m*3 1.8 C 1.6 km/h
684 31-12-2014 01:00:00 1.8 C 5.21 g/m*3 1.8 C 0 km/h
685 31-12-2014 01:05:00 1.8 C 5.21 g/m*3 1.8 C 1.6 km/h
686 31-12-2014 01:10:00 1.8 C 5.21 g/m*3 1.8 C 0 km/h
687 31-12-2014 01:15:00 1.9 C 5.24 g/m*3 1.9 C 4.8 km/h
688 31-12-2014 01:20:00 1.9 C 5.24 g/m*3 1.9 C 1.6 km/h
689 31-12-2014 01:25:00 1.9 C 5.24 g/m*3 1.9 C 0 km/h
690 31-12-2014 01:30:00 2 C 5.22 g/m*3 2 C 1.6 km/h
691 31-12-2014 01:35:00 2.1 C 5.26 g/m*3 2.1 C 1.6 km/h
692 31-12-2014 01:40:00 2.1 C 5.26 g/m*3 2.1 C 1.6 km/h
693 31-12-2014 01:45:00 2.1 C 5.26 g/m*3 2.1 C 1.6 km/h
694 31-12-2014 01:50:00 2.1 C 5.26 g/m*3 2.1 C 0 km/h
695 31-12-2014 01:55:00 2.1 C 5.26 g/m*3 2.1 C 0 km/h
696 31-12-2014 02:00:00 2.1 C 5.26 g/m*3 2.1 C 1.6 km/h
697 31-12-2014 02:05:00 2.1 C 5.26 g/m*3 2.1 C 0 km/h
698 31-12-2014 02:10:00 2.1 C 5.26 g/m*3 2.1 C 1.6 km/h
699 31-12-2014 02:15:00 2.1 C 5.26 g/m*3 2.1 C 1.6 km/h
700 31-12-2014 02:20:00 2.1 C 5.26 g/m*3 2.1 C 0 km/h
Sensor: Nr:Datum:Temp:Abs-Feuchte:Windchill:Wind:
Aussen-T/F 701 31-12-2014 02:25:00 2.1 C 5.26 g/m*3 2.1 C 0 km/h
702 31-12-2014 02:30:00 2.1 C 5.26 g/m*3 2.1 C 1.6 km/h
703 31-12-2014 02:35:00 2.1 C 5.26 g/m*3 2.1 C 0 km/h
704 31-12-2014 02:40:00 2.1 C 5.26 g/m*3 2.1 C 0 km/h
705 31-12-2014 02:45:00 2.1 C 5.26 g/m*3 2.1 C 0 km/h
706 31-12-2014 02:50:00 2.1 C 5.26 g/m*3 2.1 C 1.6 km/h
707 31-12-2014 02:55:00 2.1 C 5.26 g/m*3 2.1 C 1.6 km/h
708 31-12-2014 03:00:00 2.1 C 5.26 g/m*3 2.1 C 1.6 km/h
709 31-12-2014 03:05:00 2.1 C 5.26 g/m*3 2.1 C 1.6 km/h
710 31-12-2014 03:10:00 2.1 C 5.26 g/m*3 2.1 C 1.6 km/h
711 31-12-2014 03:15:00 2.1 C 5.31 g/m*3 2.1 C 1.6 km/h
712 31-12-2014 03:20:00 2.1 C 5.26 g/m*3 2.1 C 3.2 km/h
713 31-12-2014 03:25:00 2.1 C 5.26 g/m*3 2.1 C 0 km/h
714 31-12-2014 03:30:00 2.1 C 5.26 g/m*3 2.1 C 1.6 km/h
715 31-12-2014 03:35:00 2.1 C 5.31 g/m*3 2.1 C 0 km/h
716 31-12-2014 03:40:00 2.1 C 5.31 g/m*3 2.1 C 0 km/h
717 31-12-2014 03:45:00 2.1 C 5.31 g/m*3 2.1 C 1.6 km/h
718 31-12-2014 03:50:00 2.1 C 5.31 g/m*3 2.1 C 0 km/h
719 31-12-2014 03:55:00 2.1 C 5.31 g/m*3 2.1 C 0 km/h
720 31-12-2014 04:00:00 2.1 C 5.31 g/m*3 2.1 C 0 km/h
721 31-12-2014 04:05:00 2.1 C 5.31 g/m*3 2.1 C 0 km/h
722 31-12-2014 04:10:00 2.1 C 5.31 g/m*3 2.1 C 0 km/h
723 31-12-2014 04:15:00 2.1 C 5.31 g/m*3 2.1 C 0 km/h
724 31-12-2014 04:20:00 2.1 C 5.31 g/m*3 2.1 C 0 km/h
725 31-12-2014 04:25:00 2.1 C 5.31 g/m*3 2.1 C 0 km/h
Sensor: Nr:Datum:Temp:Abs-Feuchte:Windchill:Wind:
Aussen-T/F 726 31-12-2014 04:30:00 2.1 C 5.31 g/m*3 2.1 C 0 km/h
727 31-12-2014 04:35:00 2.2 C 5.35 g/m*3 2.2 C 1.6 km/h
728 31-12-2014 04:40:00 2.2 C 5.35 g/m*3 2.2 C 0 km/h
729 31-12-2014 04:45:00 2.2 C 5.35 g/m*3 2.2 C 0 km/h
730 31-12-2014 04:50:00 2.2 C 5.35 g/m*3 2.2 C 0 km/h
731 31-12-2014 04:55:00 2.1 C 5.26 g/m*3 2.1 C 1.6 km/h
732 31-12-2014 05:00:00 2.2 C 5.35 g/m*3 2.2 C 1.6 km/h
733 31-12-2014 05:05:00 2.2 C 5.35 g/m*3 2.2 C 1.6 km/h
734 31-12-2014 05:10:00 2.2 C 5.35 g/m*3 2.2 C 1.6 km/h
735 31-12-2014 05:15:00 2.2 C 5.29 g/m*3 2.2 C 3.2 km/h
736 31-12-2014 05:20:00 2.3 C 5.33 g/m*3 2.3 C 3.2 km/h
737 31-12-2014 05:25:00 2.3 C 5.33 g/m*3 2.3 C 4.8 km/h
738 31-12-2014 05:30:00 2.3 C 5.33 g/m*3 2.3 C 1.6 km/h
739 31-12-2014 05:35:00 2.3 C 5.33 g/m*3 2.3 C 1.6 km/h
740 31-12-2014 05:40:00 2.3 C 5.33 g/m*3 2.3 C 1.6 km/h
741 31-12-2014 05:45:00 2.3 C 5.33 g/m*3 2.3 C 1.6 km/h
742 31-12-2014 05:50:00 2.3 C 5.33 g/m*3 2.3 C 0 km/h
743 31-12-2014 05:55:00 2.3 C 5.33 g/m*3 2.3 C 0 km/h
744 31-12-2014 06:00:00 2.3 C 5.33 g/m*3 2.3 C 3.2 km/h
745 31-12-2014 06:05:00 2.3 C 5.33 g/m*3 2.3 C 0 km/h
746 31-12-2014 06:10:00 2.3 C 5.33 g/m*3 2.3 C 0 km/h
747 31-12-2014 06:15:00 2.3 C 5.33 g/m*3 2.3 C 0 km/h
748 31-12-2014 06:20:00 2.3 C 5.33 g/m*3 2.3 C 3.2 km/h
749 31-12-2014 06:25:00 2.3 C 5.33 g/m*3 2.3 C 1.6 km/h
750 31-12-2014 06:30:00 2.2 C 5.29 g/m*3 2.2 C 1.6 km/h
Sensor: Nr:Datum:Temp:Abs-Feuchte:Windchill:Wind:
Aussen-T/F 751 31-12-2014 06:35:00 2.2 C 5.29 g/m*3 2.2 C 0 km/h
752 31-12-2014 06:40:00 2.2 C 5.29 g/m*3 2.2 C 1.6 km/h
753 31-12-2014 06:45:00 2.3 C 5.33 g/m*3 2.3 C 3.2 km/h
754 31-12-2014 06:50:00 2.3 C 5.33 g/m*3 2.3 C 3.2 km/h
755 31-12-2014 06:55:00 2.3 C 5.33 g/m*3 2.3 C 1.6 km/h
756 31-12-2014 07:00:00 2.3 C 5.33 g/m*3 2.3 C 3.2 km/h
757 31-12-2014 07:05:00 2.4 C 5.37 g/m*3 2.4 C 4.8 km/h
758 31-12-2014 07:10:00 2.4 C 5.37 g/m*3 2.4 C 3.2 km/h
759 31-12-2014 07:15:00 2.4 C 5.37 g/m*3 2.4 C 4.8 km/h
760 31-12-2014 07:20:00 2.5 C 5.4 g/m*3 2.5 C 1.6 km/h
761 31-12-2014 07:25:00 2.5 C 5.35 g/m*3 2.5 C 4.8 km/h
762 31-12-2014 07:30:00 2.6 C 5.44 g/m*3 2.6 C 3.2 km/h
763 31-12-2014 07:35:00 2.6 C 5.38 g/m*3 2.6 C 3.2 km/h
764 31-12-2014 07:40:00 2.6 C 5.38 g/m*3 2.6 C 3.2 km/h
765 31-12-2014 07:45:00 2.6 C 5.38 g/m*3 2.6 C 0 km/h
766 31-12-2014 07:50:00 2.5 C 5.35 g/m*3 2.5 C 3.2 km/h
767 31-12-2014 07:55:00 2.4 C 5.37 g/m*3 2.4 C 1.6 km/h
768 31-12-2014 08:00:00 2.5 C 5.35 g/m*3 2.5 C 3.2 km/h
769 31-12-2014 08:05:00 2.4 C 5.37 g/m*3 2.4 C 3.2 km/h
770 31-12-2014 08:10:00 2.4 C 5.37 g/m*3 2.4 C 3.2 km/h
771 31-12-2014 08:15:00 2.5 C 5.4 g/m*3 2.5 C 4.8 km/h
772 31-12-2014 08:20:00 2.6 C 5.44 g/m*3 0.82 C 6.4 km/h
773 31-12-2014 08:25:00 2.6 C 5.44 g/m*3 0.82 C 6.4 km/h
774 31-12-2014 08:30:00 2.6 C 5.44 g/m*3 2.6 C 1.6 km/h
775 31-12-2014 08:35:00 2.6 C 5.44 g/m*3 2.6 C 3.2 km/h
Sensor: Nr:Datum:Temp:Abs-Feuchte:Windchill:Wind:
Aussen-T/F 776 31-12-2014 08:40:00 2.6 C 5.38 g/m*3 0.29 C 8.1 km/h
777 31-12-2014 08:45:00 2.7 C 5.42 g/m*3 0.4 C 8.1 km/h
778 31-12-2014 08:50:00 2.7 C 5.42 g/m*3 2.7 C 4.8 km/h
779 31-12-2014 08:55:00 2.6 C 5.38 g/m*3 2.6 C 3.2 km/h
780 31-12-2014 09:00:00 2.7 C 5.42 g/m*3 0.4 C 8.1 km/h
781 31-12-2014 09:05:00 2.7 C 5.42 g/m*3 0.4 C 8.1 km/h
782 31-12-2014 09:10:00 2.7 C 5.42 g/m*3 0.94 C 6.4 km/h
783 31-12-2014 09:15:00 2.7 C 5.42 g/m*3 0.4 C 8.1 km/h
784 31-12-2014 09:20:00 2.7 C 5.42 g/m*3 -0.38 C 11.3 km/h
785 31-12-2014 09:25:00 2.8 C 5.4 g/m*3 0.52 C 8.1 km/h
786 31-12-2014 09:30:00 2.8 C 5.4 g/m*3 0.52 C 8.1 km/h
787 31-12-2014 09:35:00 2.8 C 5.4 g/m*3 0.52 C 8.1 km/h
788 31-12-2014 09:40:00 2.8 C 5.4 g/m*3 0.1 C 9.7 km/h
789 31-12-2014 09:45:00 2.8 C 5.4 g/m*3 1.05 C 6.4 km/h
790 31-12-2014 09:50:00 2.8 C 5.4 g/m*3 0.1 C 9.7 km/h
791 31-12-2014 09:55:00 2.9 C 5.43 g/m*3 0.64 C 8.1 km/h
792 31-12-2014 10:00:00 2.9 C 5.43 g/m*3 1.17 C 6.4 km/h
793 31-12-2014 10:05:00 2.9 C 5.43 g/m*3 1.17 C 6.4 km/h
794 31-12-2014 10:10:00 2.9 C 5.43 g/m*3 1.17 C 6.4 km/h
795 31-12-2014 10:15:00 3 C 5.47 g/m*3 0.34 C 9.7 km/h
796 31-12-2014 10:20:00 3 C 5.47 g/m*3 0.76 C 8.1 km/h
797 31-12-2014 10:25:00 3.1 C 5.51 g/m*3 0.46 C 9.7 km/h
798 31-12-2014 10:30:00 3.1 C 5.51 g/m*3 0.1 C 11.3 km/h
799 31-12-2014 10:35:00 3.1 C 5.45 g/m*3 0.87 C 8.1 km/h
800 31-12-2014 10:40:00 3.2 C 5.48 g/m*3 0.22 C 11.3 km/h
Sensor: Nr:Datum:Temp:Abs-Feuchte:Windchill:Wind:
Aussen-T/F 801 31-12-2014 10:45:00 3.2 C 5.48 g/m*3 0.22 C 11.3 km/h
802 31-12-2014 10:50:00 3.2 C 5.48 g/m*3 0.99 C 8.1 km/h
803 31-12-2014 10:55:00 3.3 C 5.52 g/m*3 0.34 C 11.3 km/h
804 31-12-2014 11:00:00 3.2 C 5.48 g/m*3 0.99 C 8.1 km/h
805 31-12-2014 11:05:00 3.2 C 5.48 g/m*3 0.58 C 9.7 km/h
806 31-12-2014 11:10:00 3.2 C 5.48 g/m*3 0.58 C 9.7 km/h
807 31-12-2014 11:15:00 3.3 C 5.52 g/m*3 1.11 C 8.1 km/h
808 31-12-2014 11:20:00 3.3 C 5.52 g/m*3 1.11 C 8.1 km/h
809 31-12-2014 11:25:00 3.3 C 5.52 g/m*3 1.63 C 6.4 km/h
810 31-12-2014 11:30:00 3.4 C 5.56 g/m*3 1.23 C 8.1 km/h
811 31-12-2014 11:35:00 3.4 C 5.56 g/m*3 1.75 C 6.4 km/h
812 31-12-2014 11:40:00 3.5 C 5.6 g/m*3 1.34 C 8.1 km/h
813 31-12-2014 11:45:00 3.6 C 5.63 g/m*3 1.46 C 8.1 km/h
814 31-12-2014 11:50:00 3.6 C 5.63 g/m*3 3.6 C 4.8 km/h
815 31-12-2014 11:55:00 3.6 C 5.63 g/m*3 3.6 C 4.8 km/h
816 31-12-2014 12:00:00 3.6 C 5.63 g/m*3 3.6 C 4.8 km/h
817 31-12-2014 17:10:00 3.3 C 6.07 g/m*3 3.3 C 1.6 km/h
818 31-12-2014 17:15:00 3.2 C 6.03 g/m*3 3.2 C 3.2 km/h
819 31-12-2014 17:20:00 3.2 C 6.03 g/m*3 3.2 C 1.6 km/h
820 31-12-2014 17:25:00 3.2 C 6.03 g/m*3 3.2 C 3.2 km/h
821 31-12-2014 17:30:00 3.2 C 6.03 g/m*3 0.58 C 9.7 km/h
822 31-12-2014 17:35:00 3.2 C 6.03 g/m*3 3.2 C 3.2 km/h
823 31-12-2014 17:40:00 3.2 C 6.03 g/m*3 3.2 C 3.2 km/h
824 01-01-2015 00:15:00 2.6 C 5.79 g/m*3 2.6 C 0 km/h
825 01-01-2015 00:20:00 2.6 C 5.79 g/m*3 2.6 C 0 km/h
Sensor: Nr:Datum:Temp:Abs-Feuchte:Windchill:Wind:
Aussen-T/F 826 01-01-2015 00:25:00 2.6 C 5.79 g/m*3 2.6 C 0 km/h
827 01-01-2015 00:30:00 2.6 C 5.79 g/m*3 2.6 C 1.6 km/h
828 01-01-2015 00:35:00 2.7 C 5.59 g/m*3 2.7 C 0 km/h
829 01-01-2015 00:40:00 2.7 C 5.59 g/m*3 2.7 C 0 km/h
830 01-01-2015 00:45:00 2.7 C 5.59 g/m*3 2.7 C 1.6 km/h
831 01-01-2015 00:50:00 2.7 C 5.59 g/m*3 2.7 C 0 km/h
832 01-01-2015 00:55:00 2.7 C 5.59 g/m*3 2.7 C 0 km/h
833 01-01-2015 01:00:00 2.7 C 5.59 g/m*3 2.7 C 1.6 km/h
834 01-01-2015 01:05:00 2.8 C 5.63 g/m*3 2.8 C 1.6 km/h
835 01-01-2015 01:10:00 2.8 C 5.63 g/m*3 2.8 C 0 km/h
836 01-01-2015 01:15:00 2.8 C 5.63 g/m*3 2.8 C 0 km/h
837 01-01-2015 01:20:00 2.8 C 5.63 g/m*3 2.8 C 1.6 km/h
838 01-01-2015 01:25:00 2.9 C 5.67 g/m*3 2.9 C 0 km/h
839 01-01-2015 01:30:00 2.9 C 5.67 g/m*3 2.9 C 1.6 km/h
840 01-01-2015 01:35:00 2.9 C 5.67 g/m*3 2.9 C 0 km/h
841 01-01-2015 01:40:00 2.9 C 5.67 g/m*3 2.9 C 0 km/h
842 01-01-2015 01:45:00 2.9 C 5.67 g/m*3 2.9 C 1.6 km/h
843 01-01-2015 01:50:00 2.9 C 5.67 g/m*3 2.9 C 0 km/h
844 01-01-2015 01:55:00 2.9 C 5.67 g/m*3 2.9 C 0 km/h
845 01-01-2015 02:00:00 2.8 C 5.63 g/m*3 2.8 C 0 km/h
846 01-01-2015 02:05:00 2.8 C 5.63 g/m*3 2.8 C 0 km/h
847 01-01-2015 02:10:00 2.8 C 5.63 g/m*3 2.8 C 0 km/h
848 01-01-2015 02:15:00 2.8 C 5.63 g/m*3 2.8 C 0 km/h
849 01-01-2015 02:20:00 2.8 C 5.63 g/m*3 2.8 C 0 km/h
850 01-01-2015 02:25:00 2.8 C 5.63 g/m*3 2.8 C 0 km/h
Sensor: Nr:Datum:Temp:Abs-Feuchte:Windchill:Wind:
Aussen-T/F 851 01-01-2015 02:30:00 2.8 C 5.63 g/m*3 2.8 C 0 km/h
852 01-01-2015 02:35:00 2.8 C 5.63 g/m*3 2.8 C 0 km/h
853 01-01-2015 02:40:00 2.7 C 5.59 g/m*3 2.7 C 0 km/h
854 01-01-2015 02:45:00 2.7 C 5.59 g/m*3 2.7 C 0 km/h
855 01-01-2015 02:50:00 2.7 C 5.59 g/m*3 2.7 C 0 km/h
856 01-01-2015 02:55:00 2.6 C 5.56 g/m*3 2.6 C 0 km/h
857 01-01-2015 03:00:00 2.5 C 5.52 g/m*3 2.5 C 0 km/h
858 01-01-2015 03:05:00 2.4 C 5.42 g/m*3 2.4 C 0 km/h
859 01-01-2015 03:10:00 2.2 C 5.35 g/m*3 2.2 C 3.2 km/h
860 01-01-2015 03:15:00 1.9 C 5.24 g/m*3 1.9 C 3.2 km/h
861 01-01-2015 03:20:00 1.8 C 5.21 g/m*3 1.8 C 3.2 km/h
862 01-01-2015 03:25:00 1.8 C 5.26 g/m*3 1.8 C 3.2 km/h
863 01-01-2015 03:30:00 1.7 C 5.23 g/m*3 1.7 C 0 km/h
864 01-01-2015 03:35:00 1.6 C 5.19 g/m*3 1.6 C 1.6 km/h
865 01-01-2015 03:40:00 1.6 C 5.19 g/m*3 1.6 C 1.6 km/h
866 01-01-2015 03:45:00 1.4 C 5.12 g/m*3 1.4 C 3.2 km/h
867 01-01-2015 03:50:00 1.4 C 5.12 g/m*3 1.4 C 3.2 km/h
868 01-01-2015 03:55:00 1.3 C 5.09 g/m*3 1.3 C 0 km/h
869 01-01-2015 04:00:00 1.3 C 5.09 g/m*3 1.3 C 1.6 km/h
870 01-01-2015 04:05:00 1.3 C 5.09 g/m*3 1.3 C 0 km/h
871 01-01-2015 04:10:00 1.2 C 5.05 g/m*3 1.2 C 3.2 km/h
872 01-01-2015 04:15:00 1.1 C 5.02 g/m*3 1.1 C 1.6 km/h
873 01-01-2015 04:20:00 1 C 4.98 g/m*3 1 C 1.6 km/h
874 01-01-2015 04:25:00 0.9 C 4.95 g/m*3 0.9 C 4.8 km/h
875 01-01-2015 04:30:00 0.9 C 4.95 g/m*3 0.9 C 4.8 km/h
Sensor: Nr:Datum:Temp:Abs-Feuchte:Windchill:Wind:
Aussen-T/F 876 01-01-2015 04:35:00 0.9 C 4.95 g/m*3 0.9 C 1.6 km/h
877 01-01-2015 04:40:00 0.9 C 5 g/m*3 0.9 C 3.2 km/h
878 01-01-2015 04:45:00 0.9 C 5 g/m*3 0.9 C 1.6 km/h
879 01-01-2015 04:50:00 0.9 C 5 g/m*3 0.9 C 3.2 km/h
880 01-01-2015 04:55:00 1 C 5.03 g/m*3 1 C 1.6 km/h
881 01-01-2015 05:00:00 1.1 C 5.07 g/m*3 1.1 C 1.6 km/h
882 01-01-2015 05:05:00 1.2 C 5.1 g/m*3 1.2 C 3.2 km/h
883 01-01-2015 05:10:00 1.3 C 5.14 g/m*3 1.3 C 0 km/h
884 01-01-2015 05:15:00 1.4 C 5.17 g/m*3 1.4 C 1.6 km/h
885 01-01-2015 05:20:00 1.5 C 5.21 g/m*3 1.5 C 0 km/h
886 01-01-2015 05:25:00 1.5 C 5.21 g/m*3 1.5 C 0 km/h
887 01-01-2015 05:30:00 1.5 C 5.21 g/m*3 1.5 C 1.6 km/h
888 01-01-2015 05:35:00 1.6 C 5.25 g/m*3 1.6 C 0 km/h
889 01-01-2015 05:40:00 1.7 C 5.28 g/m*3 1.7 C 3.2 km/h
890 01-01-2015 05:45:00 1.7 C 5.28 g/m*3 1.7 C 0 km/h
891 01-01-2015 05:50:00 1.8 C 5.32 g/m*3 1.8 C 4.8 km/h
892 01-01-2015 05:55:00 1.8 C 5.32 g/m*3 1.8 C 3.2 km/h
893 01-01-2015 06:00:00 1.8 C 5.32 g/m*3 -0.1 C 6.4 km/h
894 01-01-2015 06:05:00 1.8 C 5.32 g/m*3 -0.1 C 6.4 km/h
895 01-01-2015 06:10:00 1.8 C 5.32 g/m*3 1.8 C 4.8 km/h
896 01-01-2015 06:15:00 1.8 C 5.32 g/m*3 1.8 C 3.2 km/h
897 01-01-2015 06:20:00 1.8 C 5.32 g/m*3 1.8 C 4.8 km/h
898 01-01-2015 06:25:00 1.8 C 5.32 g/m*3 1.8 C 3.2 km/h
899 01-01-2015 06:30:00 1.8 C 5.32 g/m*3 1.8 C 4.8 km/h
900 01-01-2015 06:35:00 1.8 C 5.32 g/m*3 -0.65 C 8.1 km/h
Sensor: Nr:Datum:Temp:Abs-Feuchte:Windchill:Wind:
Aussen-T/F 901 01-01-2015 06:40:00 1.8 C 5.32 g/m*3 1.8 C 4.8 km/h
902 01-01-2015 06:45:00 1.8 C 5.32 g/m*3 -0.1 C 6.4 km/h
903 01-01-2015 06:50:00 1.8 C 5.32 g/m*3 -0.65 C 8.1 km/h
904 01-01-2015 06:55:00 1.8 C 5.32 g/m*3 1.8 C 4.8 km/h
905 01-01-2015 07:00:00 1.8 C 5.32 g/m*3 -0.1 C 6.4 km/h
906 01-01-2015 07:05:00 1.8 C 5.32 g/m*3 1.8 C 1.6 km/h
907 01-01-2015 07:10:00 1.8 C 5.32 g/m*3 1.8 C 3.2 km/h
908 01-01-2015 07:15:00 1.8 C 5.32 g/m*3 1.8 C 3.2 km/h
909 01-01-2015 07:20:00 1.7 C 5.28 g/m*3 1.7 C 0 km/h
910 01-01-2015 07:25:00 1.7 C 5.28 g/m*3 1.7 C 3.2 km/h
911 01-01-2015 07:30:00 1.7 C 5.28 g/m*3 1.7 C 4.8 km/h
912 01-01-2015 07:35:00 1.7 C 5.28 g/m*3 1.7 C 1.6 km/h
913 01-01-2015 07:40:00 1.7 C 5.28 g/m*3 1.7 C 4.8 km/h
914 01-01-2015 07:45:00 1.6 C 5.25 g/m*3 1.6 C 3.2 km/h
915 01-01-2015 07:50:00 1.6 C 5.25 g/m*3 1.6 C 0 km/h
916 01-01-2015 07:55:00 1.6 C 5.25 g/m*3 1.6 C 3.2 km/h
917 01-01-2015 08:00:00 1.6 C 5.25 g/m*3 1.6 C 3.2 km/h
918 01-01-2015 08:05:00 1.6 C 5.25 g/m*3 1.6 C 1.6 km/h
919 01-01-2015 08:10:00 1.6 C 5.25 g/m*3 1.6 C 3.2 km/h
920 01-01-2015 08:15:00 1.6 C 5.25 g/m*3 1.6 C 1.6 km/h
921 01-01-2015 08:20:00 1.6 C 5.25 g/m*3 1.6 C 0 km/h
922 01-01-2015 08:25:00 1.5 C 5.21 g/m*3 1.5 C 1.6 km/h
923 01-01-2015 08:30:00 1.5 C 5.21 g/m*3 1.5 C 0 km/h
924 01-01-2015 08:35:00 1.5 C 5.21 g/m*3 1.5 C 0 km/h
925 01-01-2015 16:40:00 1.8 C 5.48 g/m*3 1.8 C 1.6 km/h
Sensor: Nr:Datum:Temp:Abs-Feuchte:Windchill:Wind:
Aussen-T/F 926 01-01-2015 16:45:00 1.8 C 5.48 g/m*3 1.8 C 3.2 km/h
927 01-01-2015 18:30:00 1.9 C 5.24 g/m*3 1.9 C 3.2 km/h
928 01-01-2015 18:35:00 1.8 C 5.15 g/m*3 1.8 C 1.6 km/h
929 01-01-2015 18:40:00 1.7 C 5.17 g/m*3 1.7 C 3.2 km/h
930 01-01-2015 18:45:00 1.6 C 5.14 g/m*3 1.6 C 0 km/h
931 01-01-2015 18:50:00 1.6 C 5.14 g/m*3 1.6 C 0 km/h
932 01-01-2015 18:55:00 1.5 C 5.1 g/m*3 1.5 C 0 km/h
933 01-01-2015 19:00:00 1.3 C 5.03 g/m*3 1.3 C 0 km/h
934 01-01-2015 19:05:00 1.2 C 5 g/m*3 1.2 C 1.6 km/h
935 01-01-2015 19:10:00 1.2 C 5 g/m*3 1.2 C 3.2 km/h
936 01-01-2015 19:15:00 1.2 C 5.05 g/m*3 1.2 C 3.2 km/h
937 01-01-2015 19:20:00 1.1 C 4.96 g/m*3 1.1 C 1.6 km/h
938 01-01-2015 19:25:00 1.1 C 4.96 g/m*3 1.1 C 3.2 km/h
939 01-01-2015 19:30:00 1.1 C 4.96 g/m*3 1.1 C 1.6 km/h
940 02-01-2015 03:25:00 2.2 C 4.96 g/m*3 -0.99 C 11.3 km/h
941 02-01-2015 03:30:00 2.2 C 4.96 g/m*3 2.2 C 1.6 km/h
942 02-01-2015 03:35:00 2.2 C 4.96 g/m*3 -0.61 C 9.7 km/h
943 02-01-2015 05:05:00 3.2 C 4.94 g/m*3 -0.1 C 12.9 km/h
944 02-01-2015 05:10:00 3.2 C 4.94 g/m*3 0.22 C 11.3 km/h
945 02-01-2015 05:15:00 3.2 C 4.94 g/m*3 -1.32 C 20.9 km/h
946 02-01-2015 05:20:00 3.2 C 4.94 g/m*3 0.22 C 11.3 km/h
947 02-01-2015 05:25:00 3.2 C 4.94 g/m*3 0.22 C 11.3 km/h
948 02-01-2015 05:30:00 3.2 C 4.94 g/m*3 -0.39 C 14.5 km/h
949 02-01-2015 06:25:00 3.6 C 4.95 g/m*3 -0.15 C 16.1 km/h
950 02-01-2015 06:30:00 3.4 C 4.95 g/m*3 -0.14 C 14.5 km/h
Sensor: Nr:Datum:Temp:Abs-Feuchte:Windchill:Wind:
Aussen-T/F 951 02-01-2015 06:35:00 3.3 C 4.97 g/m*3 -1.57 C 24.1 km/h
952 02-01-2015 06:40:00 3.3 C 4.97 g/m*3 -0.76 C 17.7 km/h
953 02-01-2015 06:45:00 3.3 C 5.04 g/m*3 -1.19 C 20.9 km/h
954 02-01-2015 06:50:00 3.2 C 5 g/m*3 -1.11 C 19.3 km/h
955 02-01-2015 06:55:00 3.2 C 5 g/m*3 -1.87 C 25.7 km/h
956 02-01-2015 07:00:00 3.3 C 5.04 g/m*3 -1.74 C 25.7 km/h
957 02-01-2015 07:05:00 3.2 C 5 g/m*3 -1.51 C 22.5 km/h
958 02-01-2015 07:10:00 3.2 C 5 g/m*3 -0.89 C 17.7 km/h
959 02-01-2015 07:15:00 3.2 C 5.06 g/m*3 0.22 C 11.3 km/h
960 02-01-2015 07:20:00 3.1 C 5.03 g/m*3 -1.64 C 22.5 km/h
961 02-01-2015 07:25:00 3.1 C 5.09 g/m*3 -1.45 C 20.9 km/h
962 02-01-2015 07:30:00 3.1 C 5.09 g/m*3 -2.18 C 27.4 km/h
963 02-01-2015 07:35:00 3 C 5.05 g/m*3 -0.9 C 16.1 km/h
964 02-01-2015 07:40:00 3 C 5.05 g/m*3 -0.34 C 12.9 km/h
965 02-01-2015 07:45:00 2.9 C 5.08 g/m*3 -0.76 C 14.5 km/h
966 02-01-2015 07:50:00 2.9 C 5.08 g/m*3 -0.46 C 12.9 km/h
967 02-01-2015 07:55:00 2.9 C 5.08 g/m*3 -0.76 C 14.5 km/h
968 02-01-2015 08:00:00 2.8 C 5.1 g/m*3 -2.02 C 22.5 km/h
969 02-01-2015 08:05:00 2.8 C 5.1 g/m*3 0.52 C 8.1 km/h
970 02-01-2015 08:10:00 2.8 C 5.1 g/m*3 -0.26 C 11.3 km/h
971 02-01-2015 08:15:00 2.8 C 5.1 g/m*3 -1.61 C 19.3 km/h
972 02-01-2015 08:20:00 2.7 C 5.13 g/m*3 -2.34 C 24.1 km/h
973 02-01-2015 08:25:00 2.8 C 5.16 g/m*3 -1.61 C 19.3 km/h
974 02-01-2015 08:30:00 2.8 C 5.16 g/m*3 -0.88 C 14.5 km/h
975 02-01-2015 08:35:00 2.8 C 5.16 g/m*3 -1.39 C 17.7 km/h
Sensor: Nr:Datum:Temp:Abs-Feuchte:Windchill:Wind:
Aussen-T/F 976 02-01-2015 08:40:00 2.7 C 5.13 g/m*3 -1.95 C 20.9 km/h
977 02-01-2015 08:45:00 2.8 C 5.16 g/m*3 -2.57 C 27.4 km/h
978 02-01-2015 08:50:00 2.8 C 5.22 g/m*3 -1.39 C 17.7 km/h
979 02-01-2015 08:55:00 2.7 C 5.19 g/m*3 -1.74 C 19.3 km/h
980 02-01-2015 09:00:00 2.7 C 5.19 g/m*3 -1.51 C 17.7 km/h
981 02-01-2015 09:05:00 2.7 C 5.24 g/m*3 -1.27 C 16.1 km/h
982 02-01-2015 09:10:00 2.7 C 5.24 g/m*3 -2.15 C 22.5 km/h
983 02-01-2015 09:15:00 2.7 C 5.24 g/m*3 -2.15 C 22.5 km/h
984 02-01-2015 09:20:00 2.7 C 5.24 g/m*3 -1.95 C 20.9 km/h
985 02-01-2015 09:25:00 2.7 C 5.24 g/m*3 -2.34 C 24.1 km/h
986 02-01-2015 09:30:00 2.7 C 5.3 g/m*3 -2.34 C 24.1 km/h
987 02-01-2015 09:35:00 2.7 C 5.3 g/m*3 -1.27 C 16.1 km/h
988 02-01-2015 09:40:00 2.7 C 5.24 g/m*3 -2.34 C 24.1 km/h
989 02-01-2015 09:45:00 2.8 C 5.28 g/m*3 -2.39 C 25.7 km/h
990 02-01-2015 09:50:00 2.8 C 5.28 g/m*3 -1.39 C 17.7 km/h
991 02-01-2015 09:55:00 2.8 C 5.28 g/m*3 -1.83 C 20.9 km/h
992 02-01-2015 10:00:00 2.9 C 5.32 g/m*3 -1.02 C 16.1 km/h
993 02-01-2015 10:05:00 2.9 C 5.32 g/m*3 -2.26 C 25.7 km/h
994 02-01-2015 10:10:00 3 C 5.35 g/m*3 -1.77 C 22.5 km/h
995 02-01-2015 10:15:00 3.1 C 5.39 g/m*3 -1.83 C 24.1 km/h
996 02-01-2015 10:20:00 3.1 C 5.39 g/m*3 -1.45 C 20.9 km/h
997 02-01-2015 10:25:00 3.2 C 5.42 g/m*3 -1.7 C 24.1 km/h
998 02-01-2015 10:30:00 3.2 C 5.42 g/m*3 -0.89 C 17.7 km/h
999 02-01-2015 10:35:00 3.3 C 5.4 g/m*3 -0.76 C 17.7 km/h
1000 02-01-2015 10:40:00 3.3 C 5.4 g/m*3 -1.19 C 20.9 km/h
Sensor: Nr:Datum:Temp:Abs-Feuchte:Windchill:Wind:
Aussen-T/F 1001 02-01-2015 10:45:00 3.3 C 5.4 g/m*3 -0.99 C 19.3 km/h
1002 02-01-2015 10:50:00 3.3 C 5.4 g/m*3 -0.76 C 17.7 km/h
1003 02-01-2015 10:55:00 3.4 C 5.44 g/m*3 -1.44 C 24.1 km/h
1004 02-01-2015 11:00:00 3.4 C 5.44 g/m*3 -0.64 C 17.7 km/h
1005 02-01-2015 11:05:00 3.5 C 5.47 g/m*3 -0.28 C 16.1 km/h
1006 02-01-2015 11:10:00 3.5 C 5.47 g/m*3 -1.49 C 25.7 km/h
1007 02-01-2015 11:15:00 3.5 C 5.47 g/m*3 0.58 C 11.3 km/h
1008 02-01-2015 11:20:00 3.6 C 5.51 g/m*3 -1.01 C 22.5 km/h
1009 02-01-2015 11:25:00 3.6 C 5.51 g/m*3 -1.19 C 24.1 km/h
1010 02-01-2015 11:30:00 3.7 C 5.55 g/m*3 -0.88 C 22.5 km/h
1011 02-01-2015 11:35:00 3.7 C 5.55 g/m*3 -1.23 C 25.7 km/h
1012 02-01-2015 11:40:00 3.7 C 5.55 g/m*3 -0.69 C 20.9 km/h
1013 02-01-2015 11:45:00 3.8 C 5.58 g/m*3 -0.75 C 22.5 km/h
1014 02-01-2015 11:50:00 3.8 C 5.58 g/m*3 -0.56 C 20.9 km/h
1015 02-01-2015 11:55:00 3.9 C 5.62 g/m*3 -0.97 C 25.7 km/h
1016 02-01-2015 12:00:00 3.9 C 5.62 g/m*3 -0.23 C 19.3 km/h
1017 02-01-2015 12:05:00 4.1 C 5.7 g/m*3 0.47 C 16.1 km/h
1018 02-01-2015 12:10:00 4.1 C 5.7 g/m*3 0.47 C 16.1 km/h
1019 02-01-2015 12:15:00 4.1 C 5.7 g/m*3 0.02 C 19.3 km/h
1020 02-01-2015 12:20:00 4.2 C 5.73 g/m*3 0.15 C 19.3 km/h
1021 02-01-2015 12:25:00 4.2 C 5.73 g/m*3 0.36 C 17.7 km/h
1022 02-01-2015 12:30:00 4.2 C 5.73 g/m*3 0.36 C 17.7 km/h
1023 02-01-2015 12:35:00 4.3 C 5.77 g/m*3 0.49 C 17.7 km/h
1024 02-01-2015 12:40:00 4.3 C 5.77 g/m*3 -0.11 C 22.5 km/h
1025 02-01-2015 12:45:00 4.4 C 5.81 g/m*3 0.61 C 17.7 km/h
Sensor: Nr:Datum:Temp:Abs-Feuchte:Windchill:Wind:
Aussen-T/F 1026 02-01-2015 12:50:00 4.5 C 5.85 g/m*3 0.74 C 17.7 km/h
1027 02-01-2015 12:55:00 4.6 C 5.89 g/m*3 0.86 C 17.7 km/h
1028 02-01-2015 13:00:00 4.6 C 5.89 g/m*3 0.45 C 20.9 km/h
1029 02-01-2015 13:05:00 4.5 C 5.85 g/m*3 0.33 C 20.9 km/h
1030 02-01-2015 13:10:00 4.5 C 5.85 g/m*3 0.96 C 16.1 km/h
1031 02-01-2015 13:15:00 4.6 C 5.89 g/m*3 0.86 C 17.7 km/h
1032 02-01-2015 13:20:00 4.6 C 5.96 g/m*3 0.86 C 17.7 km/h
1033 02-01-2015 13:25:00 4.7 C 5.93 g/m*3 0.22 C 24.1 km/h
1034 02-01-2015 13:30:00 4.7 C 5.93 g/m*3 0.78 C 19.3 km/h
1035 02-01-2015 13:35:00 4.6 C 5.89 g/m*3 0.65 C 19.3 km/h
1036 02-01-2015 13:40:00 4.6 C 5.96 g/m*3 1.34 C 14.5 km/h
1037 02-01-2015 13:45:00 4.6 C 5.96 g/m*3 0.45 C 20.9 km/h
1038 02-01-2015 13:50:00 4.6 C 5.96 g/m*3 0.65 C 19.3 km/h
1039 02-01-2015 13:55:00 4.6 C 5.96 g/m*3 1.09 C 16.1 km/h
1040 02-01-2015 14:00:00 4.5 C 5.92 g/m*3 1.21 C 14.5 km/h
1041 02-01-2015 14:05:00 4.5 C 5.92 g/m*3 1.79 C 11.3 km/h
1042 02-01-2015 14:10:00 4.5 C 5.92 g/m*3 0.96 C 16.1 km/h
1043 02-01-2015 14:15:00 4.5 C 5.92 g/m*3 0.14 C 22.5 km/h
1044 02-01-2015 14:20:00 4.5 C 5.98 g/m*3 1.79 C 11.3 km/h
1045 02-01-2015 14:25:00 4.5 C 5.98 g/m*3 0.52 C 19.3 km/h
1046 02-01-2015 14:30:00 4.6 C 6.02 g/m*3 1.09 C 16.1 km/h
1047 02-01-2015 14:35:00 4.6 C 6.02 g/m*3 0.1 C 24.1 km/h
1048 02-01-2015 14:40:00 4.6 C 6.02 g/m*3 0.45 C 20.9 km/h
1049 02-01-2015 14:45:00 4.6 C 6.02 g/m*3 1.09 C 16.1 km/h
1050 02-01-2015 14:50:00 4.6 C 6.02 g/m*3 1.34 C 14.5 km/h
Sensor: Nr:Datum:Temp:Abs-Feuchte:Windchill:Wind:
Aussen-T/F 1051 02-01-2015 14:55:00 4.5 C 5.98 g/m*3 1.21 C 14.5 km/h
1052 02-01-2015 15:00:00 4.5 C 6.05 g/m*3 0.96 C 16.1 km/h
1053 02-01-2015 15:05:00 4.4 C 6.07 g/m*3 1.09 C 14.5 km/h
1054 02-01-2015 15:10:00 4.4 C 6.07 g/m*3 0.84 C 16.1 km/h
1055 02-01-2015 15:15:00 4.4 C 6.07 g/m*3 1.36 C 12.9 km/h
1056 02-01-2015 15:20:00 4.4 C 6.07 g/m*3 2.01 C 9.7 km/h
1057 02-01-2015 15:25:00 4.4 C 6.14 g/m*3 0.84 C 16.1 km/h
1058 02-01-2015 15:30:00 4.4 C 6.14 g/m*3 1.09 C 14.5 km/h
1059 02-01-2015 15:35:00 4.4 C 6.07 g/m*3 1.67 C 11.3 km/h
1060 02-01-2015 15:40:00 4.4 C 6.14 g/m*3 0.61 C 17.7 km/h
1061 02-01-2015 15:45:00 4.4 C 6.14 g/m*3 1.09 C 14.5 km/h
1062 02-01-2015 15:50:00 4.4 C 6.14 g/m*3 2.01 C 9.7 km/h
1063 02-01-2015 15:55:00 4.4 C 6.14 g/m*3 1.67 C 11.3 km/h
1064 02-01-2015 16:00:00 4.3 C 6.1 g/m*3 0.97 C 14.5 km/h
1065 02-01-2015 16:05:00 4.3 C 6.1 g/m*3 1.24 C 12.9 km/h
1066 02-01-2015 16:10:00 4.3 C 6.1 g/m*3 1.89 C 9.7 km/h
1067 02-01-2015 16:15:00 4.3 C 6.1 g/m*3 2.29 C 8.1 km/h
1068 02-01-2015 16:20:00 4.3 C 6.1 g/m*3 0.97 C 14.5 km/h
1069 02-01-2015 16:25:00 4.3 C 6.1 g/m*3 0.72 C 16.1 km/h
1070 02-01-2015 16:30:00 4.4 C 6.14 g/m*3 0.2 C 20.9 km/h
1071 02-01-2015 16:35:00 4.5 C 6.18 g/m*3 1.21 C 14.5 km/h
1072 02-01-2015 16:40:00 4.5 C 6.11 g/m*3 0.74 C 17.7 km/h
1073 02-01-2015 16:45:00 4.4 C 6.07 g/m*3 1.36 C 12.9 km/h
1074 02-01-2015 16:50:00 4.4 C 6.07 g/m*3 1.36 C 12.9 km/h
1075 02-01-2015 16:55:00 4.3 C 6.03 g/m*3 1.24 C 12.9 km/h
Sensor: Nr:Datum:Temp:Abs-Feuchte:Windchill:Wind:
Aussen-T/F 1076 02-01-2015 17:00:00 4.3 C 6.1 g/m*3 0.07 C 20.9 km/h
1077 02-01-2015 17:05:00 4.3 C 6.1 g/m*3 0.97 C 14.5 km/h
1078 02-01-2015 17:10:00 4.3 C 6.1 g/m*3 2.29 C 8.1 km/h
1079 02-01-2015 17:15:00 4.3 C 6.1 g/m*3 2.29 C 8.1 km/h
1080 02-01-2015 23:30:00 2.4 C 5.2 g/m*3 2.4 C 3.2 km/h
1081 02-01-2015 23:35:00 2.5 C 5.23 g/m*3 0.71 C 6.4 km/h
1082 02-01-2015 23:40:00 2.6 C 5.27 g/m*3 0.82 C 6.4 km/h
1083 02-01-2015 23:45:00 2.6 C 5.27 g/m*3 2.6 C 4.8 km/h
1084 02-01-2015 23:50:00 2.4 C 5.14 g/m*3 0.59 C 6.4 km/h
1085 02-01-2015 23:55:00 2.4 C 5.14 g/m*3 2.4 C 1.6 km/h
1086 03-01-2015 00:00:00 2.2 C 5.13 g/m*3 2.2 C 1.6 km/h
1087 03-01-2015 00:05:00 2 C 5.06 g/m*3 2 C 1.6 km/h
1088 03-01-2015 00:10:00 1.8 C 5.04 g/m*3 1.8 C 4.8 km/h
1089 03-01-2015 00:15:00 1.8 C 5.04 g/m*3 1.8 C 3.2 km/h
1090 03-01-2015 00:20:00 1.8 C 5.1 g/m*3 1.8 C 3.2 km/h
1091 03-01-2015 00:25:00 1.9 C 5.13 g/m*3 0.01 C 6.4 km/h
1092 03-01-2015 00:30:00 2.1 C 5.2 g/m*3 0.24 C 6.4 km/h
1093 03-01-2015 00:35:00 2.2 C 5.18 g/m*3 0.36 C 6.4 km/h
1094 03-01-2015 00:40:00 2.3 C 5.16 g/m*3 2.3 C 4.8 km/h
1095 03-01-2015 00:45:00 2.5 C 5.23 g/m*3 -0.62 C 11.3 km/h
1096 03-01-2015 00:50:00 2.6 C 5.21 g/m*3 0.82 C 6.4 km/h
1097 03-01-2015 00:55:00 2.5 C 5.17 g/m*3 2.5 C 4.8 km/h
1098 03-01-2015 01:00:00 2.4 C 5.14 g/m*3 2.4 C 3.2 km/h
1099 03-01-2015 01:05:00 2.4 C 5.14 g/m*3 0.59 C 6.4 km/h
1100 03-01-2015 01:10:00 2.3 C 5.1 g/m*3 2.3 C 4.8 km/h
Sensor: Nr:Datum:Temp:Abs-Feuchte:Windchill:Wind:
Aussen-T/F 1101 03-01-2015 01:15:00 2.4 C 5.2 g/m*3 0.59 C 6.4 km/h
1102 03-01-2015 01:20:00 2.5 C 5.17 g/m*3 -0.62 C 11.3 km/h
1103 03-01-2015 01:25:00 2.5 C 5.17 g/m*3 0.17 C 8.1 km/h
1104 03-01-2015 01:30:00 2.4 C 5.14 g/m*3 0.59 C 6.4 km/h
1105 03-01-2015 01:35:00 2.4 C 5.14 g/m*3 -0.37 C 9.7 km/h
1106 03-01-2015 01:40:00 2.5 C 5.17 g/m*3 -0.62 C 11.3 km/h
1107 03-01-2015 01:45:00 2.5 C 5.17 g/m*3 0.71 C 6.4 km/h
1108 03-01-2015 01:50:00 2.5 C 5.17 g/m*3 0.17 C 8.1 km/h
1109 03-01-2015 01:55:00 2.6 C 5.21 g/m*3 -0.14 C 9.7 km/h
1110 03-01-2015 02:00:00 2.6 C 5.21 g/m*3 0.29 C 8.1 km/h
1111 03-01-2015 02:05:00 2.7 C 5.24 g/m*3 -0.71 C 12.9 km/h
1112 03-01-2015 02:10:00 2.7 C 5.24 g/m*3 0.4 C 8.1 km/h
1113 03-01-2015 02:15:00 2.7 C 5.24 g/m*3 -0.02 C 9.7 km/h
1114 03-01-2015 02:20:00 2.7 C 5.24 g/m*3 -0.02 C 9.7 km/h
1115 03-01-2015 02:25:00 2.7 C 5.24 g/m*3 0.4 C 8.1 km/h
1116 03-01-2015 02:30:00 2.7 C 5.24 g/m*3 -0.02 C 9.7 km/h
1117 03-01-2015 02:35:00 2.8 C 5.28 g/m*3 -0.26 C 11.3 km/h
1118 03-01-2015 02:40:00 2.8 C 5.28 g/m*3 0.1 C 9.7 km/h
1119 03-01-2015 02:45:00 2.8 C 5.22 g/m*3 0.1 C 9.7 km/h
1120 03-01-2015 02:50:00 2.8 C 5.22 g/m*3 -0.26 C 11.3 km/h
1121 03-01-2015 02:55:00 2.8 C 5.22 g/m*3 0.1 C 9.7 km/h
1122 03-01-2015 03:00:00 2.8 C 5.22 g/m*3 0.1 C 9.7 km/h
1123 03-01-2015 04:30:00 2.5 C 5.29 g/m*3 -0.62 C 11.3 km/h
1124 03-01-2015 04:35:00 2.5 C 5.29 g/m*3 -0.26 C 9.7 km/h
1125 03-01-2015 04:40:00 2.5 C 5.29 g/m*3 -0.95 C 12.9 km/h
Sensor: Nr:Datum:Temp:Abs-Feuchte:Windchill:Wind:
Aussen-T/F 1126 03-01-2015 04:45:00 2.4 C 5.25 g/m*3 -0.74 C 11.3 km/h
1127 03-01-2015 04:50:00 2.4 C 5.25 g/m*3 -1.07 C 12.9 km/h
1128 03-01-2015 04:55:00 2.4 C 5.25 g/m*3 -1.37 C 14.5 km/h
1129 03-01-2015 05:00:00 2.4 C 5.31 g/m*3 -1.07 C 12.9 km/h
1130 03-01-2015 05:05:00 2.4 C 5.31 g/m*3 -0.74 C 11.3 km/h
1131 03-01-2015 05:10:00 2.5 C 5.35 g/m*3 -0.26 C 9.7 km/h
1132 03-01-2015 05:15:00 2.5 C 5.35 g/m*3 -0.95 C 12.9 km/h
1133 03-01-2015 05:20:00 2.5 C 5.35 g/m*3 -0.62 C 11.3 km/h
1134 03-01-2015 05:25:00 2.6 C 5.38 g/m*3 -0.14 C 9.7 km/h
1135 03-01-2015 05:30:00 2.6 C 5.38 g/m*3 0.29 C 8.1 km/h
1136 03-01-2015 05:35:00 2.6 C 5.38 g/m*3 0.29 C 8.1 km/h
1137 03-01-2015 06:00:00 2.6 C 5.79 g/m*3 2.6 C 1.6 km/h
1138 03-01-2015 06:05:00 2.6 C 5.38 g/m*3 2.6 C 0 km/h
1139 03-01-2015 06:10:00 2.6 C 5.38 g/m*3 2.6 C 4.8 km/h
1140 03-01-2015 06:15:00 2.6 C 5.38 g/m*3 2.6 C 0 km/h
1141 03-01-2015 06:20:00 2.5 C 5.35 g/m*3 2.5 C 0 km/h
1142 03-01-2015 06:25:00 2.5 C 5.4 g/m*3 2.5 C 0 km/h
1143 03-01-2015 06:30:00 2.5 C 5.4 g/m*3 2.5 C 1.6 km/h
1144 03-01-2015 07:45:00 3 C 5.59 g/m*3 3 C 0 km/h
1145 03-01-2015 07:50:00 3.1 C 5.63 g/m*3 3.1 C 0 km/h
1146 03-01-2015 07:55:00 3.1 C 5.63 g/m*3 3.1 C 0 km/h
1147 03-01-2015 11:25:00 4.2 C 5.86 g/m*3 0.84 C 14.5 km/h
1148 03-01-2015 11:30:00 4.2 C 5.86 g/m*3 1.77 C 9.7 km/h
1149 03-01-2015 11:35:00 4.2 C 5.86 g/m*3 4.2 C 4.8 km/h
1150 03-01-2015 11:40:00 4.2 C 5.86 g/m*3 1.43 C 11.3 km/h
Sensor: Nr:Datum:Temp:Abs-Feuchte:Windchill:Wind:
Aussen-T/F 1151 03-01-2015 11:45:00 4.2 C 5.86 g/m*3 1.77 C 9.7 km/h
1152 03-01-2015 12:45:00 3.6 C 5.76 g/m*3 3.6 C 0 km/h
1153 03-01-2015 12:50:00 3.6 C 5.76 g/m*3 3.6 C 1.6 km/h
1154 03-01-2015 14:05:00 2.1 C 5.31 g/m*3 2.1 C 0 km/h
1155 03-01-2015 14:10:00 2 C 5.28 g/m*3 2 C 0 km/h
1156 03-01-2015 14:15:00 1.9 C 5.24 g/m*3 1.9 C 0 km/h
1157 03-01-2015 14:20:00 1.8 C 5.21 g/m*3 1.8 C 0 km/h
1158 03-01-2015 14:25:00 1.8 C 5.21 g/m*3 1.8 C 0 km/h
1159 03-01-2015 14:30:00 1.7 C 5.17 g/m*3 1.7 C 0 km/h
1160 03-01-2015 14:35:00 1.6 C 5.14 g/m*3 1.6 C 0 km/h
1161 03-01-2015 14:40:00 1.6 C 5.14 g/m*3 1.6 C 0 km/h
1162 03-01-2015 14:45:00 1.5 C 5.16 g/m*3 1.5 C 0 km/h
1163 03-01-2015 14:50:00 1.6 C 5.19 g/m*3 1.6 C 0 km/h
1164 03-01-2015 14:55:00 1.6 C 5.19 g/m*3 1.6 C 0 km/h
1165 03-01-2015 15:00:00 1.6 C 5.19 g/m*3 1.6 C 0 km/h
1166 03-01-2015 15:05:00 1.7 C 5.23 g/m*3 1.7 C 0 km/h
1167 03-01-2015 15:10:00 1.7 C 5.23 g/m*3 1.7 C 0 km/h
1168 03-01-2015 15:15:00 1.7 C 5.23 g/m*3 1.7 C 0 km/h
1169 03-01-2015 15:20:00 1.7 C 5.23 g/m*3 1.7 C 0 km/h
1170 03-01-2015 17:40:00 1.8 C 5.26 g/m*3 1.8 C 0 km/h
1171 03-01-2015 17:45:00 1.6 C 5.19 g/m*3 1.6 C 0 km/h
1172 03-01-2015 17:50:00 1.6 C 5.25 g/m*3 1.6 C 0 km/h
1173 03-01-2015 17:55:00 1.6 C 5.25 g/m*3 1.6 C 0 km/h
1174 03-01-2015 18:00:00 1.6 C 5.25 g/m*3 1.6 C 0 km/h
1175 03-01-2015 18:05:00 1.6 C 5.25 g/m*3 1.6 C 1.6 km/h
Sensor: Nr:Datum:Temp:Abs-Feuchte:Windchill:Wind:
Aussen-T/F 1176 03-01-2015 18:10:00 1.7 C 5.28 g/m*3 1.7 C 0 km/h
1177 03-01-2015 18:15:00 1.7 C 5.28 g/m*3 1.7 C 3.2 km/h
1178 03-01-2015 18:20:00 1.7 C 5.28 g/m*3 1.7 C 0 km/h
1179 03-01-2015 18:25:00 1.6 C 5.25 g/m*3 1.6 C 0 km/h
1180 03-01-2015 18:30:00 1.4 C 5.17 g/m*3 1.4 C 0 km/h
1181 03-01-2015 18:35:00 1.3 C 5.14 g/m*3 1.3 C 0 km/h
1182 03-01-2015 18:40:00 1.3 C 5.14 g/m*3 1.3 C 0 km/h
1183 03-01-2015 18:45:00 1.2 C 5.1 g/m*3 1.2 C 0 km/h
1184 03-01-2015 18:50:00 1.2 C 5.1 g/m*3 1.2 C 0 km/h
1185 03-01-2015 18:55:00 1.2 C 5.1 g/m*3 1.2 C 0 km/h
1186 03-01-2015 19:00:00 1.1 C 5.07 g/m*3 1.1 C 0 km/h
1187 03-01-2015 19:05:00 1.1 C 5.07 g/m*3 1.1 C 0 km/h
1188 03-01-2015 19:10:00 1.1 C 5.07 g/m*3 1.1 C 0 km/h
1189 03-01-2015 19:15:00 1 C 5.03 g/m*3 1 C 0 km/h
1190 03-01-2015 19:20:00 1 C 5.03 g/m*3 1 C 0 km/h
1191 03-01-2015 19:25:00 1 C 5.03 g/m*3 1 C 0 km/h
1192 03-01-2015 19:30:00 0.9 C 5 g/m*3 0.9 C 0 km/h
1193 03-01-2015 19:35:00 1 C 5.03 g/m*3 1 C 0 km/h
1194 03-01-2015 19:40:00 1 C 5.03 g/m*3 1 C 0 km/h
1195 03-01-2015 19:45:00 1 C 5.03 g/m*3 1 C 0 km/h
1196 03-01-2015 19:50:00 1 C 5.03 g/m*3 1 C 0 km/h
1197 03-01-2015 19:55:00 1 C 5.03 g/m*3 1 C 0 km/h
1198 03-01-2015 20:00:00 1 C 5.03 g/m*3 1 C 0 km/h
1199 03-01-2015 20:05:00 1 C 5.03 g/m*3 1 C 0 km/h
1200 03-01-2015 20:10:00 0.9 C 5 g/m*3 0.9 C 0 km/h
Sensor: Nr:Datum:Temp:Abs-Feuchte:Windchill:Wind:
Aussen-T/F 1201 03-01-2015 20:15:00 0.9 C 5 g/m*3 0.9 C 0 km/h
1202 03-01-2015 20:20:00 0.9 C 5 g/m*3 0.9 C 0 km/h
1203 03-01-2015 20:25:00 0.9 C 5 g/m*3 0.9 C 0 km/h
1204 03-01-2015 20:30:00 0.9 C 5 g/m*3 0.9 C 0 km/h
1205 03-01-2015 20:35:00 0.8 C 4.97 g/m*3 0.8 C 0 km/h
1206 03-01-2015 20:40:00 0.9 C 5 g/m*3 0.9 C 0 km/h
1207 03-01-2015 20:45:00 0.8 C 5.02 g/m*3 0.8 C 0 km/h
1208 03-01-2015 20:50:00 0.9 C 5.05 g/m*3 0.9 C 0 km/h
1209 03-01-2015 20:55:00 0.9 C 5.05 g/m*3 0.9 C 0 km/h
1210 03-01-2015 21:00:00 0.9 C 5.05 g/m*3 0.9 C 1.6 km/h
1211 03-01-2015 21:05:00 0.9 C 5.05 g/m*3 0.9 C 3.2 km/h
1212 03-01-2015 21:10:00 0.9 C 5.05 g/m*3 -1.14 C 6.4 km/h
1213 03-01-2015 21:15:00 0.9 C 5.05 g/m*3 0.9 C 3.2 km/h
1214 03-01-2015 21:20:00 1 C 5.09 g/m*3 1 C 3.2 km/h
1215 03-01-2015 21:25:00 1.1 C 5.12 g/m*3 1.1 C 0 km/h
1216 03-01-2015 21:30:00 1.2 C 5.16 g/m*3 1.2 C 4.8 km/h
1217 03-01-2015 21:35:00 1.3 C 5.19 g/m*3 -0.68 C 6.4 km/h
1218 03-01-2015 21:40:00 1.3 C 5.19 g/m*3 1.3 C 4.8 km/h
1219 03-01-2015 21:45:00 1.3 C 5.19 g/m*3 1.3 C 4.8 km/h
1220 03-01-2015 21:50:00 1.3 C 5.19 g/m*3 1.3 C 3.2 km/h
1221 03-01-2015 21:55:00 1.3 C 5.19 g/m*3 1.3 C 1.6 km/h
1222 03-01-2015 22:00:00 1.3 C 5.19 g/m*3 1.3 C 4.8 km/h
1223 03-01-2015 22:05:00 1.3 C 5.19 g/m*3 1.3 C 1.6 km/h
1224 03-01-2015 22:10:00 1.3 C 5.19 g/m*3 1.3 C 4.8 km/h
1225 03-01-2015 22:15:00 1.4 C 5.23 g/m*3 1.4 C 4.8 km/h
Sensor: Nr:Datum:Temp:Abs-Feuchte:Windchill:Wind:
Aussen-T/F 1226 03-01-2015 22:20:00 1.5 C 5.26 g/m*3 1.5 C 3.2 km/h
1227 03-01-2015 22:25:00 1.4 C 5.23 g/m*3 1.4 C 4.8 km/h
1228 03-01-2015 22:30:00 1.4 C 5.23 g/m*3 1.4 C 3.2 km/h
1229 03-01-2015 22:35:00 1.6 C 5.3 g/m*3 1.6 C 4.8 km/h
1230 03-01-2015 22:40:00 1.6 C 5.3 g/m*3 1.6 C 1.6 km/h
1231 03-01-2015 22:45:00 1.7 C 5.34 g/m*3 1.7 C 4.8 km/h
1232 03-01-2015 22:50:00 1.8 C 5.37 g/m*3 -0.65 C 8.1 km/h
1233 03-01-2015 22:55:00 1.8 C 5.37 g/m*3 -0.65 C 8.1 km/h
1234 03-01-2015 23:00:00 1.9 C 5.41 g/m*3 0.01 C 6.4 km/h
1235 03-01-2015 23:05:00 1.9 C 5.41 g/m*3 -0.54 C 8.1 km/h
1236 03-01-2015 23:10:00 2 C 5.39 g/m*3 2 C 4.8 km/h
1237 03-01-2015 23:15:00 2 C 5.39 g/m*3 2 C 3.2 km/h
1238 03-01-2015 23:20:00 2 C 5.39 g/m*3 2 C 0 km/h
1239 03-01-2015 23:25:00 1.9 C 5.35 g/m*3 1.9 C 4.8 km/h
1240 03-01-2015 23:30:00 1.9 C 5.35 g/m*3 1.9 C 0 km/h
1241 03-01-2015 23:35:00 2 C 5.39 g/m*3 0.13 C 6.4 km/h
1242 03-01-2015 23:40:00 2 C 5.39 g/m*3 2 C 1.6 km/h
1243 03-01-2015 23:45:00 2 C 5.39 g/m*3 2 C 4.8 km/h
1244 03-01-2015 23:50:00 2 C 5.39 g/m*3 0.13 C 6.4 km/h
1245 03-01-2015 23:55:00 2 C 5.39 g/m*3 2 C 3.2 km/h
1246 04-01-2015 00:00:00 2 C 5.39 g/m*3 2 C 1.6 km/h
1247 04-01-2015 00:05:00 2 C 5.39 g/m*3 2 C 3.2 km/h
1248 04-01-2015 00:10:00 2 C 5.39 g/m*3 2 C 3.2 km/h
1249 04-01-2015 00:15:00 2.1 C 5.43 g/m*3 0.24 C 6.4 km/h
1250 04-01-2015 00:20:00 2.2 C 5.46 g/m*3 2.2 C 1.6 km/h
Sensor: Nr:Datum:Temp:Abs-Feuchte:Windchill:Wind:
Aussen-T/F 1251 04-01-2015 00:25:00 2.1 C 5.43 g/m*3 2.1 C 4.8 km/h
1252 04-01-2015 00:30:00 2.1 C 5.43 g/m*3 2.1 C 4.8 km/h
1253 04-01-2015 00:35:00 2 C 5.39 g/m*3 2 C 3.2 km/h
1254 04-01-2015 00:40:00 2 C 5.39 g/m*3 0.13 C 6.4 km/h
1255 04-01-2015 00:45:00 2.1 C 5.43 g/m*3 0.24 C 6.4 km/h
1256 04-01-2015 00:50:00 2.1 C 5.43 g/m*3 2.1 C 3.2 km/h
1257 04-01-2015 00:55:00 2.1 C 5.43 g/m*3 2.1 C 4.8 km/h
1258 04-01-2015 01:00:00 2.2 C 5.52 g/m*3 2.2 C 3.2 km/h
1259 04-01-2015 01:05:00 2.2 C 5.52 g/m*3 2.2 C 1.6 km/h
1260 04-01-2015 01:10:00 2.2 C 5.52 g/m*3 2.2 C 1.6 km/h
1261 04-01-2015 01:15:00 2.2 C 5.52 g/m*3 2.2 C 0 km/h
1262 04-01-2015 01:20:00 2.2 C 5.52 g/m*3 2.2 C 1.6 km/h
1263 04-01-2015 01:25:00 2.2 C 5.52 g/m*3 2.2 C 4.8 km/h
1264 04-01-2015 01:30:00 2.2 C 5.52 g/m*3 2.2 C 3.2 km/h
1265 04-01-2015 01:35:00 2.3 C 5.56 g/m*3 2.3 C 4.8 km/h
1266 04-01-2015 01:40:00 2.4 C 5.6 g/m*3 2.4 C 3.2 km/h
1267 04-01-2015 01:45:00 2.7 C 5.71 g/m*3 2.7 C 4.8 km/h
1268 04-01-2015 01:50:00 2.8 C 5.75 g/m*3 0.1 C 9.7 km/h
1269 04-01-2015 01:55:00 2.9 C 5.79 g/m*3 2.9 C 4.8 km/h
1270 04-01-2015 02:00:00 3.1 C 5.87 g/m*3 0.46 C 9.7 km/h
1271 04-01-2015 02:05:00 3.3 C 5.95 g/m*3 3.3 C 4.8 km/h
1272 04-01-2015 02:10:00 3.4 C 5.99 g/m*3 3.4 C 4.8 km/h
1273 04-01-2015 02:15:00 3.4 C 5.92 g/m*3 3.4 C 4.8 km/h
1274 04-01-2015 02:20:00 3.6 C 6 g/m*3 1.46 C 8.1 km/h
1275 04-01-2015 02:25:00 3.7 C 6.04 g/m*3 1.58 C 8.1 km/h
Sensor: Nr:Datum:Temp:Abs-Feuchte:Windchill:Wind:
Aussen-T/F 1276 04-01-2015 02:30:00 3.7 C 6.04 g/m*3 3.7 C 1.6 km/h
1277 04-01-2015 02:35:00 3.7 C 5.98 g/m*3 3.7 C 3.2 km/h
1278 04-01-2015 02:40:00 3.8 C 6.02 g/m*3 0.63 C 12.9 km/h
1279 04-01-2015 02:45:00 3.9 C 6.06 g/m*3 1.06 C 11.3 km/h
1280 04-01-2015 02:50:00 4.1 C 6.08 g/m*3 2.55 C 6.4 km/h
1281 04-01-2015 02:55:00 4.1 C 6.08 g/m*3 2.55 C 6.4 km/h
1282 04-01-2015 03:00:00 4.1 C 6.08 g/m*3 2.55 C 6.4 km/h
1283 04-01-2015 03:05:00 4.1 C 6.08 g/m*3 0.72 C 14.5 km/h
1284 04-01-2015 03:10:00 4.1 C 6.02 g/m*3 2.05 C 8.1 km/h
1285 04-01-2015 03:15:00 4.1 C 6.02 g/m*3 4.1 C 4.8 km/h
1286 04-01-2015 03:20:00 4.1 C 6.02 g/m*3 2.55 C 6.4 km/h
1287 04-01-2015 03:25:00 4.1 C 5.95 g/m*3 2.05 C 8.1 km/h
1288 04-01-2015 03:30:00 4.1 C 5.95 g/m*3 0.72 C 14.5 km/h
1289 04-01-2015 03:35:00 4.1 C 5.95 g/m*3 1.65 C 9.7 km/h
1290 04-01-2015 03:40:00 4.1 C 5.95 g/m*3 2.05 C 8.1 km/h
1291 04-01-2015 03:45:00 4 C 5.91 g/m*3 1.93 C 8.1 km/h
1292 04-01-2015 03:50:00 4 C 5.91 g/m*3 1.93 C 8.1 km/h
1293 04-01-2015 03:55:00 4 C 5.91 g/m*3 1.53 C 9.7 km/h
1294 04-01-2015 04:00:00 3.9 C 5.87 g/m*3 1.82 C 8.1 km/h
1295 04-01-2015 04:05:00 3.9 C 5.87 g/m*3 3.9 C 4.8 km/h
1296 04-01-2015 04:10:00 3.9 C 5.87 g/m*3 1.82 C 8.1 km/h
1297 04-01-2015 04:50:00 2.9 C 5.55 g/m*3 2.9 C 4.8 km/h
1298 04-01-2015 04:55:00 2.8 C 5.51 g/m*3 2.8 C 4.8 km/h
1299 04-01-2015 05:00:00 2.6 C 5.44 g/m*3 2.6 C 0 km/h
1300 04-01-2015 05:05:00 2.4 C 5.37 g/m*3 2.4 C 4.8 km/h
Sensor: Nr:Datum:Temp:Abs-Feuchte:Windchill:Wind:
Aussen-T/F 1301 04-01-2015 05:10:00 2.2 C 5.29 g/m*3 2.2 C 4.8 km/h
1302 04-01-2015 05:15:00 2.1 C 5.31 g/m*3 -0.3 C 8.1 km/h
1303 04-01-2015 05:20:00 2.1 C 5.31 g/m*3 2.1 C 3.2 km/h
1304 04-01-2015 05:25:00 2.1 C 5.37 g/m*3 2.1 C 3.2 km/h
1305 04-01-2015 05:30:00 2 C 5.33 g/m*3 2 C 4.8 km/h
1306 04-01-2015 05:35:00 2 C 5.33 g/m*3 2 C 3.2 km/h
1307 04-01-2015 05:40:00 1.9 C 5.3 g/m*3 1.9 C 4.8 km/h
1308 04-01-2015 05:45:00 1.8 C 5.26 g/m*3 1.8 C 4.8 km/h
1309 04-01-2015 05:50:00 1.7 C 5.23 g/m*3 1.7 C 3.2 km/h
1310 04-01-2015 05:55:00 1.7 C 5.23 g/m*3 -0.22 C 6.4 km/h
1311 04-01-2015 06:00:00 1.6 C 5.19 g/m*3 1.6 C 4.8 km/h
1312 04-01-2015 06:05:00 1.6 C 5.25 g/m*3 1.6 C 4.8 km/h
1313 04-01-2015 06:10:00 1.6 C 5.25 g/m*3 1.6 C 4.8 km/h
1314 04-01-2015 06:15:00 1.5 C 5.16 g/m*3 1.5 C 4.8 km/h
1315 04-01-2015 06:20:00 1.4 C 5.12 g/m*3 1.4 C 1.6 km/h
1316 04-01-2015 06:25:00 1.4 C 5.17 g/m*3 1.4 C 4.8 km/h
1317 04-01-2015 06:30:00 1.3 C 5.14 g/m*3 1.3 C 0 km/h
1318 04-01-2015 06:35:00 1.2 C 5.05 g/m*3 1.2 C 1.6 km/h
1319 04-01-2015 06:40:00 1.2 C 5.05 g/m*3 1.2 C 4.8 km/h
1320 04-01-2015 06:45:00 1.1 C 5.07 g/m*3 -0.91 C 6.4 km/h
1321 04-01-2015 06:50:00 1.1 C 5.07 g/m*3 1.1 C 1.6 km/h
1322 04-01-2015 06:55:00 1.1 C 5.07 g/m*3 1.1 C 1.6 km/h
1323 04-01-2015 07:00:00 1.1 C 5.07 g/m*3 1.1 C 4.8 km/h
1324 04-01-2015 07:05:00 1.1 C 5.07 g/m*3 1.1 C 4.8 km/h
1325 04-01-2015 07:10:00 1.1 C 5.07 g/m*3 1.1 C 3.2 km/h
Sensor: Nr:Datum:Temp:Abs-Feuchte:Windchill:Wind:
Aussen-T/F 1326 04-01-2015 07:15:00 1 C 5.03 g/m*3 1 C 3.2 km/h
1327 04-01-2015 07:20:00 0.9 C 5 g/m*3 0.9 C 1.6 km/h
1328 04-01-2015 07:25:00 0.9 C 5 g/m*3 0.9 C 3.2 km/h
1329 04-01-2015 07:30:00 0.9 C 5 g/m*3 0.9 C 3.2 km/h
1330 04-01-2015 07:35:00 1 C 5.03 g/m*3 1 C 3.2 km/h
1331 04-01-2015 07:40:00 1.1 C 5.07 g/m*3 1.1 C 3.2 km/h
1332 04-01-2015 07:45:00 1.2 C 5.1 g/m*3 1.2 C 1.6 km/h
1333 04-01-2015 07:50:00 1.1 C 5.07 g/m*3 1.1 C 1.6 km/h
1334 04-01-2015 07:55:00 1.1 C 5.07 g/m*3 1.1 C 4.8 km/h
1335 04-01-2015 08:00:00 1.1 C 5.07 g/m*3 1.1 C 1.6 km/h
1336 04-01-2015 08:05:00 1.2 C 5.1 g/m*3 1.2 C 1.6 km/h
1337 04-01-2015 08:10:00 1.2 C 5.1 g/m*3 1.2 C 3.2 km/h
1338 04-01-2015 08:15:00 1.2 C 5.1 g/m*3 1.2 C 1.6 km/h
1339 04-01-2015 08:20:00 1.2 C 5.1 g/m*3 1.2 C 3.2 km/h
1340 04-01-2015 18:15:00 4.1 C 5.89 g/m*3 4.1 C 1.6 km/h
1341 04-01-2015 18:20:00 4.1 C 5.89 g/m*3 4.1 C 1.6 km/h
1342 04-01-2015 18:25:00 4 C 5.85 g/m*3 4 C 3.2 km/h
1343 04-01-2015 18:30:00 4 C 5.85 g/m*3 4 C 1.6 km/h
1344 04-01-2015 18:35:00 3.9 C 5.75 g/m*3 3.9 C 4.8 km/h
1345 04-01-2015 18:40:00 4 C 5.79 g/m*3 4 C 4.8 km/h
1346 04-01-2015 18:45:00 4.1 C 5.76 g/m*3 4.1 C 4.8 km/h
1347 04-01-2015 18:50:00 4.2 C 5.73 g/m*3 2.67 C 6.4 km/h
1348 04-01-2015 18:55:00 4.3 C 5.71 g/m*3 1.89 C 9.7 km/h
1349 04-01-2015 19:00:00 4.4 C 5.68 g/m*3 4.4 C 3.2 km/h
1350 04-01-2015 19:05:00 4.4 C 5.68 g/m*3 4.4 C 3.2 km/h
Sensor: Nr:Datum:Temp:Abs-Feuchte:Windchill:Wind:
Aussen-T/F 1351 04-01-2015 19:10:00 4.4 C 5.68 g/m*3 2.9 C 6.4 km/h
1352 04-01-2015 19:15:00 4.3 C 5.64 g/m*3 2.78 C 6.4 km/h
1353 04-01-2015 19:20:00 4.3 C 5.64 g/m*3 4.3 C 1.6 km/h
1354 04-01-2015 19:25:00 4.2 C 5.67 g/m*3 4.2 C 1.6 km/h
1355 04-01-2015 19:30:00 4.2 C 5.67 g/m*3 4.2 C 4.8 km/h
1356 04-01-2015 19:35:00 4.1 C 5.63 g/m*3 2.05 C 8.1 km/h
1357 04-01-2015 19:40:00 4.1 C 5.63 g/m*3 4.1 C 3.2 km/h
1358 04-01-2015 19:45:00 4.1 C 5.63 g/m*3 4.1 C 1.6 km/h
1359 04-01-2015 19:50:00 4 C 5.59 g/m*3 4 C 1.6 km/h
1360 04-01-2015 19:55:00 3.9 C 5.62 g/m*3 2.32 C 6.4 km/h
1361 04-01-2015 20:00:00 3.9 C 5.62 g/m*3 3.9 C 4.8 km/h
1362 04-01-2015 20:05:00 3.9 C 5.62 g/m*3 3.9 C 4.8 km/h
1363 04-01-2015 20:10:00 3.8 C 5.58 g/m*3 3.8 C 4.8 km/h
1364 04-01-2015 20:15:00 3.8 C 5.58 g/m*3 3.8 C 4.8 km/h
1365 04-01-2015 20:20:00 3.7 C 5.61 g/m*3 3.7 C 3.2 km/h
1366 04-01-2015 20:25:00 3.7 C 5.61 g/m*3 3.7 C 3.2 km/h
1367 04-01-2015 20:30:00 3.6 C 5.57 g/m*3 3.6 C 4.8 km/h
1368 04-01-2015 20:35:00 3.6 C 5.63 g/m*3 3.6 C 1.6 km/h
1369 04-01-2015 20:40:00 3.6 C 5.63 g/m*3 3.6 C 3.2 km/h
1370 04-01-2015 20:45:00 3.6 C 5.63 g/m*3 3.6 C 3.2 km/h
1371 04-01-2015 20:50:00 3.6 C 5.63 g/m*3 3.6 C 4.8 km/h
1372 04-01-2015 20:55:00 3.6 C 5.63 g/m*3 3.6 C 3.2 km/h
1373 04-01-2015 21:00:00 3.7 C 5.67 g/m*3 3.7 C 1.6 km/h
1374 04-01-2015 21:05:00 3.7 C 5.67 g/m*3 3.7 C 3.2 km/h
1375 04-01-2015 21:10:00 3.7 C 5.61 g/m*3 3.7 C 3.2 km/h
Sensor: Nr:Datum:Temp:Abs-Feuchte:Windchill:Wind:
Aussen-T/F 1376 04-01-2015 21:15:00 3.7 C 5.61 g/m*3 3.7 C 3.2 km/h
1377 04-01-2015 21:20:00 3.8 C 5.65 g/m*3 3.8 C 3.2 km/h
1378 04-01-2015 21:25:00 3.8 C 5.65 g/m*3 3.8 C 3.2 km/h
1379 04-01-2015 21:30:00 3.8 C 5.65 g/m*3 2.21 C 6.4 km/h
1380 04-01-2015 21:35:00 3.8 C 5.65 g/m*3 3.8 C 4.8 km/h
1381 04-01-2015 21:40:00 3.9 C 5.62 g/m*3 2.32 C 6.4 km/h
1382 04-01-2015 21:45:00 3.9 C 5.62 g/m*3 3.9 C 3.2 km/h
1383 04-01-2015 21:50:00 4 C 5.66 g/m*3 4 C 4.8 km/h
1384 04-01-2015 21:55:00 4 C 5.66 g/m*3 4 C 4.8 km/h
1385 04-01-2015 22:00:00 3.9 C 5.62 g/m*3 3.9 C 4.8 km/h
1386 04-01-2015 22:05:00 3.7 C 5.61 g/m*3 3.7 C 1.6 km/h
1387 04-01-2015 22:10:00 3.6 C 5.57 g/m*3 3.6 C 3.2 km/h
1388 04-01-2015 22:15:00 3.5 C 5.6 g/m*3 3.5 C 3.2 km/h
1389 04-01-2015 22:20:00 3.4 C 5.56 g/m*3 3.4 C 1.6 km/h
1390 04-01-2015 22:25:00 3.3 C 5.58 g/m*3 3.3 C 1.6 km/h
1391 04-01-2015 22:30:00 3.2 C 5.54 g/m*3 3.2 C 0 km/h
1392 04-01-2015 22:35:00 3.2 C 5.6 g/m*3 3.2 C 1.6 km/h
1393 04-01-2015 22:40:00 3.2 C 5.6 g/m*3 3.2 C 1.6 km/h
1394 04-01-2015 22:45:00 3.2 C 5.6 g/m*3 3.2 C 0 km/h
1395 04-01-2015 22:50:00 3.2 C 5.6 g/m*3 3.2 C 0 km/h
1396 04-01-2015 22:55:00 3.2 C 5.54 g/m*3 3.2 C 3.2 km/h
1397 04-01-2015 23:00:00 3.2 C 5.54 g/m*3 3.2 C 1.6 km/h
1398 04-01-2015 23:05:00 3.2 C 5.54 g/m*3 3.2 C 3.2 km/h
1399 04-01-2015 23:10:00 3.3 C 5.58 g/m*3 3.3 C 1.6 km/h
1400 04-01-2015 23:15:00 3.3 C 5.58 g/m*3 3.3 C 1.6 km/h
Sensor: Nr:Datum:Temp:Abs-Feuchte:Windchill:Wind:
Aussen-T/F 1401 04-01-2015 23:20:00 3.3 C 5.58 g/m*3 3.3 C 1.6 km/h
1402 04-01-2015 23:25:00 3.2 C 5.54 g/m*3 3.2 C 3.2 km/h
1403 04-01-2015 23:30:00 3.2 C 5.48 g/m*3 1.51 C 6.4 km/h
1404 04-01-2015 23:35:00 3.2 C 5.54 g/m*3 3.2 C 1.6 km/h
1405 04-01-2015 23:40:00 3.2 C 5.48 g/m*3 3.2 C 4.8 km/h
1406 04-01-2015 23:45:00 3.3 C 5.52 g/m*3 3.3 C 3.2 km/h
1407 04-01-2015 23:50:00 3.3 C 5.46 g/m*3 3.3 C 4.8 km/h
1408 04-01-2015 23:55:00 3.4 C 5.44 g/m*3 3.4 C 3.2 km/h
1409 05-01-2015 00:00:00 3.5 C 5.47 g/m*3 3.5 C 1.6 km/h
1410 05-01-2015 00:05:00 3.4 C 5.5 g/m*3 3.4 C 1.6 km/h
1411 05-01-2015 00:10:00 3.3 C 5.46 g/m*3 3.3 C 3.2 km/h
1412 05-01-2015 00:15:00 3.2 C 5.42 g/m*3 3.2 C 4.8 km/h
1413 05-01-2015 00:20:00 3.2 C 5.42 g/m*3 3.2 C 3.2 km/h
1414 05-01-2015 00:25:00 3.1 C 5.45 g/m*3 3.1 C 3.2 km/h
1415 05-01-2015 00:30:00 3 C 5.41 g/m*3 3 C 4.8 km/h
1416 05-01-2015 00:35:00 2.9 C 5.37 g/m*3 2.9 C 3.2 km/h
1417 05-01-2015 00:40:00 2.8 C 5.34 g/m*3 2.8 C 3.2 km/h
1418 05-01-2015 00:45:00 2.8 C 5.34 g/m*3 2.8 C 3.2 km/h
1419 05-01-2015 00:50:00 2.8 C 5.34 g/m*3 2.8 C 3.2 km/h
1420 05-01-2015 00:55:00 2.8 C 5.28 g/m*3 2.8 C 3.2 km/h
1421 05-01-2015 01:00:00 2.9 C 5.32 g/m*3 2.9 C 3.2 km/h
1422 05-01-2015 01:05:00 2.9 C 5.26 g/m*3 0.64 C 8.1 km/h
1423 05-01-2015 01:10:00 2.9 C 5.26 g/m*3 0.64 C 8.1 km/h
1424 05-01-2015 01:15:00 2.9 C 5.26 g/m*3 2.9 C 1.6 km/h
1425 05-01-2015 01:20:00 2.8 C 5.22 g/m*3 2.8 C 4.8 km/h
Sensor: Nr:Datum:Temp:Abs-Feuchte:Windchill:Wind:
Aussen-T/F 1426 05-01-2015 01:25:00 2.7 C 5.24 g/m*3 2.7 C 3.2 km/h
1427 05-01-2015 01:30:00 2.6 C 5.21 g/m*3 2.6 C 1.6 km/h
1428 05-01-2015 01:35:00 2.6 C 5.21 g/m*3 2.6 C 1.6 km/h
1429 05-01-2015 01:40:00 2.5 C 5.23 g/m*3 2.5 C 1.6 km/h
1430 05-01-2015 01:45:00 2.4 C 5.2 g/m*3 2.4 C 3.2 km/h
1431 05-01-2015 01:50:00 2.3 C 5.16 g/m*3 2.3 C 3.2 km/h
1432 05-01-2015 01:55:00 2.2 C 5.13 g/m*3 2.2 C 1.6 km/h
1433 05-01-2015 02:00:00 2.1 C 5.15 g/m*3 2.1 C 1.6 km/h
1434 05-01-2015 02:05:00 1.9 C 5.08 g/m*3 1.9 C 0 km/h
1435 05-01-2015 02:10:00 1.8 C 5.04 g/m*3 1.8 C 0 km/h
1436 05-01-2015 02:15:00 1.6 C 4.97 g/m*3 1.6 C 1.6 km/h
1437 05-01-2015 02:20:00 1.4 C 4.91 g/m*3 1.4 C 0 km/h
1438 05-01-2015 02:25:00 1.3 C 4.93 g/m*3 1.3 C 0 km/h
1439 05-01-2015 02:30:00 1.2 C 4.89 g/m*3 1.2 C 1.6 km/h
1440 05-01-2015 02:35:00 1.2 C 4.89 g/m*3 1.2 C 1.6 km/h
1441 05-01-2015 02:40:00 1.1 C 4.91 g/m*3 1.1 C 3.2 km/h
1442 05-01-2015 02:45:00 1.1 C 4.91 g/m*3 1.1 C 1.6 km/h
1443 05-01-2015 02:50:00 1.1 C 4.91 g/m*3 1.1 C 1.6 km/h
1444 05-01-2015 02:55:00 1.1 C 4.91 g/m*3 1.1 C 1.6 km/h
1445 05-01-2015 03:00:00 1 C 4.88 g/m*3 1 C 1.6 km/h
1446 05-01-2015 03:05:00 1 C 4.88 g/m*3 1 C 3.2 km/h
1447 05-01-2015 03:10:00 1 C 4.88 g/m*3 1 C 3.2 km/h
1448 05-01-2015 03:15:00 1 C 4.88 g/m*3 1 C 3.2 km/h
1449 05-01-2015 03:20:00 1 C 4.88 g/m*3 1 C 4.8 km/h
1450 05-01-2015 03:25:00 0.9 C 4.85 g/m*3 0.9 C 1.6 km/h
Sensor: Nr:Datum:Temp:Abs-Feuchte:Windchill:Wind:
Aussen-T/F 1451 05-01-2015 03:30:00 1 C 4.88 g/m*3 1 C 4.8 km/h
1452 05-01-2015 03:35:00 1 C 4.88 g/m*3 1 C 0 km/h
1453 05-01-2015 03:40:00 0.9 C 4.85 g/m*3 0.9 C 0 km/h
1454 05-01-2015 03:45:00 0.8 C 4.81 g/m*3 0.8 C 1.6 km/h
1455 05-01-2015 03:50:00 0.8 C 4.81 g/m*3 0.8 C 1.6 km/h
1456 05-01-2015 03:55:00 0.7 C 4.78 g/m*3 0.7 C 0 km/h
1457 05-01-2015 04:00:00 0.7 C 4.78 g/m*3 0.7 C 0 km/h
1458 05-01-2015 04:05:00 0.5 C 4.71 g/m*3 0.5 C 0 km/h
1459 05-01-2015 04:10:00 0.4 C 4.68 g/m*3 0.4 C 3.2 km/h
1460 05-01-2015 04:15:00 0.3 C 4.65 g/m*3 0.3 C 3.2 km/h
1461 05-01-2015 04:20:00 0.2 C 4.62 g/m*3 0.2 C 1.6 km/h
1462 05-01-2015 04:25:00 0.1 C 4.59 g/m*3 0.1 C 1.6 km/h
1463 05-01-2015 04:30:00 0.1 C 4.59 g/m*3 0.1 C 0 km/h
1464 05-01-2015 04:35:00 -0.1 C 4.52 g/m*3 -0.1 C 0 km/h
1465 05-01-2015 04:40:00 -0.1 C 4.57 g/m*3 -0.1 C 0 km/h
1466 05-01-2015 04:45:00 -0.2 C 4.54 g/m*3 -0.2 C 0 km/h
1467 05-01-2015 04:50:00 -0.3 C 4.51 g/m*3 -0.3 C 0 km/h
1468 05-01-2015 04:55:00 -0.3 C 4.51 g/m*3 -0.3 C 0 km/h
1469 05-01-2015 05:00:00 -0.4 C 4.48 g/m*3 -0.4 C 1.6 km/h
1470 05-01-2015 05:05:00 -0.4 C 4.48 g/m*3 -0.4 C 1.6 km/h
1471 05-01-2015 05:10:00 -0.4 C 4.48 g/m*3 -0.4 C 0 km/h
1472 05-01-2015 05:15:00 -0.4 C 4.48 g/m*3 -0.4 C 0 km/h
1473 05-01-2015 05:20:00 -0.4 C 4.48 g/m*3 -0.4 C 0 km/h
1474 05-01-2015 05:25:00 -0.5 C 4.45 g/m*3 -0.5 C 0 km/h
1475 05-01-2015 05:30:00 -0.6 C 4.42 g/m*3 -0.6 C 1.6 km/h
Sensor: Nr:Datum:Temp:Abs-Feuchte:Windchill:Wind:
Aussen-T/F 1476 05-01-2015 05:35:00 -0.6 C 4.46 g/m*3 -0.6 C 0 km/h
1477 05-01-2015 05:40:00 -0.6 C 4.46 g/m*3 -0.6 C 1.6 km/h
1478 05-01-2015 05:45:00 -0.5 C 4.49 g/m*3 -0.5 C 3.2 km/h
1479 05-01-2015 05:50:00 -0.5 C 4.49 g/m*3 -0.5 C 1.6 km/h
1480 05-01-2015 05:55:00 -0.5 C 4.49 g/m*3 -0.5 C 0 km/h
1481 05-01-2015 06:00:00 -0.5 C 4.49 g/m*3 -0.5 C 1.6 km/h
1482 05-01-2015 06:05:00 -0.6 C 4.46 g/m*3 -0.6 C 0 km/h
1483 05-01-2015 06:10:00 -0.6 C 4.46 g/m*3 -0.6 C 0 km/h
1484 05-01-2015 06:15:00 -0.6 C 4.46 g/m*3 -0.6 C 0 km/h
1485 05-01-2015 06:20:00 -0.6 C 4.46 g/m*3 -0.6 C 0 km/h
1486 05-01-2015 06:25:00 -0.9 C 4.37 g/m*3 -0.9 C 0 km/h
1487 05-01-2015 06:30:00 -1 C 4.34 g/m*3 -1 C 1.6 km/h
1488 05-01-2015 06:35:00 -1 C 4.34 g/m*3 -1 C 0 km/h
1489 05-01-2015 06:40:00 -1 C 4.34 g/m*3 -1 C 0 km/h
1490 05-01-2015 06:45:00 -0.9 C 4.37 g/m*3 -0.9 C 0 km/h
1491 05-01-2015 06:50:00 -0.9 C 4.37 g/m*3 -0.9 C 1.6 km/h
1492 05-01-2015 06:55:00 -0.9 C 4.37 g/m*3 -0.9 C 1.6 km/h
1493 05-01-2015 07:00:00 -0.9 C 4.37 g/m*3 -0.9 C 4.8 km/h
1494 05-01-2015 07:05:00 -0.9 C 4.37 g/m*3 -0.9 C 1.6 km/h
1495 05-01-2015 07:10:00 -0.8 C 4.4 g/m*3 -0.8 C 1.6 km/h
1496 05-01-2015 07:15:00 -0.9 C 4.37 g/m*3 -0.9 C 0 km/h
1497 05-01-2015 07:20:00 -0.9 C 4.37 g/m*3 -0.9 C 0 km/h
1498 05-01-2015 07:25:00 -1 C 4.34 g/m*3 -1 C 1.6 km/h
1499 05-01-2015 07:30:00 -1 C 4.34 g/m*3 -1 C 0 km/h
1500 05-01-2015 07:35:00 -1 C 4.38 g/m*3 -1 C 1.6 km/h
Sensor: Nr:Datum:Temp:Abs-Feuchte:Windchill:Wind:
Aussen-T/F 1501 05-01-2015 07:40:00 -0.9 C 4.42 g/m*3 -0.9 C 4.8 km/h
1502 05-01-2015 07:45:00 -0.8 C 4.45 g/m*3 -3.11 C 6.4 km/h
1503 05-01-2015 07:50:00 -0.8 C 4.45 g/m*3 -3.11 C 6.4 km/h
1504 05-01-2015 07:55:00 -0.8 C 4.45 g/m*3 -3.11 C 6.4 km/h
1505 05-01-2015 08:00:00 -0.8 C 4.45 g/m*3 -3.71 C 8.1 km/h
1506 05-01-2015 08:05:00 -0.8 C 4.45 g/m*3 -0.8 C 3.2 km/h
1507 05-01-2015 08:10:00 -0.7 C 4.48 g/m*3 -3.59 C 8.1 km/h
1508 05-01-2015 08:15:00 -0.7 C 4.48 g/m*3 -2.99 C 6.4 km/h
1509 05-01-2015 08:20:00 -0.7 C 4.48 g/m*3 -0.7 C 4.8 km/h
1510 05-01-2015 08:25:00 -0.7 C 4.48 g/m*3 -0.7 C 4.8 km/h
1511 05-01-2015 08:30:00 -0.7 C 4.48 g/m*3 -0.7 C 4.8 km/h
1512 05-01-2015 08:35:00 -0.7 C 4.48 g/m*3 -4.07 C 9.7 km/h
1513 05-01-2015 08:40:00 -0.8 C 4.45 g/m*3 -3.71 C 8.1 km/h
1514 05-01-2015 08:45:00 -0.8 C 4.45 g/m*3 -0.8 C 4.8 km/h
1515 05-01-2015 08:50:00 -0.8 C 4.45 g/m*3 -3.71 C 8.1 km/h
1516 05-01-2015 08:55:00 -0.8 C 4.45 g/m*3 -0.8 C 4.8 km/h
1517 05-01-2015 09:00:00 -0.8 C 4.45 g/m*3 -0.8 C 4.8 km/h
1518 05-01-2015 09:05:00 -0.8 C 4.45 g/m*3 -3.11 C 6.4 km/h
1519 05-01-2015 09:10:00 -0.8 C 4.45 g/m*3 -3.11 C 6.4 km/h
1520 05-01-2015 09:15:00 -0.8 C 4.45 g/m*3 -3.11 C 6.4 km/h
1521 05-01-2015 09:20:00 -0.8 C 4.45 g/m*3 -0.8 C 4.8 km/h
1522 05-01-2015 09:25:00 -0.8 C 4.45 g/m*3 -0.8 C 4.8 km/h
1523 05-01-2015 09:30:00 -0.8 C 4.45 g/m*3 -0.8 C 3.2 km/h
1524 05-01-2015 09:35:00 -0.8 C 4.45 g/m*3 -3.11 C 6.4 km/h
1525 05-01-2015 09:40:00 -0.6 C 4.51 g/m*3 -3.48 C 8.1 km/h
Sensor: Nr:Datum:Temp:Abs-Feuchte:Windchill:Wind:
Aussen-T/F 1526 05-01-2015 09:45:00 -0.6 C 4.51 g/m*3 -3.95 C 9.7 km/h
1527 05-01-2015 09:50:00 -0.6 C 4.51 g/m*3 -0.6 C 4.8 km/h
1528 05-01-2015 09:55:00 -0.6 C 4.51 g/m*3 -0.6 C 4.8 km/h
1529 05-01-2015 10:00:00 -0.6 C 4.51 g/m*3 -0.6 C 3.2 km/h
1530 05-01-2015 10:05:00 -0.6 C 4.51 g/m*3 -0.6 C 3.2 km/h
1531 05-01-2015 10:10:00 -0.6 C 4.51 g/m*3 -0.6 C 3.2 km/h
1532 05-01-2015 10:15:00 -0.6 C 4.51 g/m*3 -0.6 C 1.6 km/h
1533 05-01-2015 10:20:00 -0.6 C 4.51 g/m*3 -2.88 C 6.4 km/h
1534 05-01-2015 10:25:00 -0.5 C 4.54 g/m*3 -0.5 C 1.6 km/h
1535 05-01-2015 10:30:00 -0.5 C 4.54 g/m*3 -0.5 C 4.8 km/h
1536 05-01-2015 10:35:00 -0.5 C 4.54 g/m*3 -2.76 C 6.4 km/h
1537 05-01-2015 10:40:00 -0.3 C 4.6 g/m*3 -3.12 C 8.1 km/h
1538 05-01-2015 10:45:00 -0.2 C 4.64 g/m*3 -0.2 C 4.8 km/h
1539 05-01-2015 10:50:00 -0.2 C 4.64 g/m*3 -0.2 C 3.2 km/h
1540 05-01-2015 10:55:00 -0.2 C 4.64 g/m*3 -0.2 C 1.6 km/h
1541 05-01-2015 11:00:00 -0.2 C 4.64 g/m*3 -0.2 C 1.6 km/h
1542 05-01-2015 11:05:00 -0.2 C 4.64 g/m*3 -0.2 C 3.2 km/h
1543 05-01-2015 11:10:00 -0.2 C 4.64 g/m*3 -0.2 C 1.6 km/h
1544 05-01-2015 11:50:00 0.2 C 4.77 g/m*3 0.2 C 3.2 km/h
1545 05-01-2015 11:55:00 0.2 C 4.77 g/m*3 0.2 C 1.6 km/h
1546 05-01-2015 12:00:00 0.2 C 4.77 g/m*3 0.2 C 1.6 km/h
1547 05-01-2015 12:05:00 0.2 C 4.77 g/m*3 0.2 C 1.6 km/h
1548 05-01-2015 12:10:00 0.2 C 4.77 g/m*3 0.2 C 3.2 km/h
1549 05-01-2015 12:15:00 0.2 C 4.77 g/m*3 0.2 C 1.6 km/h
1550 05-01-2015 12:20:00 0.2 C 4.77 g/m*3 0.2 C 1.6 km/h
Sensor: Nr:Datum:Temp:Abs-Feuchte:Windchill:Wind:
Aussen-T/F 1551 05-01-2015 12:25:00 0.2 C 4.77 g/m*3 0.2 C 1.6 km/h
1552 05-01-2015 13:50:00 1.1 C 5.23 g/m*3 1.1 C 3.2 km/h
1553 05-01-2015 13:55:00 1.1 C 4.96 g/m*3 1.1 C 4.8 km/h
1554 05-01-2015 14:00:00 1.1 C 4.96 g/m*3 1.1 C 3.2 km/h
1555 05-01-2015 18:20:00 -0.8 C 4.4 g/m*3 -0.8 C 0 km/h
1556 05-01-2015 18:25:00 -0.8 C 4.4 g/m*3 -0.8 C 0 km/h
1557 05-01-2015 18:30:00 -0.8 C 4.4 g/m*3 -0.8 C 0 km/h
1558 05-01-2015 18:35:00 -0.8 C 4.4 g/m*3 -0.8 C 1.6 km/h
1559 05-01-2015 18:40:00 -0.8 C 4.4 g/m*3 -0.8 C 0 km/h
1560 05-01-2015 18:45:00 -0.8 C 4.4 g/m*3 -0.8 C 0 km/h
1561 05-01-2015 18:50:00 -0.8 C 4.4 g/m*3 -0.8 C 0 km/h
1562 05-01-2015 18:55:00 -0.8 C 4.4 g/m*3 -0.8 C 0 km/h
1563 05-01-2015 19:00:00 -0.8 C 4.4 g/m*3 -0.8 C 0 km/h
1564 05-01-2015 19:05:00 -0.9 C 4.37 g/m*3 -0.9 C 0 km/h
1565 05-01-2015 19:10:00 -0.9 C 4.37 g/m*3 -0.9 C 0 km/h
1566 05-01-2015 20:10:00 -1.4 C 4.22 g/m*3 -1.4 C 0 km/h
1567 05-01-2015 20:15:00 -1.4 C 4.22 g/m*3 -1.4 C 0 km/h
1568 05-01-2015 20:20:00 -1.3 C 4.25 g/m*3 -1.3 C 0 km/h
1569 05-01-2015 20:25:00 -1.4 C 4.22 g/m*3 -1.4 C 0 km/h
1570 05-01-2015 20:30:00 -1.4 C 4.22 g/m*3 -1.4 C 0 km/h
1571 05-01-2015 20:35:00 -1.4 C 4.22 g/m*3 -1.4 C 0 km/h
1572 05-01-2015 20:40:00 -1.3 C 4.25 g/m*3 -1.3 C 0 km/h
1573 05-01-2015 20:45:00 -1.4 C 4.22 g/m*3 -1.4 C 0 km/h
1574 05-01-2015 20:50:00 -1.4 C 4.22 g/m*3 -1.4 C 0 km/h
1575 05-01-2015 20:55:00 -1.5 C 4.19 g/m*3 -1.5 C 0 km/h
Sensor: Nr:Datum:Temp:Abs-Feuchte:Windchill:Wind:
Aussen-T/F 1576 05-01-2015 21:00:00 -1.5 C 4.19 g/m*3 -1.5 C 0 km/h
1577 05-01-2015 21:05:00 -1.6 C 4.16 g/m*3 -1.6 C 0 km/h
1578 05-01-2015 21:10:00 -1.5 C 4.19 g/m*3 -1.5 C 0 km/h
1579 05-01-2015 21:15:00 -1.5 C 4.19 g/m*3 -1.5 C 0 km/h
1580 05-01-2015 21:20:00 -1.5 C 4.19 g/m*3 -1.5 C 0 km/h
1581 05-01-2015 21:25:00 -1.6 C 4.16 g/m*3 -1.6 C 0 km/h
1582 05-01-2015 21:30:00 -1.6 C 4.16 g/m*3 -1.6 C 0 km/h
1583 05-01-2015 21:35:00 -1.6 C 4.16 g/m*3 -1.6 C 0 km/h
1584 05-01-2015 21:40:00 -1.6 C 4.16 g/m*3 -1.6 C 0 km/h
1585 05-01-2015 21:45:00 -1.6 C 4.16 g/m*3 -1.6 C 0 km/h
1586 05-01-2015 21:50:00 -1.6 C 4.16 g/m*3 -1.6 C 0 km/h
1587 05-01-2015 21:55:00 -1.6 C 4.21 g/m*3 -1.6 C 0 km/h
1588 05-01-2015 22:00:00 -1.6 C 4.21 g/m*3 -1.6 C 0 km/h
1589 05-01-2015 22:05:00 -1.7 C 4.13 g/m*3 -1.7 C 0 km/h
1590 05-01-2015 22:10:00 -1.7 C 4.13 g/m*3 -1.7 C 0 km/h
1591 05-01-2015 22:15:00 -1.8 C 4.1 g/m*3 -1.8 C 0 km/h
1592 05-01-2015 22:20:00 -1.8 C 4.1 g/m*3 -1.8 C 0 km/h
1593 05-01-2015 22:25:00 -1.8 C 4.1 g/m*3 -1.8 C 0 km/h
1594 05-01-2015 22:30:00 -1.8 C 4.1 g/m*3 -1.8 C 1.6 km/h
1595 05-01-2015 22:35:00 -1.8 C 4.1 g/m*3 -1.8 C 0 km/h
1596 05-01-2015 22:40:00 -1.8 C 4.1 g/m*3 -1.8 C 0 km/h
1597 06-01-2015 07:55:00 -2.9 C 3.84 g/m*3 -2.9 C 4.8 km/h
1598 06-01-2015 08:00:00 -2.9 C 3.84 g/m*3 -2.9 C 3.2 km/h
1599 06-01-2015 08:05:00 -2.9 C 3.84 g/m*3 -2.9 C 1.6 km/h
1600 06-01-2015 08:10:00 -2.9 C 3.84 g/m*3 -2.9 C 3.2 km/h
Sensor: Nr:Datum:Temp:Abs-Feuchte:Windchill:Wind:
Aussen-T/F 1601 06-01-2015 08:15:00 -2.9 C 3.84 g/m*3 -2.9 C 3.2 km/h
1602 06-01-2015 13:05:00 -1.4 C 4.26 g/m*3 -1.4 C 3.2 km/h
1603 06-01-2015 13:10:00 -1.3 C 4.29 g/m*3 -1.3 C 0 km/h
1604 06-01-2015 13:15:00 -1.3 C 4.29 g/m*3 -1.3 C 0 km/h
1605 06-01-2015 13:20:00 -1.3 C 4.29 g/m*3 -1.3 C 0 km/h
1606 06-01-2015 13:25:00 -1.3 C 4.29 g/m*3 -1.3 C 1.6 km/h
1607 06-01-2015 19:40:00 1.1 C 4.7 g/m*3 -2.66 C 12.9 km/h
1608 06-01-2015 19:45:00 1.1 C 4.7 g/m*3 -2.97 C 14.5 km/h
1609 06-01-2015 19:50:00 1.1 C 4.7 g/m*3 -2.97 C 14.5 km/h
1610 06-01-2015 19:55:00 1.1 C 4.7 g/m*3 -2.66 C 12.9 km/h
1611 06-01-2015 20:00:00 0.9 C 4.64 g/m*3 -3.21 C 14.5 km/h
1612 06-01-2015 20:05:00 0.9 C 4.64 g/m*3 -2.16 C 9.7 km/h
1613 06-01-2015 20:10:00 0.8 C 4.61 g/m*3 -4.13 C 19.3 km/h
1614 06-01-2015 20:15:00 0.8 C 4.61 g/m*3 -3.02 C 12.9 km/h
1615 06-01-2015 20:20:00 0.8 C 4.61 g/m*3 -3.02 C 12.9 km/h
1616 06-01-2015 20:25:00 0.8 C 4.61 g/m*3 -2.67 C 11.3 km/h
1617 06-01-2015 21:20:00 0.7 C 4.68 g/m*3 -1.95 C 8.1 km/h
1618 06-01-2015 21:25:00 0.7 C 4.68 g/m*3 -2.8 C 11.3 km/h
1619 06-01-2015 21:30:00 0.7 C 4.68 g/m*3 -2.8 C 11.3 km/h
1620 06-01-2015 21:35:00 0.8 C 4.71 g/m*3 -2.28 C 9.7 km/h
1621 06-01-2015 21:40:00 0.8 C 4.71 g/m*3 -2.28 C 9.7 km/h
1622 06-01-2015 21:45:00 0.8 C 4.71 g/m*3 -2.28 C 9.7 km/h
1623 06-01-2015 21:50:00 0.8 C 4.71 g/m*3 -2.67 C 11.3 km/h
1624 06-01-2015 21:55:00 0.8 C 4.71 g/m*3 -3.34 C 14.5 km/h
1625 06-01-2015 22:00:00 0.9 C 4.74 g/m*3 -1.14 C 6.4 km/h
Sensor: Nr:Datum:Temp:Abs-Feuchte:Windchill:Wind:
Aussen-T/F 1626 06-01-2015 22:05:00 1 C 4.78 g/m*3 -2.78 C 12.9 km/h
1627 06-01-2015 22:10:00 1 C 4.78 g/m*3 -1.59 C 8.1 km/h
1628 06-01-2015 22:15:00 1.1 C 4.81 g/m*3 -1.92 C 9.7 km/h
1629 06-01-2015 22:20:00 1.1 C 4.81 g/m*3 -1.48 C 8.1 km/h
1630 06-01-2015 22:25:00 1.1 C 4.81 g/m*3 -2.31 C 11.3 km/h
1631 06-01-2015 22:30:00 1.2 C 4.84 g/m*3 -0.8 C 6.4 km/h
1632 06-01-2015 22:35:00 1.3 C 4.87 g/m*3 -0.68 C 6.4 km/h
1633 06-01-2015 22:40:00 1.3 C 4.87 g/m*3 1.3 C 1.6 km/h
1634 06-01-2015 22:45:00 1.3 C 4.87 g/m*3 1.3 C 1.6 km/h
1635 06-01-2015 22:50:00 1.3 C 4.87 g/m*3 1.3 C 4.8 km/h
1636 06-01-2015 22:55:00 1.2 C 4.84 g/m*3 1.2 C 0 km/h
1637 06-01-2015 23:00:00 1.2 C 4.84 g/m*3 -1.8 C 9.7 km/h
1638 06-01-2015 23:05:00 1.2 C 4.84 g/m*3 1.2 C 4.8 km/h
1639 06-01-2015 23:10:00 1.2 C 4.84 g/m*3 1.2 C 3.2 km/h
1640 06-01-2015 23:15:00 1.3 C 4.93 g/m*3 -0.68 C 6.4 km/h
1641 06-01-2015 23:20:00 1.4 C 4.96 g/m*3 -2.29 C 12.9 km/h
1642 06-01-2015 23:25:00 1.6 C 5.03 g/m*3 -1.33 C 9.7 km/h
1643 06-01-2015 23:30:00 1.6 C 5.03 g/m*3 1.6 C 4.8 km/h
1644 06-01-2015 23:35:00 1.6 C 4.97 g/m*3 -0.33 C 6.4 km/h
1645 06-01-2015 23:40:00 1.6 C 4.97 g/m*3 1.6 C 4.8 km/h
1646 06-01-2015 23:45:00 1.5 C 4.94 g/m*3 1.5 C 4.8 km/h
1647 06-01-2015 23:50:00 1.5 C 4.99 g/m*3 -0.45 C 6.4 km/h
1648 06-01-2015 23:55:00 1.5 C 4.99 g/m*3 -2.17 C 12.9 km/h
1649 07-01-2015 00:00:00 1.5 C 4.99 g/m*3 -1.01 C 8.1 km/h
1650 07-01-2015 00:05:00 1.6 C 5.03 g/m*3 -0.33 C 6.4 km/h
Sensor: Nr:Datum:Temp:Abs-Feuchte:Windchill:Wind:
Aussen-T/F 1651 07-01-2015 00:10:00 1.6 C 5.03 g/m*3 -0.33 C 6.4 km/h
1652 07-01-2015 00:15:00 1.6 C 5.03 g/m*3 -0.33 C 6.4 km/h
1653 07-01-2015 00:20:00 1.6 C 5.03 g/m*3 -0.33 C 6.4 km/h
1654 07-01-2015 00:25:00 1.6 C 5.03 g/m*3 -0.89 C 8.1 km/h
1655 07-01-2015 00:30:00 1.6 C 5.03 g/m*3 1.6 C 3.2 km/h
1656 07-01-2015 00:35:00 1.6 C 5.08 g/m*3 -0.33 C 6.4 km/h
1657 07-01-2015 00:40:00 1.7 C 5.12 g/m*3 -0.22 C 6.4 km/h
1658 07-01-2015 00:45:00 1.7 C 5.12 g/m*3 1.7 C 3.2 km/h
1659 07-01-2015 00:50:00 1.7 C 5.12 g/m*3 1.7 C 3.2 km/h
1660 07-01-2015 00:55:00 1.7 C 5.12 g/m*3 1.7 C 3.2 km/h
1661 07-01-2015 01:00:00 1.8 C 5.15 g/m*3 -1.09 C 9.7 km/h
1662 07-01-2015 01:05:00 1.9 C 5.19 g/m*3 -0.97 C 9.7 km/h
1663 07-01-2015 01:10:00 1.9 C 5.19 g/m*3 1.9 C 4.8 km/h
1664 07-01-2015 01:15:00 1.9 C 5.19 g/m*3 0.01 C 6.4 km/h
1665 07-01-2015 01:20:00 2 C 5.22 g/m*3 -2.14 C 16.1 km/h
1666 07-01-2015 01:25:00 2.1 C 5.26 g/m*3 -0.73 C 9.7 km/h
1667 07-01-2015 01:30:00 2.1 C 5.26 g/m*3 -0.73 C 9.7 km/h
1668 07-01-2015 01:35:00 2.2 C 5.29 g/m*3 2.2 C 4.8 km/h
1669 07-01-2015 01:40:00 2.1 C 5.2 g/m*3 -1.74 C 14.5 km/h
1670 07-01-2015 01:45:00 2.2 C 5.29 g/m*3 2.2 C 4.8 km/h
1671 07-01-2015 01:50:00 2.2 C 5.29 g/m*3 0.36 C 6.4 km/h
1672 07-01-2015 01:55:00 2.2 C 5.29 g/m*3 0.36 C 6.4 km/h
1673 07-01-2015 02:00:00 2.2 C 5.29 g/m*3 2.2 C 3.2 km/h
1674 07-01-2015 02:05:00 2.2 C 5.29 g/m*3 2.2 C 3.2 km/h
1675 07-01-2015 02:10:00 2.2 C 5.29 g/m*3 2.2 C 4.8 km/h
Sensor: Nr:Datum:Temp:Abs-Feuchte:Windchill:Wind:
Aussen-T/F 1676 07-01-2015 02:15:00 2.2 C 5.29 g/m*3 -0.18 C 8.1 km/h
1677 07-01-2015 02:20:00 2.3 C 5.33 g/m*3 -0.87 C 11.3 km/h
1678 07-01-2015 02:25:00 2.3 C 5.33 g/m*3 -0.49 C 9.7 km/h
1679 07-01-2015 02:30:00 2.3 C 5.33 g/m*3 0.47 C 6.4 km/h
1680 07-01-2015 02:35:00 2.3 C 5.33 g/m*3 -0.07 C 8.1 km/h
1681 07-01-2015 02:40:00 2.2 C 5.29 g/m*3 -0.61 C 9.7 km/h
1682 07-01-2015 02:45:00 2.2 C 5.29 g/m*3 0.36 C 6.4 km/h
1683 07-01-2015 02:50:00 2.2 C 5.29 g/m*3 0.36 C 6.4 km/h
1684 07-01-2015 02:55:00 2.3 C 5.33 g/m*3 2.3 C 4.8 km/h
1685 07-01-2015 03:00:00 2.3 C 5.33 g/m*3 0.47 C 6.4 km/h
1686 07-01-2015 03:05:00 2.3 C 5.33 g/m*3 -0.87 C 11.3 km/h
1687 07-01-2015 03:10:00 2.4 C 5.37 g/m*3 -0.74 C 11.3 km/h
1688 07-01-2015 03:15:00 2.6 C 5.44 g/m*3 0.29 C 8.1 km/h
1689 07-01-2015 03:20:00 2.6 C 5.38 g/m*3 -0.14 C 9.7 km/h
1690 07-01-2015 03:25:00 2.5 C 5.35 g/m*3 -0.62 C 11.3 km/h
1691 07-01-2015 03:30:00 2.4 C 5.31 g/m*3 0.59 C 6.4 km/h
1692 07-01-2015 03:35:00 2.5 C 5.4 g/m*3 -0.26 C 9.7 km/h
1693 07-01-2015 03:40:00 2.5 C 5.35 g/m*3 -0.26 C 9.7 km/h
1694 07-01-2015 03:45:00 2.6 C 5.44 g/m*3 -0.5 C 11.3 km/h
1695 07-01-2015 03:50:00 2.6 C 5.44 g/m*3 0.82 C 6.4 km/h
1696 07-01-2015 03:55:00 2.5 C 5.4 g/m*3 0.71 C 6.4 km/h
1697 07-01-2015 04:00:00 2.4 C 5.37 g/m*3 0.59 C 6.4 km/h
1698 07-01-2015 04:05:00 2.4 C 5.37 g/m*3 2.4 C 4.8 km/h
1699 07-01-2015 04:10:00 2.4 C 5.37 g/m*3 -1.37 C 14.5 km/h
1700 07-01-2015 04:15:00 2.4 C 5.37 g/m*3 -0.37 C 9.7 km/h
Sensor: Nr:Datum:Temp:Abs-Feuchte:Windchill:Wind:
Aussen-T/F 1701 07-01-2015 04:20:00 2.4 C 5.37 g/m*3 -0.74 C 11.3 km/h
1702 07-01-2015 04:25:00 2.5 C 5.4 g/m*3 -0.26 C 9.7 km/h
1703 07-01-2015 04:30:00 2.5 C 5.4 g/m*3 -1.52 C 16.1 km/h
1704 07-01-2015 04:35:00 2.5 C 5.4 g/m*3 0.17 C 8.1 km/h
1705 07-01-2015 04:40:00 2.6 C 5.44 g/m*3 -0.5 C 11.3 km/h
1706 07-01-2015 04:45:00 2.5 C 5.4 g/m*3 0.71 C 6.4 km/h
1707 07-01-2015 04:50:00 2.5 C 5.4 g/m*3 -0.62 C 11.3 km/h
1708 07-01-2015 04:55:00 2.4 C 5.37 g/m*3 2.4 C 4.8 km/h
1709 07-01-2015 05:00:00 2.4 C 5.37 g/m*3 0.59 C 6.4 km/h
1710 07-01-2015 05:05:00 2.4 C 5.37 g/m*3 2.4 C 4.8 km/h
1711 07-01-2015 05:10:00 2.4 C 5.37 g/m*3 0.05 C 8.1 km/h
1712 07-01-2015 05:15:00 2.5 C 5.4 g/m*3 -0.26 C 9.7 km/h
1713 07-01-2015 05:20:00 2.5 C 5.4 g/m*3 0.71 C 6.4 km/h
1714 07-01-2015 05:25:00 2.6 C 5.44 g/m*3 2.6 C 4.8 km/h
1715 07-01-2015 05:30:00 2.6 C 5.44 g/m*3 0.82 C 6.4 km/h
1716 07-01-2015 05:35:00 2.6 C 5.44 g/m*3 -0.5 C 11.3 km/h
1717 07-01-2015 05:40:00 2.5 C 5.4 g/m*3 0.71 C 6.4 km/h
1718 07-01-2015 05:45:00 2.5 C 5.4 g/m*3 0.71 C 6.4 km/h
1719 07-01-2015 05:50:00 2.4 C 5.37 g/m*3 2.4 C 4.8 km/h
1720 07-01-2015 05:55:00 2.3 C 5.33 g/m*3 2.3 C 4.8 km/h
1721 07-01-2015 06:00:00 2.1 C 5.26 g/m*3 2.1 C 3.2 km/h
1722 07-01-2015 06:05:00 1.9 C 5.19 g/m*3 1.9 C 3.2 km/h
1723 07-01-2015 06:10:00 1.8 C 5.15 g/m*3 1.8 C 1.6 km/h
1724 07-01-2015 06:15:00 1.7 C 5.17 g/m*3 1.7 C 3.2 km/h
1725 07-01-2015 06:20:00 1.6 C 5.14 g/m*3 1.6 C 1.6 km/h
Sensor: Nr:Datum:Temp:Abs-Feuchte:Windchill:Wind:
Aussen-T/F 1726 07-01-2015 06:25:00 1.6 C 5.14 g/m*3 1.6 C 1.6 km/h
1727 07-01-2015 06:30:00 1.4 C 5.07 g/m*3 1.4 C 0 km/h
1728 07-01-2015 06:35:00 1.4 C 5.12 g/m*3 1.4 C 1.6 km/h
1729 07-01-2015 06:40:00 1.4 C 5.12 g/m*3 1.4 C 4.8 km/h
1730 07-01-2015 06:45:00 1.5 C 5.16 g/m*3 1.5 C 4.8 km/h
1731 07-01-2015 06:50:00 1.4 C 5.12 g/m*3 1.4 C 3.2 km/h
1732 07-01-2015 06:55:00 1.4 C 5.12 g/m*3 1.4 C 4.8 km/h
1733 07-01-2015 07:00:00 1.3 C 5.09 g/m*3 1.3 C 4.8 km/h
1734 07-01-2015 07:05:00 1.3 C 5.09 g/m*3 1.3 C 3.2 km/h
1735 07-01-2015 07:10:00 1.4 C 5.12 g/m*3 1.4 C 3.2 km/h
1736 07-01-2015 07:15:00 1.5 C 5.16 g/m*3 1.5 C 3.2 km/h
1737 07-01-2015 07:20:00 1.4 C 5.12 g/m*3 1.4 C 3.2 km/h
1738 07-01-2015 07:25:00 1.4 C 5.12 g/m*3 1.4 C 3.2 km/h
1739 07-01-2015 07:30:00 1.4 C 5.12 g/m*3 -0.56 C 6.4 km/h
1740 07-01-2015 07:35:00 1.4 C 5.12 g/m*3 1.4 C 3.2 km/h
1741 07-01-2015 07:40:00 1.3 C 5.09 g/m*3 1.3 C 1.6 km/h
1742 07-01-2015 07:45:00 1.3 C 5.09 g/m*3 -0.68 C 6.4 km/h
1743 07-01-2015 07:50:00 1.4 C 5.12 g/m*3 1.4 C 3.2 km/h
1744 07-01-2015 07:55:00 1.3 C 5.09 g/m*3 1.3 C 3.2 km/h
1745 07-01-2015 08:00:00 1.3 C 5.09 g/m*3 1.3 C 3.2 km/h
1746 07-01-2015 08:05:00 1.3 C 5.14 g/m*3 1.3 C 4.8 km/h
1747 07-01-2015 08:10:00 1.4 C 5.17 g/m*3 1.4 C 4.8 km/h
1748 07-01-2015 08:15:00 1.5 C 5.21 g/m*3 -1.01 C 8.1 km/h
1749 07-01-2015 08:20:00 1.6 C 5.25 g/m*3 1.6 C 4.8 km/h
1750 07-01-2015 08:25:00 1.7 C 5.28 g/m*3 -0.22 C 6.4 km/h
Sensor: Nr:Datum:Temp:Abs-Feuchte:Windchill:Wind:
Aussen-T/F 1751 07-01-2015 08:30:00 1.7 C 5.28 g/m*3 -0.22 C 6.4 km/h
1752 07-01-2015 08:35:00 1.7 C 5.23 g/m*3 -0.22 C 6.4 km/h
1753 07-01-2015 08:40:00 1.8 C 5.26 g/m*3 1.8 C 3.2 km/h
1754 07-01-2015 08:45:00 1.8 C 5.26 g/m*3 1.8 C 3.2 km/h
1755 07-01-2015 08:50:00 1.8 C 5.26 g/m*3 -0.65 C 8.1 km/h
1756 07-01-2015 08:55:00 1.9 C 5.35 g/m*3 1.9 C 4.8 km/h
1757 07-01-2015 09:00:00 2 C 5.33 g/m*3 2 C 4.8 km/h
1758 07-01-2015 09:05:00 2.1 C 5.37 g/m*3 2.1 C 4.8 km/h
1759 07-01-2015 09:10:00 2 C 5.33 g/m*3 2 C 3.2 km/h
1760 07-01-2015 09:15:00 2 C 5.33 g/m*3 2 C 1.6 km/h
1761 07-01-2015 09:20:00 2 C 5.33 g/m*3 2 C 3.2 km/h
1762 07-01-2015 09:25:00 2.1 C 5.37 g/m*3 2.1 C 4.8 km/h
1763 07-01-2015 09:30:00 2.1 C 5.37 g/m*3 2.1 C 0 km/h
1764 07-01-2015 09:35:00 2.1 C 5.37 g/m*3 2.1 C 4.8 km/h
1765 07-01-2015 09:40:00 2.1 C 5.37 g/m*3 2.1 C 3.2 km/h
1766 07-01-2015 11:40:00 3.2 C 5.54 g/m*3 -0.1 C 12.9 km/h
1767 07-01-2015 11:45:00 3.3 C 5.58 g/m*3 1.63 C 6.4 km/h
1768 07-01-2015 11:50:00 3.2 C 5.54 g/m*3 0.58 C 9.7 km/h
1769 07-01-2015 11:55:00 3.2 C 5.54 g/m*3 3.2 C 4.8 km/h
1770 07-01-2015 12:00:00 3.1 C 5.51 g/m*3 1.4 C 6.4 km/h
1771 07-01-2015 12:05:00 3.1 C 5.51 g/m*3 3.1 C 4.8 km/h
1772 07-01-2015 12:10:00 3.2 C 5.54 g/m*3 1.51 C 6.4 km/h
1773 07-01-2015 12:15:00 3.1 C 5.51 g/m*3 1.4 C 6.4 km/h
1774 07-01-2015 12:20:00 3.1 C 5.51 g/m*3 3.1 C 4.8 km/h
1775 07-01-2015 12:25:00 3.1 C 5.51 g/m*3 0.1 C 11.3 km/h
Sensor: Nr:Datum:Temp:Abs-Feuchte:Windchill:Wind:
Aussen-T/F 1776 07-01-2015 12:30:00 3.2 C 5.54 g/m*3 0.58 C 9.7 km/h
1777 07-01-2015 12:35:00 3.2 C 5.48 g/m*3 1.51 C 6.4 km/h
1778 07-01-2015 12:40:00 3.2 C 5.54 g/m*3 0.22 C 11.3 km/h
1779 07-01-2015 12:45:00 3.3 C 5.52 g/m*3 0.34 C 11.3 km/h
1780 07-01-2015 12:50:00 3.3 C 5.52 g/m*3 1.11 C 8.1 km/h
1781 07-01-2015 12:55:00 3.4 C 5.56 g/m*3 0.46 C 11.3 km/h
1782 07-01-2015 13:00:00 3.4 C 5.5 g/m*3 0.46 C 11.3 km/h
1783 07-01-2015 13:05:00 3.4 C 5.5 g/m*3 0.46 C 11.3 km/h
1784 07-01-2015 13:10:00 3.4 C 5.5 g/m*3 1.75 C 6.4 km/h
1785 07-01-2015 13:15:00 3.4 C 5.5 g/m*3 1.23 C 8.1 km/h
1786 07-01-2015 13:20:00 3.4 C 5.56 g/m*3 1.75 C 6.4 km/h
1787 07-01-2015 13:25:00 3.4 C 5.56 g/m*3 0.46 C 11.3 km/h
1788 07-01-2015 13:30:00 3.4 C 5.56 g/m*3 1.23 C 8.1 km/h
1789 07-01-2015 13:35:00 3.4 C 5.56 g/m*3 0.82 C 9.7 km/h
1790 07-01-2015 13:40:00 3.4 C 5.5 g/m*3 -0.14 C 14.5 km/h
1791 07-01-2015 13:45:00 3.4 C 5.5 g/m*3 1.23 C 8.1 km/h
1792 07-01-2015 13:50:00 3.4 C 5.5 g/m*3 0.14 C 12.9 km/h
1793 07-01-2015 13:55:00 3.5 C 5.53 g/m*3 0.58 C 11.3 km/h
1794 07-01-2015 14:00:00 3.5 C 5.53 g/m*3 0.94 C 9.7 km/h
1795 07-01-2015 14:05:00 3.5 C 5.53 g/m*3 1.86 C 6.4 km/h
1796 07-01-2015 14:10:00 3.5 C 5.53 g/m*3 0.94 C 9.7 km/h
1797 07-01-2015 14:15:00 3.4 C 5.5 g/m*3 -0.4 C 16.1 km/h
1798 07-01-2015 14:20:00 3.4 C 5.5 g/m*3 0.46 C 11.3 km/h
1799 07-01-2015 14:25:00 3.4 C 5.5 g/m*3 0.82 C 9.7 km/h
1800 07-01-2015 14:30:00 3.4 C 5.44 g/m*3 0.46 C 11.3 km/h
Sensor: Nr:Datum:Temp:Abs-Feuchte:Windchill:Wind:
Aussen-T/F 1801 07-01-2015 14:35:00 3.4 C 5.44 g/m*3 0.82 C 9.7 km/h
1802 07-01-2015 14:40:00 3.4 C 5.44 g/m*3 0.82 C 9.7 km/h
1803 07-01-2015 14:45:00 3.4 C 5.44 g/m*3 0.82 C 9.7 km/h
1804 07-01-2015 14:50:00 3.4 C 5.44 g/m*3 0.14 C 12.9 km/h
1805 07-01-2015 14:55:00 3.4 C 5.44 g/m*3 0.46 C 11.3 km/h
1806 07-01-2015 15:00:00 3.4 C 5.44 g/m*3 3.4 C 4.8 km/h
1807 07-01-2015 15:05:00 3.4 C 5.37 g/m*3 3.4 C 4.8 km/h
1808 07-01-2015 15:10:00 3.5 C 5.47 g/m*3 0.58 C 11.3 km/h
1809 07-01-2015 15:15:00 3.5 C 5.47 g/m*3 1.86 C 6.4 km/h
1810 07-01-2015 15:20:00 3.5 C 5.47 g/m*3 1.86 C 6.4 km/h
1811 07-01-2015 15:25:00 3.5 C 5.41 g/m*3 3.5 C 4.8 km/h
1812 07-01-2015 15:30:00 3.5 C 5.47 g/m*3 3.5 C 4.8 km/h
1813 07-01-2015 15:35:00 3.4 C 5.44 g/m*3 0.82 C 9.7 km/h
1814 07-01-2015 15:40:00 3.4 C 5.37 g/m*3 1.23 C 8.1 km/h
1815 07-01-2015 15:45:00 3.3 C 5.34 g/m*3 0.7 C 9.7 km/h
1816 07-01-2015 15:50:00 3.3 C 5.4 g/m*3 0.34 C 11.3 km/h
1817 07-01-2015 15:55:00 3.3 C 5.4 g/m*3 0.7 C 9.7 km/h
1818 07-01-2015 16:00:00 3.2 C 5.36 g/m*3 0.99 C 8.1 km/h
1819 07-01-2015 16:05:00 3.2 C 5.36 g/m*3 3.2 C 4.8 km/h
1820 07-01-2015 16:10:00 3.2 C 5.42 g/m*3 0.99 C 8.1 km/h
1821 07-01-2015 16:15:00 3.2 C 5.36 g/m*3 0.58 C 9.7 km/h
1822 07-01-2015 16:20:00 3.2 C 5.42 g/m*3 3.2 C 4.8 km/h
1823 07-01-2015 16:25:00 3.2 C 5.42 g/m*3 3.2 C 3.2 km/h
1824 07-01-2015 16:30:00 3.1 C 5.39 g/m*3 3.1 C 3.2 km/h
1825 07-01-2015 16:35:00 3.1 C 5.39 g/m*3 3.1 C 4.8 km/h
Sensor: Nr:Datum:Temp:Abs-Feuchte:Windchill:Wind:
Aussen-T/F 1826 07-01-2015 16:40:00 3.1 C 5.39 g/m*3 0.87 C 8.1 km/h
1827 07-01-2015 16:45:00 3.1 C 5.39 g/m*3 1.4 C 6.4 km/h
1828 07-01-2015 16:50:00 3.1 C 5.39 g/m*3 1.4 C 6.4 km/h
1829 07-01-2015 16:55:00 3 C 5.35 g/m*3 3 C 4.8 km/h
1830 07-01-2015 17:00:00 3 C 5.35 g/m*3 1.28 C 6.4 km/h
1831 07-01-2015 17:05:00 2.9 C 5.32 g/m*3 2.9 C 3.2 km/h
1832 07-01-2015 17:10:00 2.9 C 5.32 g/m*3 2.9 C 3.2 km/h
1833 07-01-2015 17:15:00 2.9 C 5.32 g/m*3 0.22 C 9.7 km/h
1834 07-01-2015 17:20:00 2.9 C 5.37 g/m*3 2.9 C 1.6 km/h
1835 07-01-2015 17:25:00 2.8 C 5.34 g/m*3 2.8 C 0 km/h
1836 07-01-2015 17:30:00 2.8 C 5.34 g/m*3 2.8 C 0 km/h
1837 07-01-2015 17:35:00 2.8 C 5.34 g/m*3 2.8 C 0 km/h
1838 07-01-2015 17:40:00 2.7 C 5.3 g/m*3 2.7 C 3.2 km/h
1839 07-01-2015 17:45:00 2.7 C 5.3 g/m*3 0.4 C 8.1 km/h
1840 07-01-2015 17:50:00 2.8 C 5.34 g/m*3 0.52 C 8.1 km/h
1841 07-01-2015 17:55:00 2.8 C 5.34 g/m*3 1.05 C 6.4 km/h
1842 07-01-2015 18:00:00 2.8 C 5.28 g/m*3 2.8 C 4.8 km/h
1843 07-01-2015 18:05:00 2.8 C 5.28 g/m*3 0.1 C 9.7 km/h
1844 07-01-2015 18:10:00 2.8 C 5.28 g/m*3 1.05 C 6.4 km/h
1845 07-01-2015 18:15:00 2.8 C 5.28 g/m*3 2.8 C 3.2 km/h
1846 07-01-2015 18:20:00 2.8 C 5.28 g/m*3 2.8 C 1.6 km/h
1847 07-01-2015 18:25:00 2.8 C 5.28 g/m*3 2.8 C 3.2 km/h
1848 07-01-2015 18:30:00 2.8 C 5.28 g/m*3 2.8 C 4.8 km/h
1849 07-01-2015 18:35:00 2.8 C 5.28 g/m*3 2.8 C 3.2 km/h
1850 07-01-2015 18:40:00 2.8 C 5.28 g/m*3 2.8 C 3.2 km/h
Sensor: Nr:Datum:Temp:Abs-Feuchte:Windchill:Wind:
Aussen-T/F 1851 07-01-2015 18:45:00 2.8 C 5.34 g/m*3 2.8 C 0 km/h
1852 07-01-2015 18:50:00 2.7 C 5.3 g/m*3 2.7 C 0 km/h
1853 07-01-2015 18:55:00 2.7 C 5.3 g/m*3 2.7 C 1.6 km/h
1854 07-01-2015 19:00:00 2.7 C 5.3 g/m*3 2.7 C 1.6 km/h
1855 07-01-2015 19:05:00 2.7 C 5.3 g/m*3 2.7 C 0 km/h
1856 07-01-2015 19:10:00 2.7 C 5.36 g/m*3 2.7 C 1.6 km/h
1857 07-01-2015 19:15:00 2.6 C 5.32 g/m*3 2.6 C 0 km/h
1858 07-01-2015 19:20:00 2.6 C 5.32 g/m*3 2.6 C 0 km/h
1859 07-01-2015 19:25:00 2.6 C 5.32 g/m*3 2.6 C 1.6 km/h
1860 07-01-2015 19:30:00 2.6 C 5.32 g/m*3 2.6 C 1.6 km/h
1861 07-01-2015 19:35:00 2.5 C 5.35 g/m*3 2.5 C 1.6 km/h
1862 07-01-2015 19:40:00 2.5 C 5.35 g/m*3 2.5 C 0 km/h
1863 07-01-2015 19:45:00 2.5 C 5.35 g/m*3 2.5 C 0 km/h
1864 07-01-2015 19:50:00 2.4 C 5.31 g/m*3 2.4 C 0 km/h
1865 07-01-2015 19:55:00 2.4 C 5.31 g/m*3 2.4 C 3.2 km/h
1866 07-01-2015 20:00:00 2.5 C 5.35 g/m*3 2.5 C 0 km/h
1867 07-01-2015 20:05:00 2.5 C 5.35 g/m*3 2.5 C 0 km/h
1868 07-01-2015 20:10:00 2.6 C 5.38 g/m*3 2.6 C 0 km/h
1869 07-01-2015 20:15:00 2.6 C 5.38 g/m*3 2.6 C 0 km/h
1870 07-01-2015 20:20:00 2.6 C 5.38 g/m*3 2.6 C 0 km/h
1871 07-01-2015 20:25:00 2.6 C 5.38 g/m*3 2.6 C 0 km/h
1872 07-01-2015 20:30:00 2.6 C 5.38 g/m*3 2.6 C 1.6 km/h
1873 07-01-2015 20:35:00 2.6 C 5.32 g/m*3 2.6 C 4.8 km/h
1874 07-01-2015 20:40:00 2.6 C 5.32 g/m*3 0.29 C 8.1 km/h
1875 07-01-2015 20:45:00 2.7 C 5.36 g/m*3 0.94 C 6.4 km/h
Sensor: Nr:Datum:Temp:Abs-Feuchte:Windchill:Wind:
Aussen-T/F 1876 07-01-2015 20:50:00 2.7 C 5.36 g/m*3 0.94 C 6.4 km/h
1877 07-01-2015 20:55:00 2.7 C 5.36 g/m*3 2.7 C 3.2 km/h
1878 07-01-2015 21:00:00 2.7 C 5.36 g/m*3 2.7 C 1.6 km/h
1879 07-01-2015 21:05:00 2.7 C 5.36 g/m*3 2.7 C 1.6 km/h
1880 07-01-2015 21:10:00 2.7 C 5.36 g/m*3 2.7 C 3.2 km/h
1881 07-01-2015 21:15:00 2.6 C 5.32 g/m*3 2.6 C 3.2 km/h
1882 07-01-2015 21:20:00 2.6 C 5.32 g/m*3 2.6 C 3.2 km/h
1883 07-01-2015 21:25:00 2.6 C 5.27 g/m*3 2.6 C 3.2 km/h
1884 07-01-2015 21:30:00 2.6 C 5.32 g/m*3 2.6 C 0 km/h
1885 07-01-2015 21:35:00 2.6 C 5.32 g/m*3 2.6 C 1.6 km/h
1886 07-01-2015 21:40:00 2.6 C 5.32 g/m*3 2.6 C 1.6 km/h
1887 07-01-2015 21:45:00 2.5 C 5.29 g/m*3 2.5 C 0 km/h
1888 07-01-2015 21:50:00 2.4 C 5.25 g/m*3 2.4 C 0 km/h
1889 07-01-2015 21:55:00 2.4 C 5.31 g/m*3 2.4 C 0 km/h
1890 07-01-2015 22:00:00 2.4 C 5.31 g/m*3 2.4 C 0 km/h
1891 07-01-2015 22:05:00 2.4 C 5.31 g/m*3 2.4 C 0 km/h
1892 07-01-2015 22:10:00 2.4 C 5.31 g/m*3 2.4 C 0 km/h
1893 07-01-2015 22:15:00 2.4 C 5.31 g/m*3 2.4 C 0 km/h
1894 07-01-2015 22:20:00 2.4 C 5.31 g/m*3 2.4 C 1.6 km/h
1895 07-01-2015 22:25:00 2.4 C 5.25 g/m*3 2.4 C 1.6 km/h
1896 07-01-2015 22:30:00 2.4 C 5.25 g/m*3 0.59 C 6.4 km/h
1897 07-01-2015 22:35:00 2.4 C 5.2 g/m*3 2.4 C 3.2 km/h
1898 07-01-2015 22:40:00 2.6 C 5.21 g/m*3 2.6 C 4.8 km/h
1899 07-01-2015 22:45:00 2.6 C 5.15 g/m*3 2.6 C 3.2 km/h
1900 07-01-2015 22:50:00 2.6 C 5.15 g/m*3 2.6 C 3.2 km/h
Sensor: Nr:Datum:Temp:Abs-Feuchte:Windchill:Wind:
Aussen-T/F 1901 07-01-2015 22:55:00 2.7 C 5.19 g/m*3 2.7 C 1.6 km/h
1902 07-01-2015 23:00:00 2.7 C 5.19 g/m*3 0.4 C 8.1 km/h
1903 07-01-2015 23:05:00 2.7 C 5.13 g/m*3 0.94 C 6.4 km/h
1904 07-01-2015 23:10:00 2.8 C 5.16 g/m*3 2.8 C 3.2 km/h
1905 07-01-2015 23:15:00 2.8 C 5.16 g/m*3 2.8 C 0 km/h
1906 07-01-2015 23:20:00 2.8 C 5.16 g/m*3 0.52 C 8.1 km/h
1907 07-01-2015 23:25:00 2.8 C 5.16 g/m*3 2.8 C 3.2 km/h
1908 07-01-2015 23:30:00 2.8 C 5.16 g/m*3 2.8 C 0 km/h
1909 07-01-2015 23:35:00 2.8 C 5.16 g/m*3 2.8 C 3.2 km/h
1910 07-01-2015 23:40:00 2.9 C 5.2 g/m*3 2.9 C 3.2 km/h
1911 07-01-2015 23:45:00 2.9 C 5.2 g/m*3 2.9 C 0 km/h
1912 07-01-2015 23:50:00 2.9 C 5.26 g/m*3 2.9 C 0 km/h
1913 07-01-2015 23:55:00 2.8 C 5.22 g/m*3 2.8 C 0 km/h
1914 08-01-2015 00:00:00 2.8 C 5.28 g/m*3 2.8 C 0 km/h
1915 08-01-2015 00:05:00 2.7 C 5.3 g/m*3 2.7 C 3.2 km/h
1916 08-01-2015 00:10:00 2.6 C 5.27 g/m*3 2.6 C 0 km/h
1917 08-01-2015 00:15:00 2.6 C 5.32 g/m*3 2.6 C 0 km/h
1918 08-01-2015 00:20:00 2.6 C 5.32 g/m*3 2.6 C 0 km/h
1919 08-01-2015 00:25:00 2.6 C 5.32 g/m*3 2.6 C 1.6 km/h
1920 08-01-2015 00:30:00 2.6 C 5.32 g/m*3 2.6 C 1.6 km/h
1921 08-01-2015 00:35:00 2.6 C 5.32 g/m*3 2.6 C 0 km/h
1922 08-01-2015 00:40:00 2.6 C 5.38 g/m*3 2.6 C 1.6 km/h
1923 08-01-2015 00:45:00 2.6 C 5.38 g/m*3 2.6 C 1.6 km/h
1924 08-01-2015 00:50:00 2.6 C 5.38 g/m*3 2.6 C 0 km/h
1925 08-01-2015 00:55:00 2.6 C 5.38 g/m*3 2.6 C 1.6 km/h
Sensor: Nr:Datum:Temp:Abs-Feuchte:Windchill:Wind:
Aussen-T/F 1926 08-01-2015 01:00:00 2.6 C 5.38 g/m*3 2.6 C 0 km/h
1927 08-01-2015 01:05:00 2.6 C 5.38 g/m*3 2.6 C 0 km/h
1928 08-01-2015 01:10:00 2.6 C 5.44 g/m*3 2.6 C 0 km/h
1929 08-01-2015 01:15:00 2.6 C 5.44 g/m*3 2.6 C 0 km/h
1930 08-01-2015 01:20:00 2.6 C 5.44 g/m*3 2.6 C 0 km/h
1931 08-01-2015 01:25:00 2.6 C 5.44 g/m*3 2.6 C 0 km/h
1932 08-01-2015 01:30:00 2.6 C 5.44 g/m*3 2.6 C 1.6 km/h
1933 08-01-2015 01:35:00 2.6 C 5.44 g/m*3 2.6 C 0 km/h
1934 08-01-2015 01:40:00 2.6 C 5.44 g/m*3 2.6 C 0 km/h
1935 08-01-2015 01:45:00 2.7 C 5.48 g/m*3 2.7 C 0 km/h
1936 08-01-2015 01:50:00 2.7 C 5.48 g/m*3 2.7 C 0 km/h
1937 08-01-2015 01:55:00 2.7 C 5.48 g/m*3 2.7 C 0 km/h
1938 08-01-2015 02:00:00 2.6 C 5.44 g/m*3 2.6 C 0 km/h
1939 08-01-2015 02:05:00 2.7 C 5.48 g/m*3 2.7 C 0 km/h
1940 08-01-2015 02:10:00 2.7 C 5.48 g/m*3 2.7 C 0 km/h
1941 08-01-2015 02:15:00 2.7 C 5.48 g/m*3 2.7 C 0 km/h
1942 08-01-2015 02:20:00 2.7 C 5.48 g/m*3 2.7 C 0 km/h
1943 08-01-2015 02:25:00 2.7 C 5.48 g/m*3 2.7 C 0 km/h
1944 08-01-2015 02:30:00 2.7 C 5.48 g/m*3 2.7 C 0 km/h
1945 08-01-2015 02:35:00 2.8 C 5.51 g/m*3 2.8 C 0 km/h
1946 08-01-2015 02:40:00 2.8 C 5.51 g/m*3 2.8 C 1.6 km/h
1947 08-01-2015 02:45:00 2.9 C 5.55 g/m*3 2.9 C 0 km/h
1948 08-01-2015 02:50:00 2.9 C 5.55 g/m*3 2.9 C 0 km/h
1949 08-01-2015 02:55:00 3.2 C 5.66 g/m*3 1.51 C 6.4 km/h
1950 08-01-2015 03:00:00 3.4 C 5.74 g/m*3 0.82 C 9.7 km/h
Sensor: Nr:Datum:Temp:Abs-Feuchte:Windchill:Wind:
Aussen-T/F 1951 08-01-2015 03:05:00 3.8 C 5.9 g/m*3 0.35 C 14.5 km/h
1952 08-01-2015 03:10:00 4 C 5.98 g/m*3 2.44 C 6.4 km/h
1953 08-01-2015 03:15:00 4.2 C 5.99 g/m*3 1.43 C 11.3 km/h
1954 08-01-2015 03:20:00 4.2 C 5.93 g/m*3 2.17 C 8.1 km/h
1955 08-01-2015 03:25:00 4.3 C 5.97 g/m*3 1.24 C 12.9 km/h
1956 08-01-2015 03:30:00 4.4 C 6.01 g/m*3 2.01 C 9.7 km/h
1957 08-01-2015 03:35:00 4.5 C 6.05 g/m*3 1.48 C 12.9 km/h
1958 08-01-2015 03:40:00 4.6 C 6.02 g/m*3 3.13 C 6.4 km/h
1959 08-01-2015 03:45:00 4.7 C 6.06 g/m*3 2.37 C 9.7 km/h
1960 08-01-2015 03:50:00 4.7 C 6.06 g/m*3 4.7 C 4.8 km/h
1961 08-01-2015 03:55:00 4.6 C 6.02 g/m*3 3.13 C 6.4 km/h
1962 08-01-2015 04:00:00 4.6 C 6.09 g/m*3 4.6 C 4.8 km/h
1963 08-01-2015 04:05:00 4.5 C 6.05 g/m*3 4.5 C 4.8 km/h
1964 08-01-2015 04:10:00 4.4 C 6.07 g/m*3 4.4 C 4.8 km/h
1965 08-01-2015 04:15:00 4.4 C 6.14 g/m*3 4.4 C 4.8 km/h
1966 08-01-2015 04:20:00 4.5 C 6.18 g/m*3 4.5 C 4.8 km/h
1967 08-01-2015 04:25:00 4.5 C 6.18 g/m*3 4.5 C 0 km/h
1968 08-01-2015 04:30:00 4.4 C 6.14 g/m*3 4.4 C 4.8 km/h
1969 08-01-2015 04:35:00 4.3 C 6.16 g/m*3 4.3 C 0 km/h
1970 08-01-2015 04:40:00 4.2 C 6.12 g/m*3 4.2 C 4.8 km/h
1971 08-01-2015 04:45:00 4.2 C 6.12 g/m*3 4.2 C 3.2 km/h
1972 08-01-2015 04:50:00 4.2 C 6.19 g/m*3 4.2 C 3.2 km/h
1973 08-01-2015 04:55:00 4.2 C 6.19 g/m*3 4.2 C 3.2 km/h
1974 08-01-2015 05:00:00 4.2 C 6.19 g/m*3 4.2 C 1.6 km/h
1975 08-01-2015 05:05:00 4.3 C 6.23 g/m*3 4.3 C 1.6 km/h
Sensor: Nr:Datum:Temp:Abs-Feuchte:Windchill:Wind:
Aussen-T/F 1976 08-01-2015 05:10:00 4.3 C 6.23 g/m*3 4.3 C 0 km/h
1977 08-01-2015 05:15:00 4.2 C 6.19 g/m*3 4.2 C 0 km/h
1978 08-01-2015 05:20:00 4.2 C 6.19 g/m*3 4.2 C 1.6 km/h
1979 08-01-2015 05:25:00 4.3 C 6.23 g/m*3 4.3 C 3.2 km/h
1980 08-01-2015 05:30:00 4.3 C 6.23 g/m*3 4.3 C 1.6 km/h
1981 08-01-2015 05:35:00 4.3 C 6.23 g/m*3 4.3 C 1.6 km/h
1982 08-01-2015 05:40:00 4.3 C 6.29 g/m*3 4.3 C 3.2 km/h
1983 08-01-2015 05:45:00 4.3 C 6.23 g/m*3 4.3 C 4.8 km/h
1984 08-01-2015 05:50:00 4.3 C 6.23 g/m*3 4.3 C 1.6 km/h
1985 08-01-2015 05:55:00 4.3 C 6.23 g/m*3 4.3 C 0 km/h
1986 08-01-2015 06:00:00 4.3 C 6.23 g/m*3 4.3 C 3.2 km/h
1987 08-01-2015 06:05:00 4.3 C 6.29 g/m*3 4.3 C 1.6 km/h
1988 08-01-2015 06:10:00 4.3 C 6.29 g/m*3 4.3 C 0 km/h
1989 08-01-2015 06:15:00 4.2 C 6.25 g/m*3 4.2 C 1.6 km/h
1990 08-01-2015 06:20:00 4.3 C 6.29 g/m*3 4.3 C 1.6 km/h
1991 08-01-2015 06:25:00 4.3 C 6.29 g/m*3 4.3 C 0 km/h
1992 08-01-2015 06:30:00 4.3 C 6.29 g/m*3 4.3 C 3.2 km/h
1993 08-01-2015 06:35:00 4.3 C 6.29 g/m*3 4.3 C 1.6 km/h
1994 08-01-2015 06:40:00 4.2 C 6.25 g/m*3 4.2 C 1.6 km/h
1995 08-01-2015 06:45:00 4.3 C 6.29 g/m*3 4.3 C 0 km/h
1996 08-01-2015 06:50:00 4.3 C 6.29 g/m*3 4.3 C 0 km/h
1997 08-01-2015 06:55:00 4.3 C 6.29 g/m*3 4.3 C 0 km/h
1998 08-01-2015 07:00:00 4.3 C 6.29 g/m*3 4.3 C 1.6 km/h
1999 08-01-2015 07:05:00 4.4 C 6.33 g/m*3 4.4 C 1.6 km/h
2000 08-01-2015 07:10:00 4.4 C 6.33 g/m*3 4.4 C 4.8 km/h
Sensor: Nr:Datum:Temp:Abs-Feuchte:Windchill:Wind:
Aussen-T/F 2001 08-01-2015 07:15:00 4.5 C 6.38 g/m*3 4.5 C 3.2 km/h
2002 08-01-2015 07:20:00 4.7 C 6.53 g/m*3 2.03 C 11.3 km/h
2003 08-01-2015 07:25:00 4.9 C 6.62 g/m*3 2.99 C 8.1 km/h
2004 08-01-2015 07:30:00 5.1 C 6.7 g/m*3 5.1 C 3.2 km/h
2005 08-01-2015 07:35:00 5.2 C 6.68 g/m*3 3.34 C 8.1 km/h
2006 08-01-2015 07:40:00 5.3 C 6.72 g/m*3 2.46 C 12.9 km/h
2007 08-01-2015 07:45:00 5.4 C 6.77 g/m*3 2.08 C 16.1 km/h
2008 08-01-2015 07:50:00 5.6 C 6.86 g/m*3 2.33 C 16.1 km/h
2009 08-01-2015 07:55:00 5.6 C 6.79 g/m*3 2.11 C 17.7 km/h
2010 08-01-2015 08:00:00 5.7 C 6.83 g/m*3 3.93 C 8.1 km/h
2011 08-01-2015 08:05:00 5.6 C 6.79 g/m*3 5.6 C 4.8 km/h
2012 08-01-2015 08:10:00 5.6 C 6.79 g/m*3 3.81 C 8.1 km/h
2013 08-01-2015 08:15:00 5.7 C 6.83 g/m*3 3.56 C 9.7 km/h
2014 08-01-2015 08:20:00 5.7 C 6.83 g/m*3 3.93 C 8.1 km/h
2015 08-01-2015 08:25:00 5.7 C 6.83 g/m*3 4.4 C 6.4 km/h
2016 08-01-2015 08:30:00 5.7 C 6.83 g/m*3 5.7 C 4.8 km/h
2017 08-01-2015 08:35:00 5.6 C 6.79 g/m*3 5.6 C 1.6 km/h
2018 08-01-2015 08:40:00 5.6 C 6.79 g/m*3 5.6 C 1.6 km/h
2019 08-01-2015 08:45:00 5.6 C 6.79 g/m*3 5.6 C 0 km/h
2020 08-01-2015 08:50:00 5.6 C 6.79 g/m*3 5.6 C 4.8 km/h
2021 08-01-2015 08:55:00 5.5 C 6.74 g/m*3 5.5 C 3.2 km/h
2022 08-01-2015 09:00:00 5.4 C 6.77 g/m*3 5.4 C 3.2 km/h
2023 08-01-2015 09:05:00 5.4 C 6.77 g/m*3 5.4 C 3.2 km/h
2024 08-01-2015 09:10:00 5.5 C 6.81 g/m*3 5.5 C 0 km/h
2025 08-01-2015 09:15:00 5.5 C 6.81 g/m*3 5.5 C 1.6 km/h
Sensor: Nr:Datum:Temp:Abs-Feuchte:Windchill:Wind:
Aussen-T/F 2026 08-01-2015 09:20:00 5.5 C 6.81 g/m*3 5.5 C 0 km/h
2027 08-01-2015 09:25:00 5.5 C 6.81 g/m*3 5.5 C 0 km/h
2028 08-01-2015 09:30:00 5.6 C 6.86 g/m*3 5.6 C 0 km/h
2029 08-01-2015 09:35:00 5.6 C 6.86 g/m*3 5.6 C 3.2 km/h
2030 08-01-2015 09:40:00 5.6 C 6.86 g/m*3 5.6 C 1.6 km/h
2031 08-01-2015 09:45:00 5.7 C 6.97 g/m*3 5.7 C 1.6 km/h
2032 08-01-2015 09:50:00 5.8 C 7.02 g/m*3 5.8 C 3.2 km/h
2033 08-01-2015 09:55:00 5.9 C 7.07 g/m*3 5.9 C 1.6 km/h
2034 08-01-2015 10:00:00 6 C 7.11 g/m*3 6 C 3.2 km/h
2035 08-01-2015 10:05:00 6.1 C 7.16 g/m*3 6.1 C 3.2 km/h
2036 08-01-2015 10:10:00 6.1 C 7.16 g/m*3 6.1 C 4.8 km/h
2037 08-01-2015 10:15:00 6.2 C 7.21 g/m*3 6.2 C 1.6 km/h
2038 08-01-2015 10:20:00 6.3 C 7.25 g/m*3 6.3 C 0 km/h
2039 08-01-2015 10:25:00 6.4 C 7.3 g/m*3 6.4 C 3.2 km/h
2040 08-01-2015 10:30:00 6.4 C 7.3 g/m*3 6.4 C 0 km/h
2041 08-01-2015 10:35:00 6.6 C 7.4 g/m*3 6.6 C 4.8 km/h
2042 08-01-2015 10:40:00 6.7 C 7.45 g/m*3 5.56 C 6.4 km/h
2043 08-01-2015 10:45:00 6.8 C 7.5 g/m*3 6.8 C 1.6 km/h
2044 08-01-2015 10:50:00 6.8 C 7.42 g/m*3 5.67 C 6.4 km/h
2045 08-01-2015 10:55:00 6.9 C 7.47 g/m*3 4.68 C 11.3 km/h
2046 08-01-2015 11:00:00 7.1 C 7.57 g/m*3 7.1 C 3.2 km/h
2047 08-01-2015 11:05:00 7.1 C 7.57 g/m*3 7.1 C 4.8 km/h
2048 08-01-2015 11:10:00 7.2 C 7.61 g/m*3 7.2 C 4.8 km/h
2049 08-01-2015 11:15:00 7.2 C 7.61 g/m*3 7.2 C 4.8 km/h
2050 08-01-2015 11:20:00 7.3 C 7.58 g/m*3 5.47 C 9.7 km/h
Sensor: Nr:Datum:Temp:Abs-Feuchte:Windchill:Wind:
Aussen-T/F 2051 08-01-2015 11:25:00 7.4 C 7.63 g/m*3 5.93 C 8.1 km/h
2052 08-01-2015 11:30:00 7.6 C 7.65 g/m*3 5.82 C 9.7 km/h
2053 08-01-2015 11:35:00 7.7 C 7.7 g/m*3 6.28 C 8.1 km/h
2054 08-01-2015 11:40:00 7.7 C 7.7 g/m*3 6.71 C 6.4 km/h
2055 08-01-2015 11:45:00 7.8 C 7.75 g/m*3 6.06 C 9.7 km/h
2056 08-01-2015 11:50:00 7.9 C 7.8 g/m*3 6.18 C 9.7 km/h
2057 08-01-2015 11:55:00 8 C 7.85 g/m*3 6.3 C 9.7 km/h
2058 08-01-2015 12:00:00 8.1 C 7.82 g/m*3 8.1 C 3.2 km/h
2059 08-01-2015 12:05:00 8.1 C 7.82 g/m*3 8.1 C 3.2 km/h
2060 08-01-2015 12:10:00 8.1 C 7.82 g/m*3 6.75 C 8.1 km/h
2061 08-01-2015 12:15:00 8.1 C 7.82 g/m*3 6.75 C 8.1 km/h
2062 08-01-2015 12:20:00 8.2 C 7.87 g/m*3 6.87 C 8.1 km/h
2063 08-01-2015 12:25:00 8.2 C 7.87 g/m*3 6.87 C 8.1 km/h
2064 08-01-2015 12:30:00 8.3 C 7.92 g/m*3 7.41 C 6.4 km/h
2065 08-01-2015 12:35:00 8.4 C 7.89 g/m*3 6.49 C 11.3 km/h
2066 08-01-2015 12:40:00 8.6 C 7.99 g/m*3 6.48 C 12.9 km/h
2067 08-01-2015 12:45:00 8.7 C 7.96 g/m*3 7.46 C 8.1 km/h
2068 08-01-2015 12:50:00 8.8 C 8.01 g/m*3 7.58 C 8.1 km/h
2069 08-01-2015 12:55:00 8.9 C 8.06 g/m*3 6.85 C 12.9 km/h
2070 08-01-2015 13:00:00 8.9 C 8.06 g/m*3 6.42 C 16.1 km/h
2071 08-01-2015 13:05:00 8.9 C 8.06 g/m*3 6.42 C 16.1 km/h
2072 08-01-2015 13:10:00 8.9 C 8.06 g/m*3 6.23 C 17.7 km/h
2073 08-01-2015 13:15:00 8.9 C 8.06 g/m*3 5.6 C 24.1 km/h
2074 08-01-2015 13:20:00 9 C 8.11 g/m*3 5.6 C 25.7 km/h
2075 08-01-2015 13:25:00 9 C 8.11 g/m*3 5.73 C 24.1 km/h
Sensor: Nr:Datum:Temp:Abs-Feuchte:Windchill:Wind:
Aussen-T/F 2076 08-01-2015 13:30:00 9.1 C 8.16 g/m*3 6.15 C 20.9 km/h
2077 08-01-2015 13:35:00 9.1 C 8.16 g/m*3 5.73 C 25.7 km/h
2078 08-01-2015 13:40:00 9.2 C 8.13 g/m*3 6.13 C 22.5 km/h
2079 08-01-2015 13:45:00 9.2 C 8.13 g/m*3 5.86 C 25.7 km/h
2080 08-01-2015 13:50:00 9.3 C 8.18 g/m*3 6.12 C 24.1 km/h
2081 08-01-2015 13:55:00 9.3 C 8.18 g/m*3 5.98 C 25.7 km/h
2082 08-01-2015 14:00:00 9.2 C 8.22 g/m*3 7.21 C 12.9 km/h
2083 08-01-2015 14:05:00 9.2 C 8.22 g/m*3 6.61 C 17.7 km/h
2084 08-01-2015 14:10:00 9.2 C 8.13 g/m*3 5.86 C 25.7 km/h
2085 08-01-2015 14:15:00 9.3 C 8.18 g/m*3 6.73 C 17.7 km/h
2086 08-01-2015 14:20:00 9.3 C 8.18 g/m*3 6.92 C 16.1 km/h
2087 08-01-2015 14:25:00 9.4 C 8.23 g/m*3 7.04 C 16.1 km/h
2088 08-01-2015 14:30:00 9.4 C 8.23 g/m*3 6.11 C 25.7 km/h
2089 08-01-2015 14:35:00 9.5 C 8.28 g/m*3 6.82 C 19.3 km/h
2090 08-01-2015 14:40:00 9.6 C 8.34 g/m*3 6.94 C 19.3 km/h
2091 08-01-2015 14:45:00 9.6 C 8.24 g/m*3 6.79 C 20.9 km/h
2092 08-01-2015 14:50:00 9.6 C 8.24 g/m*3 7.48 C 14.5 km/h
2093 08-01-2015 14:55:00 9.7 C 8.3 g/m*3 7.23 C 17.7 km/h
2094 08-01-2015 15:00:00 9.7 C 8.3 g/m*3 7.41 C 16.1 km/h
2095 08-01-2015 15:05:00 9.8 C 8.35 g/m*3 7.19 C 19.3 km/h
2096 08-01-2015 15:10:00 9.8 C 8.35 g/m*3 7.36 C 17.7 km/h
2097 08-01-2015 15:15:00 9.7 C 8.39 g/m*3 9.02 C 6.4 km/h
2098 08-01-2015 15:20:00 9.6 C 8.34 g/m*3 7.7 C 12.9 km/h
2099 08-01-2015 15:25:00 9.5 C 8.37 g/m*3 8.4 C 8.1 km/h
2100 08-01-2015 15:30:00 9.5 C 8.37 g/m*3 8.09 C 9.7 km/h
Sensor: Nr:Datum:Temp:Abs-Feuchte:Windchill:Wind:
Aussen-T/F 2101 08-01-2015 15:35:00 9.6 C 8.34 g/m*3 7.29 C 16.1 km/h
2102 08-01-2015 15:40:00 9.7 C 8.39 g/m*3 8.33 C 9.7 km/h
2103 08-01-2015 15:45:00 9.7 C 8.39 g/m*3 6.5 C 25.7 km/h
2104 08-01-2015 15:50:00 9.8 C 8.35 g/m*3 6.89 C 22.5 km/h
2105 08-01-2015 15:55:00 9.8 C 8.35 g/m*3 7.54 C 16.1 km/h
2106 08-01-2015 16:00:00 9.8 C 8.35 g/m*3 7.73 C 14.5 km/h
2107 08-01-2015 16:05:00 9.8 C 8.26 g/m*3 6.17 C 32.2 km/h
2108 08-01-2015 16:10:00 9.9 C 8.31 g/m*3 7.02 C 22.5 km/h
2109 08-01-2015 16:15:00 9.9 C 8.31 g/m*3 7.66 C 16.1 km/h
2110 08-01-2015 16:20:00 9.9 C 8.31 g/m*3 7.48 C 17.7 km/h
2111 08-01-2015 16:25:00 9.8 C 8.26 g/m*3 7.73 C 14.5 km/h
2112 08-01-2015 16:30:00 9.8 C 8.35 g/m*3 6.27 C 30.6 km/h
2113 08-01-2015 16:35:00 9.8 C 8.35 g/m*3 6.89 C 22.5 km/h
2114 08-01-2015 16:40:00 9.7 C 8.3 g/m*3 7.23 C 17.7 km/h
2115 08-01-2015 16:45:00 9.7 C 8.3 g/m*3 7.41 C 16.1 km/h
2116 08-01-2015 16:50:00 9.7 C 8.3 g/m*3 8.06 C 11.3 km/h
2117 08-01-2015 16:55:00 9.6 C 8.34 g/m*3 7.7 C 12.9 km/h
2118 08-01-2015 17:00:00 9.6 C 8.34 g/m*3 7.48 C 14.5 km/h
2119 08-01-2015 17:05:00 9.6 C 8.34 g/m*3 6.94 C 19.3 km/h
2120 08-01-2015 17:10:00 9.6 C 8.34 g/m*3 7.94 C 11.3 km/h
2121 08-01-2015 17:15:00 9.6 C 8.34 g/m*3 7.11 C 17.7 km/h
2122 08-01-2015 17:20:00 9.6 C 8.34 g/m*3 6.79 C 20.9 km/h
2123 08-01-2015 17:25:00 9.7 C 8.39 g/m*3 7.41 C 16.1 km/h
2124 08-01-2015 17:30:00 9.7 C 8.39 g/m*3 7.41 C 16.1 km/h
2125 08-01-2015 17:35:00 9.7 C 8.39 g/m*3 7.23 C 17.7 km/h
Sensor: Nr:Datum:Temp:Abs-Feuchte:Windchill:Wind:
Aussen-T/F 2126 08-01-2015 17:40:00 9.7 C 8.39 g/m*3 7.61 C 14.5 km/h
2127 08-01-2015 17:45:00 9.7 C 8.39 g/m*3 7.41 C 16.1 km/h
2128 08-01-2015 17:50:00 9.7 C 8.39 g/m*3 7.23 C 17.7 km/h
2129 08-01-2015 17:55:00 9.7 C 8.39 g/m*3 7.82 C 12.9 km/h
2130 08-01-2015 18:00:00 9.8 C 8.44 g/m*3 7.04 C 20.9 km/h
2131 08-01-2015 18:05:00 9.8 C 8.44 g/m*3 7.36 C 17.7 km/h
2132 08-01-2015 18:10:00 9.8 C 8.44 g/m*3 6.89 C 22.5 km/h
2133 08-01-2015 18:15:00 9.8 C 8.44 g/m*3 7.36 C 17.7 km/h
2134 08-01-2015 18:20:00 9.8 C 8.44 g/m*3 7.04 C 20.9 km/h
2135 08-01-2015 18:25:00 9.8 C 8.44 g/m*3 7.19 C 19.3 km/h
2136 08-01-2015 18:30:00 9.8 C 8.44 g/m*3 6.63 C 25.7 km/h
2137 08-01-2015 18:35:00 9.8 C 8.44 g/m*3 6.76 C 24.1 km/h
2138 08-01-2015 18:40:00 9.8 C 8.44 g/m*3 7.19 C 19.3 km/h
2139 08-01-2015 18:45:00 9.7 C 8.48 g/m*3 7.82 C 12.9 km/h
2140 08-01-2015 18:50:00 9.7 C 8.48 g/m*3 7.07 C 19.3 km/h
2141 08-01-2015 18:55:00 9.7 C 8.48 g/m*3 7.07 C 19.3 km/h
2142 08-01-2015 19:00:00 9.6 C 8.43 g/m*3 7.29 C 16.1 km/h
2143 08-01-2015 19:05:00 9.6 C 8.43 g/m*3 5.61 C 37 km/h
2144 08-01-2015 19:10:00 9.6 C 8.34 g/m*3 6.5 C 24.1 km/h
2145 08-01-2015 19:15:00 9.5 C 8.01 g/m*3 6.37 C 24.1 km/h
2146 08-01-2015 19:20:00 9.3 C 7.73 g/m*3 6.92 C 16.1 km/h
2147 08-01-2015 19:25:00 9.1 C 7.54 g/m*3 6.67 C 16.1 km/h
2148 08-01-2015 19:30:00 8.9 C 7.36 g/m*3 5.47 C 25.7 km/h
2149 08-01-2015 19:35:00 8.9 C 7.45 g/m*3 6.85 C 12.9 km/h
2150 08-01-2015 19:40:00 8.8 C 7.31 g/m*3 5.48 C 24.1 km/h
Sensor: Nr:Datum:Temp:Abs-Feuchte:Windchill:Wind:
Aussen-T/F 2151 08-01-2015 19:45:00 8.7 C 7.26 g/m*3 4.62 C 33.8 km/h
2152 08-01-2015 19:50:00 8.5 C 7.26 g/m*3 4.46 C 32.2 km/h
2153 08-01-2015 19:55:00 8.3 C 7.16 g/m*3 4.84 C 24.1 km/h
2154 08-01-2015 20:00:00 8.1 C 7.07 g/m*3 4.58 C 24.1 km/h
2155 08-01-2015 20:05:00 8 C 7.11 g/m*3 6.3 C 9.7 km/h
2156 08-01-2015 20:10:00 7.9 C 7.15 g/m*3 5.39 C 14.5 km/h
2157 08-01-2015 20:15:00 7.8 C 7.1 g/m*3 4.86 C 17.7 km/h
2158 08-01-2015 20:20:00 7.8 C 7.1 g/m*3 5.27 C 14.5 km/h
2159 08-01-2015 20:25:00 7.7 C 7.14 g/m*3 5.38 C 12.9 km/h
2160 08-01-2015 20:30:00 7.7 C 7.14 g/m*3 5.65 C 11.3 km/h
2161 08-01-2015 20:35:00 7.6 C 7.09 g/m*3 4.81 C 16.1 km/h
2162 08-01-2015 20:40:00 7.6 C 7.17 g/m*3 4.61 C 17.7 km/h
2163 08-01-2015 20:45:00 7.5 C 7.12 g/m*3 5.7 C 9.7 km/h
2164 08-01-2015 20:50:00 7.4 C 7.08 g/m*3 5.58 C 9.7 km/h
2165 08-01-2015 20:55:00 7.4 C 7.16 g/m*3 5.02 C 12.9 km/h
2166 08-01-2015 21:00:00 7.4 C 7.16 g/m*3 5.93 C 8.1 km/h
2167 08-01-2015 21:05:00 7.3 C 7.11 g/m*3 4.9 C 12.9 km/h
2168 08-01-2015 21:10:00 7.3 C 7.03 g/m*3 4.9 C 12.9 km/h
2169 08-01-2015 21:15:00 7.3 C 7.03 g/m*3 5.16 C 11.3 km/h
2170 08-01-2015 21:20:00 7.4 C 7.08 g/m*3 5.28 C 11.3 km/h
2171 08-01-2015 21:25:00 7.3 C 7.03 g/m*3 5.47 C 9.7 km/h
2172 08-01-2015 21:30:00 7.3 C 7.03 g/m*3 5.81 C 8.1 km/h
2173 08-01-2015 21:35:00 7.3 C 7.03 g/m*3 6.25 C 6.4 km/h
2174 08-01-2015 21:40:00 7.3 C 7.03 g/m*3 5.16 C 11.3 km/h
2175 08-01-2015 21:45:00 7.3 C 7.03 g/m*3 5.47 C 9.7 km/h
Sensor: Nr:Datum:Temp:Abs-Feuchte:Windchill:Wind:
Aussen-T/F 2176 08-01-2015 21:50:00 7.3 C 7.03 g/m*3 5.16 C 11.3 km/h
2177 08-01-2015 21:55:00 7.3 C 6.95 g/m*3 5.47 C 9.7 km/h
2178 08-01-2015 22:00:00 7.3 C 6.95 g/m*3 4.66 C 14.5 km/h
2179 08-01-2015 22:05:00 7.3 C 6.95 g/m*3 4.9 C 12.9 km/h
2180 08-01-2015 22:10:00 7.2 C 6.99 g/m*3 5.04 C 11.3 km/h
2181 08-01-2015 22:15:00 7.2 C 6.91 g/m*3 4.53 C 14.5 km/h
2182 08-01-2015 22:20:00 7.2 C 6.91 g/m*3 4.53 C 14.5 km/h
2183 08-01-2015 22:25:00 7.2 C 6.91 g/m*3 4.53 C 14.5 km/h
2184 08-01-2015 22:30:00 7.2 C 6.91 g/m*3 5.35 C 9.7 km/h
2185 08-01-2015 22:35:00 7.1 C 6.86 g/m*3 7.1 C 4.8 km/h
2186 08-01-2015 22:40:00 7.1 C 6.86 g/m*3 5.23 C 9.7 km/h
2187 08-01-2015 22:45:00 7.1 C 6.86 g/m*3 4.65 C 12.9 km/h
2188 08-01-2015 22:50:00 7 C 6.82 g/m*3 5.11 C 9.7 km/h
2189 08-01-2015 22:55:00 7 C 6.9 g/m*3 5.46 C 8.1 km/h
2190 08-01-2015 23:00:00 6.9 C 6.85 g/m*3 5.79 C 6.4 km/h
2191 08-01-2015 23:05:00 6.8 C 6.81 g/m*3 5.67 C 6.4 km/h
2192 08-01-2015 23:10:00 6.7 C 6.84 g/m*3 6.7 C 4.8 km/h
2193 08-01-2015 23:15:00 6.6 C 6.79 g/m*3 4.99 C 8.1 km/h
2194 08-01-2015 23:20:00 6.5 C 6.75 g/m*3 5.33 C 6.4 km/h
2195 08-01-2015 23:25:00 6.4 C 6.78 g/m*3 3.8 C 12.9 km/h
2196 08-01-2015 23:30:00 6.5 C 6.82 g/m*3 4.51 C 9.7 km/h
2197 08-01-2015 23:35:00 6.6 C 6.87 g/m*3 4.32 C 11.3 km/h
2198 08-01-2015 23:40:00 6.5 C 6.75 g/m*3 4.51 C 9.7 km/h
2199 08-01-2015 23:45:00 6.5 C 6.82 g/m*3 5.33 C 6.4 km/h
2200 08-01-2015 23:50:00 6.4 C 6.78 g/m*3 6.4 C 4.8 km/h
Sensor: Nr:Datum:Temp:Abs-Feuchte:Windchill:Wind:
Aussen-T/F 2201 08-01-2015 23:55:00 6.5 C 6.75 g/m*3 4.2 C 11.3 km/h
2202 09-01-2015 00:00:00 6.6 C 6.79 g/m*3 4.04 C 12.9 km/h
2203 09-01-2015 00:05:00 6.5 C 6.75 g/m*3 4.87 C 8.1 km/h
2204 09-01-2015 00:10:00 6.6 C 6.79 g/m*3 4.63 C 9.7 km/h
2205 09-01-2015 00:15:00 6.5 C 6.75 g/m*3 5.33 C 6.4 km/h
2206 09-01-2015 00:20:00 6.6 C 6.72 g/m*3 4.63 C 9.7 km/h
2207 09-01-2015 00:25:00 6.5 C 6.67 g/m*3 6.5 C 4.8 km/h
2208 09-01-2015 00:30:00 6.5 C 6.67 g/m*3 5.33 C 6.4 km/h
2209 09-01-2015 00:35:00 6.4 C 6.63 g/m*3 4.39 C 9.7 km/h
2210 09-01-2015 00:40:00 6.5 C 6.67 g/m*3 4.87 C 8.1 km/h
2211 09-01-2015 00:45:00 6.6 C 6.72 g/m*3 4.99 C 8.1 km/h
2212 09-01-2015 00:50:00 6.4 C 6.63 g/m*3 6.4 C 4.8 km/h
2213 09-01-2015 00:55:00 6.3 C 6.66 g/m*3 3.96 C 11.3 km/h
2214 09-01-2015 01:00:00 6.3 C 6.59 g/m*3 5.1 C 6.4 km/h
2215 09-01-2015 01:05:00 6.3 C 6.59 g/m*3 4.64 C 8.1 km/h
2216 09-01-2015 01:10:00 6.2 C 6.62 g/m*3 4.15 C 9.7 km/h
2217 09-01-2015 01:15:00 6.2 C 6.62 g/m*3 3.84 C 11.3 km/h
2218 09-01-2015 01:20:00 6.2 C 6.62 g/m*3 2.86 C 17.7 km/h
2219 09-01-2015 01:25:00 6.3 C 6.66 g/m*3 3.96 C 11.3 km/h
2220 09-01-2015 01:30:00 6.5 C 6.75 g/m*3 4.51 C 9.7 km/h
2221 09-01-2015 01:35:00 6.6 C 6.72 g/m*3 3.17 C 19.3 km/h
2222 09-01-2015 01:40:00 6.7 C 6.76 g/m*3 3.29 C 19.3 km/h
2223 09-01-2015 01:45:00 6.7 C 6.69 g/m*3 4.44 C 11.3 km/h
2224 09-01-2015 01:50:00 6.7 C 6.69 g/m*3 5.11 C 8.1 km/h
2225 09-01-2015 01:55:00 6.7 C 6.69 g/m*3 3.92 C 14.5 km/h
Sensor: Nr:Datum:Temp:Abs-Feuchte:Windchill:Wind:
Aussen-T/F 2226 09-01-2015 02:00:00 6.7 C 6.69 g/m*3 5.11 C 8.1 km/h
2227 09-01-2015 02:05:00 6.7 C 6.69 g/m*3 5.11 C 8.1 km/h
2228 09-01-2015 02:10:00 6.6 C 6.64 g/m*3 5.44 C 6.4 km/h
2229 09-01-2015 02:15:00 6.5 C 6.6 g/m*3 5.33 C 6.4 km/h
2230 09-01-2015 02:20:00 6.3 C 6.59 g/m*3 5.1 C 6.4 km/h
2231 09-01-2015 02:25:00 6.4 C 6.63 g/m*3 5.21 C 6.4 km/h
2232 09-01-2015 02:30:00 6.3 C 6.59 g/m*3 3.43 C 14.5 km/h
2233 09-01-2015 02:35:00 6.3 C 6.59 g/m*3 5.1 C 6.4 km/h
2234 09-01-2015 02:40:00 6.3 C 6.66 g/m*3 5.1 C 6.4 km/h
2235 09-01-2015 02:45:00 6.3 C 6.66 g/m*3 5.1 C 6.4 km/h
2236 09-01-2015 02:50:00 6.3 C 6.66 g/m*3 5.1 C 6.4 km/h
2237 09-01-2015 02:55:00 6.4 C 6.71 g/m*3 5.21 C 6.4 km/h
2238 09-01-2015 03:00:00 6.4 C 6.71 g/m*3 5.21 C 6.4 km/h
2239 09-01-2015 03:05:00 6.7 C 6.76 g/m*3 4.17 C 12.9 km/h
2240 09-01-2015 03:10:00 7 C 6.9 g/m*3 5.46 C 8.1 km/h
2241 09-01-2015 03:15:00 7.2 C 6.83 g/m*3 3.92 C 19.3 km/h
2242 09-01-2015 03:20:00 7.3 C 6.87 g/m*3 4.66 C 14.5 km/h
2243 09-01-2015 03:25:00 7.4 C 6.84 g/m*3 5.02 C 12.9 km/h
2244 09-01-2015 03:30:00 7.4 C 6.84 g/m*3 4.56 C 16.1 km/h
2245 09-01-2015 03:35:00 7.4 C 6.84 g/m*3 4.78 C 14.5 km/h
2246 09-01-2015 03:40:00 7.5 C 6.88 g/m*3 5.41 C 11.3 km/h
2247 09-01-2015 03:45:00 7.5 C 6.88 g/m*3 4.9 C 14.5 km/h
2248 09-01-2015 03:50:00 7.5 C 6.88 g/m*3 6.48 C 6.4 km/h
2249 09-01-2015 03:55:00 7.5 C 6.88 g/m*3 6.48 C 6.4 km/h
2250 09-01-2015 04:00:00 7.4 C 6.92 g/m*3 7.4 C 4.8 km/h
Sensor: Nr:Datum:Temp:Abs-Feuchte:Windchill:Wind:
Aussen-T/F 2251 09-01-2015 04:05:00 7.4 C 6.92 g/m*3 5.93 C 8.1 km/h
2252 09-01-2015 04:10:00 7.4 C 6.92 g/m*3 7.4 C 4.8 km/h
2253 09-01-2015 04:15:00 7.4 C 6.92 g/m*3 6.37 C 6.4 km/h
2254 09-01-2015 04:20:00 7.4 C 6.92 g/m*3 4.36 C 17.7 km/h
2255 09-01-2015 04:25:00 7.5 C 6.96 g/m*3 6.05 C 8.1 km/h
2256 09-01-2015 04:30:00 7.5 C 6.96 g/m*3 6.05 C 8.1 km/h
2257 09-01-2015 04:35:00 7.4 C 6.92 g/m*3 5.93 C 8.1 km/h
2258 09-01-2015 04:40:00 7.4 C 7 g/m*3 7.4 C 4.8 km/h
2259 09-01-2015 04:45:00 7.3 C 7.03 g/m*3 7.3 C 1.6 km/h
2260 09-01-2015 04:50:00 7.2 C 6.99 g/m*3 5.69 C 8.1 km/h
2261 09-01-2015 04:55:00 7.2 C 6.99 g/m*3 7.2 C 1.6 km/h
2262 09-01-2015 05:00:00 7.2 C 6.99 g/m*3 7.2 C 3.2 km/h
2263 09-01-2015 05:05:00 7.2 C 6.99 g/m*3 5.69 C 8.1 km/h
2264 09-01-2015 05:10:00 7.2 C 6.99 g/m*3 5.69 C 8.1 km/h
2265 09-01-2015 05:15:00 7.3 C 6.95 g/m*3 6.25 C 6.4 km/h
2266 09-01-2015 05:20:00 7.4 C 7 g/m*3 7.4 C 4.8 km/h
2267 09-01-2015 05:25:00 7.6 C 7.01 g/m*3 5.26 C 12.9 km/h
2268 09-01-2015 05:30:00 7.6 C 6.93 g/m*3 5.02 C 14.5 km/h
2269 09-01-2015 05:35:00 7.7 C 6.97 g/m*3 6.28 C 8.1 km/h
2270 09-01-2015 05:40:00 7.7 C 6.89 g/m*3 5.15 C 14.5 km/h
2271 09-01-2015 05:45:00 7.8 C 6.94 g/m*3 5.77 C 11.3 km/h
2272 09-01-2015 05:50:00 7.7 C 6.89 g/m*3 5.65 C 11.3 km/h
2273 09-01-2015 05:55:00 7.7 C 6.89 g/m*3 5.94 C 9.7 km/h
2274 09-01-2015 06:00:00 7.7 C 6.89 g/m*3 6.71 C 6.4 km/h
2275 09-01-2015 06:05:00 7.7 C 6.89 g/m*3 4.93 C 16.1 km/h
Sensor: Nr:Datum:Temp:Abs-Feuchte:Windchill:Wind:
Aussen-T/F 2276 09-01-2015 06:10:00 7.8 C 6.86 g/m*3 5.06 C 16.1 km/h
2277 09-01-2015 06:15:00 7.9 C 6.9 g/m*3 4.8 C 19.3 km/h
2278 09-01-2015 06:20:00 8.1 C 6.91 g/m*3 4.58 C 24.1 km/h
2279 09-01-2015 06:25:00 8.1 C 6.91 g/m*3 5.43 C 16.1 km/h
2280 09-01-2015 06:30:00 8.1 C 6.91 g/m*3 4.44 C 25.7 km/h
2281 09-01-2015 06:35:00 8.1 C 6.91 g/m*3 5.05 C 19.3 km/h
2282 09-01-2015 06:40:00 8.2 C 6.95 g/m*3 4.86 C 22.5 km/h
2283 09-01-2015 06:45:00 8.2 C 6.95 g/m*3 5.18 C 19.3 km/h
2284 09-01-2015 06:50:00 8.2 C 6.95 g/m*3 5.01 C 20.9 km/h
2285 09-01-2015 06:55:00 8.2 C 6.95 g/m*3 5.36 C 17.7 km/h
2286 09-01-2015 07:00:00 8.2 C 6.95 g/m*3 5.01 C 20.9 km/h
2287 09-01-2015 07:05:00 8.3 C 6.91 g/m*3 4.98 C 22.5 km/h
2288 09-01-2015 07:10:00 8.3 C 6.91 g/m*3 5.89 C 14.5 km/h
2289 09-01-2015 07:15:00 8.3 C 6.91 g/m*3 6.12 C 12.9 km/h
2290 09-01-2015 07:20:00 8.4 C 6.96 g/m*3 5.8 C 16.1 km/h
2291 09-01-2015 07:25:00 8.4 C 6.96 g/m*3 5.27 C 20.9 km/h
2292 09-01-2015 07:30:00 8.4 C 7.04 g/m*3 5.8 C 16.1 km/h
2293 09-01-2015 07:35:00 8.4 C 7.04 g/m*3 5.61 C 17.7 km/h
2294 09-01-2015 07:40:00 8.4 C 7.04 g/m*3 5.43 C 19.3 km/h
2295 09-01-2015 07:45:00 8.4 C 7.04 g/m*3 6.01 C 14.5 km/h
2296 09-01-2015 07:50:00 8.5 C 7.09 g/m*3 5.73 C 17.7 km/h
2297 09-01-2015 07:55:00 8.6 C 7.13 g/m*3 5.86 C 17.7 km/h
2298 09-01-2015 08:00:00 8.6 C 7.05 g/m*3 5.22 C 24.1 km/h
2299 09-01-2015 08:05:00 8.7 C 7.09 g/m*3 5.98 C 17.7 km/h
2300 09-01-2015 08:10:00 8.7 C 7.09 g/m*3 5.81 C 19.3 km/h
Sensor: Nr:Datum:Temp:Abs-Feuchte:Windchill:Wind:
Aussen-T/F 2301 09-01-2015 08:15:00 8.7 C 7.09 g/m*3 6.17 C 16.1 km/h
2302 09-01-2015 08:20:00 8.7 C 7.09 g/m*3 5.65 C 20.9 km/h
2303 09-01-2015 08:25:00 8.7 C 7.09 g/m*3 5.65 C 20.9 km/h
2304 09-01-2015 08:30:00 8.7 C 7.09 g/m*3 5.81 C 19.3 km/h
2305 09-01-2015 08:35:00 8.7 C 7.09 g/m*3 5.35 C 24.1 km/h
2306 09-01-2015 08:40:00 8.8 C 7.14 g/m*3 5.77 C 20.9 km/h
2307 09-01-2015 08:45:00 8.8 C 7.14 g/m*3 5.34 C 25.7 km/h
2308 09-01-2015 08:50:00 8.8 C 7.14 g/m*3 5.48 C 24.1 km/h
2309 09-01-2015 08:55:00 8.9 C 7.18 g/m*3 7.09 C 11.3 km/h
2310 09-01-2015 09:00:00 8.9 C 7.18 g/m*3 5.75 C 22.5 km/h
2311 09-01-2015 09:05:00 9 C 7.14 g/m*3 5.34 C 29 km/h
2312 09-01-2015 09:10:00 9.1 C 7.19 g/m*3 5.86 C 24.1 km/h
2313 09-01-2015 09:15:00 9.1 C 7.19 g/m*3 5.86 C 24.1 km/h
2314 09-01-2015 09:20:00 9.1 C 7.19 g/m*3 6.67 C 16.1 km/h
2315 09-01-2015 09:25:00 9.1 C 7.28 g/m*3 6.15 C 20.9 km/h
2316 09-01-2015 09:30:00 9.1 C 7.28 g/m*3 6.87 C 14.5 km/h
2317 09-01-2015 09:35:00 9.1 C 7.28 g/m*3 5.25 C 32.2 km/h
2318 09-01-2015 09:40:00 9.1 C 7.28 g/m*3 7.33 C 11.3 km/h
2319 09-01-2015 09:45:00 9.1 C 7.28 g/m*3 6.67 C 16.1 km/h
2320 09-01-2015 09:50:00 9.1 C 7.28 g/m*3 5.86 C 24.1 km/h
2321 09-01-2015 09:55:00 9.1 C 7.28 g/m*3 6.48 C 17.7 km/h
2322 09-01-2015 10:00:00 9 C 7.32 g/m*3 6.03 C 20.9 km/h
2323 09-01-2015 10:05:00 9 C 7.32 g/m*3 6.36 C 17.7 km/h
2324 09-01-2015 10:10:00 9 C 7.32 g/m*3 6.36 C 17.7 km/h
2325 09-01-2015 10:15:00 9 C 7.32 g/m*3 5.6 C 25.7 km/h
Sensor: Nr:Datum:Temp:Abs-Feuchte:Windchill:Wind:
Aussen-T/F 2326 09-01-2015 10:20:00 8.9 C 7.36 g/m*3 6.62 C 14.5 km/h
2327 09-01-2015 10:25:00 8.9 C 7.36 g/m*3 6.42 C 16.1 km/h
2328 09-01-2015 10:30:00 8.8 C 7.31 g/m*3 6.3 C 16.1 km/h
2329 09-01-2015 10:35:00 8.9 C 7.36 g/m*3 5.21 C 29 km/h
2330 09-01-2015 10:40:00 8.9 C 7.36 g/m*3 5.75 C 22.5 km/h
2331 09-01-2015 10:45:00 8.9 C 7.36 g/m*3 5.1 C 30.6 km/h
2332 09-01-2015 10:50:00 8.9 C 7.36 g/m*3 5.9 C 20.9 km/h
2333 09-01-2015 10:55:00 8.9 C 7.36 g/m*3 5.33 C 27.4 km/h
2334 09-01-2015 11:00:00 9 C 7.41 g/m*3 5.87 C 22.5 km/h
2335 09-01-2015 11:05:00 9.1 C 7.45 g/m*3 6 C 22.5 km/h
2336 09-01-2015 11:10:00 9.1 C 7.36 g/m*3 5.25 C 32.2 km/h
2337 09-01-2015 11:15:00 9.1 C 7.45 g/m*3 5.47 C 29 km/h
2338 09-01-2015 11:20:00 9.1 C 7.45 g/m*3 5.59 C 27.4 km/h
2339 09-01-2015 11:25:00 9.2 C 7.5 g/m*3 5.27 C 33.8 km/h
2340 09-01-2015 11:30:00 9.2 C 7.5 g/m*3 6.44 C 19.3 km/h
2341 09-01-2015 11:35:00 9.2 C 7.5 g/m*3 6.28 C 20.9 km/h
2342 09-01-2015 11:40:00 9.2 C 7.5 g/m*3 5.6 C 29 km/h
2343 09-01-2015 11:45:00 9.2 C 7.5 g/m*3 5.6 C 29 km/h
2344 09-01-2015 11:50:00 9.2 C 7.59 g/m*3 5.17 C 35.4 km/h
2345 09-01-2015 11:55:00 9.3 C 7.64 g/m*3 5.98 C 25.7 km/h
2346 09-01-2015 12:00:00 9.3 C 7.64 g/m*3 5.41 C 33.8 km/h
2347 09-01-2015 12:05:00 9.3 C 7.64 g/m*3 5.73 C 29 km/h
2348 09-01-2015 12:10:00 9.3 C 7.64 g/m*3 5.98 C 25.7 km/h
2349 09-01-2015 12:15:00 9.3 C 7.64 g/m*3 5.62 C 30.6 km/h
2350 09-01-2015 12:20:00 9.3 C 7.64 g/m*3 5.12 C 38.6 km/h
Sensor: Nr:Datum:Temp:Abs-Feuchte:Windchill:Wind:
Aussen-T/F 2351 09-01-2015 12:25:00 9.3 C 7.73 g/m*3 5.03 C 40.2 km/h
2352 09-01-2015 12:30:00 9.3 C 7.73 g/m*3 5.98 C 25.7 km/h
2353 09-01-2015 12:35:00 9.4 C 7.78 g/m*3 5.86 C 29 km/h
2354 09-01-2015 12:40:00 9.4 C 7.78 g/m*3 6.38 C 22.5 km/h
2355 09-01-2015 12:45:00 9.4 C 7.78 g/m*3 6.38 C 22.5 km/h
2356 09-01-2015 12:50:00 9.4 C 7.78 g/m*3 6.25 C 24.1 km/h
2357 09-01-2015 12:55:00 9.4 C 7.78 g/m*3 5.98 C 27.4 km/h
2358 09-01-2015 13:00:00 9.5 C 7.83 g/m*3 5.57 C 35.4 km/h
2359 09-01-2015 13:05:00 9.6 C 7.97 g/m*3 6.5 C 24.1 km/h
2360 09-01-2015 13:10:00 9.6 C 7.97 g/m*3 5.8 C 33.8 km/h
2361 09-01-2015 13:15:00 9.6 C 7.97 g/m*3 6.5 C 24.1 km/h
2362 09-01-2015 13:20:00 9.7 C 7.93 g/m*3 5.93 C 33.8 km/h
2363 09-01-2015 13:25:00 9.7 C 8.02 g/m*3 5.93 C 33.8 km/h
2364 09-01-2015 13:30:00 9.7 C 8.02 g/m*3 6.25 C 29 km/h
2365 09-01-2015 13:35:00 9.7 C 8.02 g/m*3 6.77 C 22.5 km/h
2366 09-01-2015 13:40:00 9.8 C 8.07 g/m*3 6.89 C 22.5 km/h
2367 09-01-2015 13:45:00 9.8 C 8.07 g/m*3 6.38 C 29 km/h
2368 09-01-2015 13:50:00 9.8 C 8.07 g/m*3 6.5 C 27.4 km/h
2369 09-01-2015 13:55:00 9.9 C 8.12 g/m*3 6.89 C 24.1 km/h
2370 09-01-2015 14:00:00 9.9 C 8.12 g/m*3 7.16 C 20.9 km/h
2371 09-01-2015 14:05:00 10.1 C 8.23 g/m*3 6.77 C 29 km/h
2372 09-01-2015 14:10:00 10.1 C 8.23 g/m*3 7.28 C 22.5 km/h
2373 09-01-2015 14:15:00 10.2 C 8.28 g/m*3 7.4 C 22.5 km/h
2374 09-01-2015 14:20:00 10.2 C 8.28 g/m*3 6.8 C 30.6 km/h
2375 09-01-2015 14:25:00 10.3 C 8.33 g/m*3 6.93 C 30.6 km/h
Sensor: Nr:Datum:Temp:Abs-Feuchte:Windchill:Wind:
Aussen-T/F 2376 09-01-2015 14:30:00 10.3 C 8.33 g/m*3 7.98 C 17.7 km/h
2377 09-01-2015 14:35:00 10.4 C 8.38 g/m*3 7.53 C 24.1 km/h
2378 09-01-2015 14:40:00 10.5 C 8.44 g/m*3 6.99 C 33.8 km/h
2379 09-01-2015 14:45:00 10.6 C 8.49 g/m*3 8.05 C 20.9 km/h
2380 09-01-2015 14:50:00 10.6 C 8.49 g/m*3 7.54 C 27.4 km/h
2381 09-01-2015 14:55:00 10.8 C 8.5 g/m*3 8.17 C 22.5 km/h
2382 09-01-2015 15:00:00 10.8 C 8.5 g/m*3 8.04 C 24.1 km/h
2383 09-01-2015 15:05:00 10.9 C 8.55 g/m*3 8.43 C 20.9 km/h
2384 09-01-2015 15:10:00 11.1 C 8.66 g/m*3 11.1 C 27.4 km/h
2385 09-01-2015 15:15:00 11.2 C 8.62 g/m*3 11.2 C 27.4 km/h
2386 09-01-2015 15:20:00 11.2 C 8.62 g/m*3 11.2 C 24.1 km/h
2387 09-01-2015 15:25:00 11.3 C 8.67 g/m*3 11.3 C 25.7 km/h
2388 09-01-2015 15:30:00 11.3 C 8.67 g/m*3 11.3 C 16.1 km/h
2389 09-01-2015 15:35:00 11.3 C 8.67 g/m*3 11.3 C 37 km/h
2390 09-01-2015 15:40:00 11.3 C 8.57 g/m*3 11.3 C 19.3 km/h
2391 09-01-2015 15:45:00 11.4 C 8.62 g/m*3 11.4 C 25.7 km/h
2392 09-01-2015 15:50:00 11.4 C 8.62 g/m*3 11.4 C 20.9 km/h
2393 09-01-2015 15:55:00 11.5 C 8.68 g/m*3 11.5 C 27.4 km/h
2394 09-01-2015 16:00:00 11.5 C 8.68 g/m*3 11.5 C 27.4 km/h
2395 09-01-2015 16:05:00 11.6 C 8.63 g/m*3 11.6 C 32.2 km/h
2396 09-01-2015 16:10:00 11.6 C 8.63 g/m*3 11.6 C 27.4 km/h
2397 09-01-2015 16:15:00 11.6 C 8.63 g/m*3 11.6 C 22.5 km/h
2398 09-01-2015 16:20:00 11.6 C 8.63 g/m*3 11.6 C 24.1 km/h
2399 09-01-2015 16:25:00 11.6 C 8.63 g/m*3 11.6 C 29 km/h
2400 09-01-2015 16:30:00 11.7 C 8.68 g/m*3 11.7 C 22.5 km/h
Sensor: Nr:Datum:Temp:Abs-Feuchte:Windchill:Wind:
Aussen-T/F 2401 09-01-2015 16:35:00 11.7 C 8.68 g/m*3 11.7 C 16.1 km/h
2402 09-01-2015 16:40:00 11.7 C 8.58 g/m*3 11.7 C 14.5 km/h
2403 09-01-2015 16:45:00 11.7 C 8.58 g/m*3 11.7 C 20.9 km/h
2404 09-01-2015 16:50:00 11.7 C 8.58 g/m*3 11.7 C 20.9 km/h
2405 09-01-2015 16:55:00 11.7 C 8.58 g/m*3 11.7 C 22.5 km/h
2406 09-01-2015 17:00:00 11.7 C 8.58 g/m*3 11.7 C 27.4 km/h
2407 09-01-2015 17:05:00 11.8 C 8.53 g/m*3 11.8 C 19.3 km/h
2408 09-01-2015 17:10:00 11.8 C 8.63 g/m*3 11.8 C 12.9 km/h
2409 09-01-2015 17:15:00 11.8 C 8.63 g/m*3 11.8 C 20.9 km/h
2410 09-01-2015 17:20:00 11.7 C 8.58 g/m*3 11.7 C 12.9 km/h
2411 09-01-2015 17:25:00 11.7 C 8.58 g/m*3 11.7 C 16.1 km/h
2412 09-01-2015 17:30:00 11.7 C 8.58 g/m*3 11.7 C 16.1 km/h
2413 09-01-2015 17:35:00 11.7 C 8.58 g/m*3 11.7 C 20.9 km/h
2414 09-01-2015 17:40:00 11.7 C 8.58 g/m*3 11.7 C 16.1 km/h
2415 09-01-2015 17:45:00 11.7 C 8.58 g/m*3 11.7 C 17.7 km/h
2416 09-01-2015 17:50:00 11.7 C 8.47 g/m*3 11.7 C 17.7 km/h
2417 09-01-2015 17:55:00 11.7 C 8.47 g/m*3 11.7 C 17.7 km/h
2418 09-01-2015 18:00:00 11.7 C 8.47 g/m*3 11.7 C 11.3 km/h
2419 09-01-2015 18:05:00 11.7 C 8.37 g/m*3 11.7 C 14.5 km/h
2420 09-01-2015 18:10:00 11.8 C 8.31 g/m*3 11.8 C 17.7 km/h
2421 09-01-2015 18:15:00 11.8 C 8.31 g/m*3 11.8 C 20.9 km/h
2422 09-01-2015 18:20:00 11.8 C 8.31 g/m*3 11.8 C 9.7 km/h
2423 09-01-2015 18:25:00 11.8 C 8.21 g/m*3 11.8 C 14.5 km/h
2424 09-01-2015 18:30:00 11.8 C 8.1 g/m*3 11.8 C 16.1 km/h
2425 09-01-2015 18:35:00 11.7 C 7.84 g/m*3 11.7 C 14.5 km/h
Sensor: Nr:Datum:Temp:Abs-Feuchte:Windchill:Wind:
Aussen-T/F 2426 09-01-2015 18:40:00 11.4 C 7.8 g/m*3 11.4 C 17.7 km/h
2427 09-01-2015 18:45:00 11.3 C 7.96 g/m*3 11.3 C 19.3 km/h
2428 09-01-2015 18:50:00 11.1 C 7.86 g/m*3 11.1 C 9.7 km/h
2429 09-01-2015 18:55:00 11.1 C 8.26 g/m*3 11.1 C 6.4 km/h
2430 09-01-2015 19:00:00 10.7 C 8.05 g/m*3 10.7 C 4.8 km/h
2431 09-01-2015 19:05:00 10.7 C 8.05 g/m*3 10.7 C 4.8 km/h
2432 09-01-2015 19:10:00 10.7 C 8.05 g/m*3 10.18 C 6.4 km/h
2433 09-01-2015 21:15:00 10 C 9.02 g/m*3 8.19 C 12.9 km/h
2434 09-01-2015 21:20:00 10.2 C 9.14 g/m*3 7.86 C 17.7 km/h
2435 09-01-2015 21:25:00 10.3 C 9.1 g/m*3 7.82 C 19.3 km/h
2436 09-01-2015 21:30:00 10.5 C 9.21 g/m*3 8.8 C 12.9 km/h
2437 09-01-2015 21:35:00 10.6 C 9.27 g/m*3 8.53 C 16.1 km/h
2438 09-01-2015 21:40:00 10.7 C 9.33 g/m*3 8.84 C 14.5 km/h
2439 09-01-2015 21:45:00 10.9 C 9.35 g/m*3 9.08 C 14.5 km/h
2440 09-01-2015 21:50:00 10.9 C 9.35 g/m*3 9.08 C 14.5 km/h
2441 09-01-2015 21:55:00 11 C 9.41 g/m*3 8.7 C 19.3 km/h
2442 09-01-2015 22:00:00 11.1 C 9.47 g/m*3 11.1 C 12.9 km/h
2443 09-01-2015 22:05:00 11.2 C 9.53 g/m*3 11.2 C 22.5 km/h
2444 09-01-2015 22:10:00 11.3 C 9.59 g/m*3 11.3 C 16.1 km/h
2445 09-01-2015 22:15:00 11.5 C 9.61 g/m*3 11.5 C 20.9 km/h
2446 09-01-2015 22:20:00 11.7 C 9.73 g/m*3 11.7 C 17.7 km/h
2447 09-01-2015 22:25:00 11.7 C 9.73 g/m*3 11.7 C 16.1 km/h
2448 09-01-2015 22:30:00 11.7 C 9.73 g/m*3 11.7 C 19.3 km/h
2449 09-01-2015 22:35:00 11.8 C 9.79 g/m*3 11.8 C 16.1 km/h
2450 09-01-2015 22:40:00 11.8 C 9.79 g/m*3 11.8 C 19.3 km/h
Sensor: Nr:Datum:Temp:Abs-Feuchte:Windchill:Wind:
Aussen-T/F 2451 09-01-2015 22:45:00 11.8 C 9.79 g/m*3 11.8 C 14.5 km/h
2452 09-01-2015 22:50:00 11.9 C 9.85 g/m*3 11.9 C 25.7 km/h
2453 09-01-2015 22:55:00 11.9 C 9.85 g/m*3 11.9 C 20.9 km/h
2454 09-01-2015 23:00:00 12 C 9.91 g/m*3 12 C 24.1 km/h
2455 09-01-2015 23:05:00 12.1 C 9.97 g/m*3 12.1 C 25.7 km/h
2456 09-01-2015 23:10:00 12.2 C 9.93 g/m*3 12.2 C 17.7 km/h
2457 09-01-2015 23:15:00 12.3 C 9.99 g/m*3 12.3 C 25.7 km/h
2458 09-01-2015 23:20:00 12.4 C 9.94 g/m*3 12.4 C 29 km/h
2459 09-01-2015 23:25:00 12.6 C 10.07 g/m*3 12.6 C 16.1 km/h
2460 09-01-2015 23:30:00 12.6 C 10.07 g/m*3 12.6 C 17.7 km/h
2461 09-01-2015 23:35:00 12.8 C 10.08 g/m*3 12.8 C 33.8 km/h
2462 09-01-2015 23:40:00 12.9 C 10.14 g/m*3 12.9 C 25.7 km/h
2463 09-01-2015 23:45:00 12.9 C 10.14 g/m*3 12.9 C 27.4 km/h
2464 09-01-2015 23:50:00 13 C 10.21 g/m*3 13 C 29 km/h
2465 09-01-2015 23:55:00 13.1 C 10.27 g/m*3 13.1 C 38.6 km/h
2466 10-01-2015 00:00:00 13 C 10.21 g/m*3 13 C 22.5 km/h
2467 10-01-2015 00:05:00 13 C 10.21 g/m*3 13 C 22.5 km/h
2468 10-01-2015 00:10:00 12.9 C 10.26 g/m*3 12.9 C 20.9 km/h
2469 10-01-2015 00:15:00 12.9 C 10.26 g/m*3 12.9 C 25.7 km/h
2470 10-01-2015 00:20:00 12.9 C 10.26 g/m*3 12.9 C 25.7 km/h
2471 10-01-2015 00:25:00 12.9 C 10.26 g/m*3 12.9 C 20.9 km/h
2472 10-01-2015 00:30:00 12.9 C 10.26 g/m*3 12.9 C 19.3 km/h
2473 10-01-2015 00:35:00 12.9 C 10.26 g/m*3 12.9 C 25.7 km/h
2474 10-01-2015 00:40:00 12.9 C 10.26 g/m*3 12.9 C 20.9 km/h
2475 10-01-2015 00:45:00 12.9 C 10.26 g/m*3 12.9 C 11.3 km/h
Sensor: Nr:Datum:Temp:Abs-Feuchte:Windchill:Wind:
Aussen-T/F 2476 10-01-2015 00:50:00 12.9 C 10.26 g/m*3 12.9 C 12.9 km/h
2477 10-01-2015 00:55:00 12.9 C 10.26 g/m*3 12.9 C 14.5 km/h
2478 10-01-2015 01:00:00 13.2 C 10.33 g/m*3 13.2 C 16.1 km/h
2479 10-01-2015 01:05:00 13.2 C 10.33 g/m*3 13.2 C 14.5 km/h
2480 10-01-2015 01:10:00 13.3 C 10.4 g/m*3 13.3 C 17.7 km/h
2481 10-01-2015 01:15:00 13.3 C 10.4 g/m*3 13.3 C 17.7 km/h
2482 10-01-2015 01:20:00 13.3 C 10.4 g/m*3 13.3 C 20.9 km/h
2483 10-01-2015 01:25:00 13.4 C 10.46 g/m*3 13.4 C 19.3 km/h
2484 10-01-2015 01:30:00 13.4 C 10.46 g/m*3 13.4 C 14.5 km/h
2485 10-01-2015 02:40:00 14 C 12.06 g/m*3 14 C 17.7 km/h
2486 10-01-2015 02:45:00 14 C 12.06 g/m*3 14 C 8.1 km/h
2487 10-01-2015 04:15:00 15.2 C 10.9 g/m*3 15.2 C 16.1 km/h
2488 10-01-2015 04:20:00 15.2 C 10.9 g/m*3 15.2 C 17.7 km/h
2489 10-01-2015 04:25:00 15.2 C 10.9 g/m*3 15.2 C 19.3 km/h
2490 10-01-2015 04:30:00 15.3 C 10.97 g/m*3 15.3 C 16.1 km/h
2491 10-01-2015 04:35:00 15.3 C 10.97 g/m*3 15.3 C 20.9 km/h
2492 10-01-2015 04:40:00 15.3 C 10.97 g/m*3 15.3 C 22.5 km/h
2493 10-01-2015 04:45:00 15.3 C 10.97 g/m*3 15.3 C 17.7 km/h
2494 10-01-2015 04:50:00 15.3 C 10.71 g/m*3 15.3 C 22.5 km/h
2495 10-01-2015 04:55:00 15.4 C 10.77 g/m*3 15.4 C 14.5 km/h
2496 10-01-2015 05:00:00 15.4 C 10.77 g/m*3 15.4 C 29 km/h
2497 10-01-2015 05:05:00 15.4 C 10.77 g/m*3 15.4 C 22.5 km/h
2498 10-01-2015 05:10:00 15.4 C 10.77 g/m*3 15.4 C 14.5 km/h
2499 10-01-2015 05:15:00 15.3 C 10.84 g/m*3 15.3 C 20.9 km/h
2500 10-01-2015 05:20:00 15.3 C 10.84 g/m*3 15.3 C 22.5 km/h
Sensor: Nr:Datum:Temp:Abs-Feuchte:Windchill:Wind:
Aussen-T/F 2501 10-01-2015 05:25:00 15.3 C 10.84 g/m*3 15.3 C 17.7 km/h
2502 10-01-2015 05:30:00 15.3 C 10.84 g/m*3 15.3 C 22.5 km/h
2503 10-01-2015 05:35:00 15.3 C 10.97 g/m*3 15.3 C 22.5 km/h
2504 10-01-2015 05:40:00 15.2 C 10.9 g/m*3 15.2 C 24.1 km/h
2505 10-01-2015 05:45:00 15.1 C 10.97 g/m*3 15.1 C 32.2 km/h
2506 10-01-2015 05:50:00 15 C 11.03 g/m*3 15 C 20.9 km/h
2507 10-01-2015 05:55:00 14.9 C 10.96 g/m*3 14.9 C 14.5 km/h
2508 10-01-2015 06:00:00 14.8 C 11.02 g/m*3 14.8 C 27.4 km/h
2509 10-01-2015 06:05:00 14.8 C 11.02 g/m*3 14.8 C 14.5 km/h
2510 10-01-2015 06:35:00 14.7 C 12.59 g/m*3 14.7 C 22.5 km/h
2511 10-01-2015 06:40:00 14.7 C 10.95 g/m*3 14.7 C 25.7 km/h
2512 10-01-2015 06:45:00 14.8 C 11.02 g/m*3 14.8 C 24.1 km/h
2513 10-01-2015 06:50:00 14.8 C 10.89 g/m*3 14.8 C 22.5 km/h
2514 10-01-2015 06:55:00 14.9 C 10.83 g/m*3 14.9 C 30.6 km/h
2515 10-01-2015 07:00:00 15 C 10.64 g/m*3 15 C 30.6 km/h
2516 10-01-2015 07:05:00 15.1 C 10.45 g/m*3 15.1 C 32.2 km/h
2517 10-01-2015 07:10:00 15.1 C 10.32 g/m*3 15.1 C 32.2 km/h
2518 10-01-2015 07:15:00 15.1 C 10.32 g/m*3 15.1 C 17.7 km/h
2519 10-01-2015 07:20:00 15.1 C 10.32 g/m*3 15.1 C 19.3 km/h
2520 10-01-2015 07:25:00 14.7 C 10.45 g/m*3 14.7 C 12.9 km/h
2521 10-01-2015 07:30:00 14.7 C 10.45 g/m*3 14.7 C 20.9 km/h
2522 10-01-2015 07:35:00 14.7 C 10.58 g/m*3 14.7 C 16.1 km/h
2523 10-01-2015 07:40:00 14.6 C 10.51 g/m*3 14.6 C 22.5 km/h
2524 10-01-2015 07:45:00 14.6 C 10.51 g/m*3 14.6 C 20.9 km/h
2525 10-01-2015 07:50:00 14.6 C 10.39 g/m*3 14.6 C 16.1 km/h
Sensor: Nr:Datum:Temp:Abs-Feuchte:Windchill:Wind:
Aussen-T/F 2526 10-01-2015 07:55:00 14.6 C 10.39 g/m*3 14.6 C 22.5 km/h
2527 10-01-2015 08:00:00 14.6 C 10.39 g/m*3 14.6 C 19.3 km/h
2528 10-01-2015 08:05:00 14.6 C 10.39 g/m*3 14.6 C 20.9 km/h
2529 10-01-2015 08:10:00 14.5 C 10.2 g/m*3 14.5 C 22.5 km/h
2530 10-01-2015 08:15:00 14.4 C 10.26 g/m*3 14.4 C 19.3 km/h
2531 10-01-2015 08:20:00 14.5 C 10.2 g/m*3 14.5 C 30.6 km/h
2532 10-01-2015 08:25:00 14.4 C 10.14 g/m*3 14.4 C 19.3 km/h
2533 10-01-2015 08:30:00 14.4 C 10.14 g/m*3 14.4 C 22.5 km/h
2534 10-01-2015 08:35:00 14.5 C 10.2 g/m*3 14.5 C 33.8 km/h
2535 10-01-2015 08:40:00 14.5 C 10.07 g/m*3 14.5 C 27.4 km/h
2536 10-01-2015 08:45:00 14.5 C 10.07 g/m*3 14.5 C 22.5 km/h
2537 10-01-2015 08:50:00 14.4 C 10.01 g/m*3 14.4 C 22.5 km/h
2538 10-01-2015 08:55:00 14.5 C 10.07 g/m*3 14.5 C 24.1 km/h
2539 10-01-2015 09:00:00 14.5 C 10.07 g/m*3 14.5 C 16.1 km/h
2540 10-01-2015 09:05:00 14.6 C 10.14 g/m*3 14.6 C 29 km/h
2541 10-01-2015 09:10:00 14.7 C 10.07 g/m*3 14.7 C 24.1 km/h
2542 10-01-2015 09:15:00 14.7 C 10.07 g/m*3 14.7 C 27.4 km/h
2543 10-01-2015 09:20:00 14.7 C 9.95 g/m*3 14.7 C 33.8 km/h
2544 10-01-2015 09:25:00 14.7 C 9.95 g/m*3 14.7 C 33.8 km/h
2545 10-01-2015 09:30:00 14.7 C 9.95 g/m*3 14.7 C 24.1 km/h
2546 10-01-2015 09:35:00 14.7 C 9.95 g/m*3 14.7 C 32.2 km/h
2547 10-01-2015 09:40:00 14.7 C 9.95 g/m*3 14.7 C 24.1 km/h
2548 10-01-2015 09:45:00 14.7 C 9.95 g/m*3 14.7 C 19.3 km/h
2549 10-01-2015 09:50:00 14.7 C 9.95 g/m*3 14.7 C 32.2 km/h
2550 10-01-2015 09:55:00 14.7 C 9.95 g/m*3 14.7 C 25.7 km/h
Sensor: Nr:Datum:Temp:Abs-Feuchte:Windchill:Wind:
Aussen-T/F 2551 10-01-2015 10:00:00 14.7 C 9.82 g/m*3 14.7 C 19.3 km/h
2552 10-01-2015 10:05:00 14.7 C 9.82 g/m*3 14.7 C 27.4 km/h
2553 10-01-2015 10:10:00 14.7 C 9.82 g/m*3 14.7 C 20.9 km/h
2554 10-01-2015 10:15:00 14.6 C 9.76 g/m*3 14.6 C 20.9 km/h
2555 10-01-2015 10:20:00 14.6 C 9.76 g/m*3 14.6 C 17.7 km/h
2556 10-01-2015 10:25:00 14.6 C 9.76 g/m*3 14.6 C 20.9 km/h
2557 10-01-2015 10:30:00 14.6 C 9.76 g/m*3 14.6 C 22.5 km/h
2558 10-01-2015 10:35:00 14.6 C 9.76 g/m*3 14.6 C 22.5 km/h
2559 10-01-2015 10:40:00 14.6 C 9.76 g/m*3 14.6 C 24.1 km/h
2560 10-01-2015 10:45:00 14.4 C 9.64 g/m*3 14.4 C 22.5 km/h
2561 10-01-2015 10:50:00 14.4 C 9.52 g/m*3 14.4 C 20.9 km/h
2562 10-01-2015 10:55:00 14.5 C 9.58 g/m*3 14.5 C 25.7 km/h
2563 10-01-2015 11:00:00 14.4 C 9.52 g/m*3 14.4 C 24.1 km/h
2564 10-01-2015 11:05:00 14.4 C 9.52 g/m*3 14.4 C 19.3 km/h
2565 10-01-2015 11:10:00 14.4 C 9.52 g/m*3 14.4 C 22.5 km/h
2566 10-01-2015 11:15:00 14.3 C 9.46 g/m*3 14.3 C 17.7 km/h
2567 10-01-2015 11:20:00 14.3 C 9.46 g/m*3 14.3 C 20.9 km/h
2568 10-01-2015 11:25:00 14.3 C 9.46 g/m*3 14.3 C 17.7 km/h
2569 10-01-2015 11:30:00 14.2 C 9.52 g/m*3 14.2 C 17.7 km/h
2570 10-01-2015 11:35:00 14.2 C 9.52 g/m*3 14.2 C 11.3 km/h
2571 10-01-2015 11:40:00 14.2 C 9.52 g/m*3 14.2 C 17.7 km/h
2572 10-01-2015 11:45:00 14.2 C 9.52 g/m*3 14.2 C 24.1 km/h
2573 10-01-2015 11:50:00 14.2 C 9.52 g/m*3 14.2 C 17.7 km/h
2574 10-01-2015 11:55:00 14.2 C 9.52 g/m*3 14.2 C 14.5 km/h
2575 10-01-2015 12:00:00 14.2 C 9.52 g/m*3 14.2 C 12.9 km/h
Sensor: Nr:Datum:Temp:Abs-Feuchte:Windchill:Wind:
Aussen-T/F 2576 10-01-2015 12:05:00 14.2 C 9.52 g/m*3 14.2 C 19.3 km/h
2577 10-01-2015 12:10:00 14.2 C 9.52 g/m*3 14.2 C 19.3 km/h
2578 10-01-2015 12:15:00 14.2 C 9.52 g/m*3 14.2 C 22.5 km/h
2579 10-01-2015 12:20:00 14.3 C 9.46 g/m*3 14.3 C 29 km/h
2580 10-01-2015 12:25:00 14.3 C 9.46 g/m*3 14.3 C 19.3 km/h
2581 10-01-2015 12:30:00 14.4 C 9.52 g/m*3 14.4 C 22.5 km/h
2582 10-01-2015 12:35:00 14.4 C 9.39 g/m*3 14.4 C 29 km/h
2583 10-01-2015 12:40:00 14.4 C 9.39 g/m*3 14.4 C 20.9 km/h
2584 10-01-2015 12:45:00 14.4 C 9.39 g/m*3 14.4 C 22.5 km/h
2585 10-01-2015 12:50:00 14.4 C 9.39 g/m*3 14.4 C 19.3 km/h
2586 10-01-2015 12:55:00 14.2 C 9.4 g/m*3 14.2 C 14.5 km/h
2587 10-01-2015 13:00:00 14.2 C 9.52 g/m*3 14.2 C 16.1 km/h
2588 10-01-2015 13:05:00 14.1 C 9.47 g/m*3 14.1 C 19.3 km/h
2589 10-01-2015 13:10:00 14 C 9.41 g/m*3 14 C 20.9 km/h
2590 10-01-2015 13:15:00 14 C 9.41 g/m*3 14 C 20.9 km/h
2591 10-01-2015 13:20:00 13.9 C 9.35 g/m*3 13.9 C 20.9 km/h
2592 10-01-2015 13:25:00 13.9 C 9.35 g/m*3 13.9 C 14.5 km/h
2593 10-01-2015 13:30:00 13.9 C 9.35 g/m*3 13.9 C 17.7 km/h
2594 10-01-2015 13:35:00 13.9 C 9.35 g/m*3 13.9 C 16.1 km/h
2595 10-01-2015 13:40:00 13.9 C 9.35 g/m*3 13.9 C 16.1 km/h
2596 10-01-2015 13:45:00 13.9 C 9.35 g/m*3 13.9 C 11.3 km/h
2597 10-01-2015 13:50:00 13.9 C 9.23 g/m*3 13.9 C 22.5 km/h
2598 10-01-2015 13:55:00 14 C 9.29 g/m*3 14 C 20.9 km/h
2599 10-01-2015 14:00:00 14.1 C 9.34 g/m*3 14.1 C 25.7 km/h
2600 10-01-2015 14:05:00 14.1 C 9.34 g/m*3 14.1 C 30.6 km/h
Sensor: Nr:Datum:Temp:Abs-Feuchte:Windchill:Wind:
Aussen-T/F 2601 10-01-2015 14:10:00 14 C 9.29 g/m*3 14 C 22.5 km/h
2602 10-01-2015 14:15:00 14 C 9.29 g/m*3 14 C 17.7 km/h
2603 10-01-2015 14:20:00 14 C 9.29 g/m*3 14 C 17.7 km/h
2604 10-01-2015 14:25:00 13.9 C 9.23 g/m*3 13.9 C 12.9 km/h
2605 10-01-2015 14:30:00 13.9 C 9.23 g/m*3 13.9 C 17.7 km/h
2606 10-01-2015 14:35:00 13.9 C 9.35 g/m*3 13.9 C 12.9 km/h
2607 10-01-2015 14:40:00 13.8 C 9.41 g/m*3 13.8 C 14.5 km/h
2608 10-01-2015 14:45:00 13.7 C 9.35 g/m*3 13.7 C 20.9 km/h
2609 10-01-2015 14:50:00 13.7 C 9.35 g/m*3 13.7 C 16.1 km/h
2610 10-01-2015 14:55:00 13.7 C 9.47 g/m*3 13.7 C 11.3 km/h
2611 10-01-2015 15:00:00 13.6 C 9.42 g/m*3 13.6 C 11.3 km/h
2612 10-01-2015 15:05:00 13.6 C 9.42 g/m*3 13.6 C 16.1 km/h
2613 10-01-2015 15:10:00 13.6 C 9.42 g/m*3 13.6 C 19.3 km/h
2614 10-01-2015 15:15:00 13.6 C 9.42 g/m*3 13.6 C 16.1 km/h
2615 10-01-2015 15:55:00 13.2 C 9.53 g/m*3 13.2 C 14.5 km/h
2616 10-01-2015 16:00:00 13.2 C 9.53 g/m*3 13.2 C 17.7 km/h
2617 10-01-2015 16:05:00 13.1 C 9.47 g/m*3 13.1 C 14.5 km/h
2618 10-01-2015 16:10:00 13.1 C 9.59 g/m*3 13.1 C 16.1 km/h
2619 10-01-2015 16:15:00 13 C 9.53 g/m*3 13 C 17.7 km/h
2620 10-01-2015 16:20:00 12.9 C 9.58 g/m*3 12.9 C 19.3 km/h
2621 10-01-2015 16:25:00 12.9 C 9.58 g/m*3 12.9 C 17.7 km/h
2622 10-01-2015 16:30:00 12.9 C 9.58 g/m*3 12.9 C 16.1 km/h
2623 10-01-2015 16:35:00 12.8 C 9.52 g/m*3 12.8 C 17.7 km/h
2624 10-01-2015 16:40:00 12.7 C 9.46 g/m*3 12.7 C 11.3 km/h
2625 10-01-2015 16:45:00 12.7 C 9.68 g/m*3 12.7 C 17.7 km/h
Sensor: Nr:Datum:Temp:Abs-Feuchte:Windchill:Wind:
Aussen-T/F 2626 10-01-2015 16:50:00 12.6 C 9.62 g/m*3 12.6 C 22.5 km/h
2627 10-01-2015 16:55:00 12.6 C 9.62 g/m*3 12.6 C 14.5 km/h
2628 10-01-2015 17:00:00 12.4 C 9.62 g/m*3 12.4 C 20.9 km/h
2629 10-01-2015 17:05:00 12.3 C 9.66 g/m*3 12.3 C 14.5 km/h
2630 10-01-2015 17:10:00 12.3 C 9.66 g/m*3 12.3 C 12.9 km/h
2631 10-01-2015 17:15:00 12.1 C 9.54 g/m*3 12.1 C 14.5 km/h
2632 10-01-2015 17:20:00 12 C 9.7 g/m*3 12 C 16.1 km/h
2633 10-01-2015 17:25:00 11.9 C 9.74 g/m*3 11.9 C 12.9 km/h
2634 10-01-2015 17:30:00 11.8 C 9.58 g/m*3 11.8 C 20.9 km/h
2635 10-01-2015 17:35:00 11.9 C 9.64 g/m*3 11.9 C 12.9 km/h
2636 10-01-2015 17:40:00 12 C 9.59 g/m*3 12 C 14.5 km/h
2637 10-01-2015 17:45:00 12.1 C 9.65 g/m*3 12.1 C 16.1 km/h
2638 10-01-2015 17:50:00 12.1 C 9.65 g/m*3 12.1 C 9.7 km/h
2639 10-01-2015 17:55:00 12.2 C 9.5 g/m*3 12.2 C 20.9 km/h
2640 10-01-2015 18:00:00 12.6 C 9.29 g/m*3 12.6 C 20.9 km/h
2641 10-01-2015 18:05:00 11.8 C 8.42 g/m*3 11.8 C 33.8 km/h
2642 10-01-2015 18:10:00 10.9 C 8.16 g/m*3 8.58 C 19.3 km/h
2643 10-01-2015 18:15:00 10.4 C 8.19 g/m*3 7.8 C 20.9 km/h
2644 10-01-2015 18:20:00 9.9 C 8.03 g/m*3 6.4 C 30.6 km/h
2645 10-01-2015 18:25:00 9.6 C 8.06 g/m*3 7.11 C 17.7 km/h
2646 10-01-2015 18:30:00 9.6 C 7.97 g/m*3 6.5 C 24.1 km/h
2647 10-01-2015 18:35:00 9.6 C 7.97 g/m*3 7.11 C 17.7 km/h
2648 10-01-2015 18:40:00 9.1 C 7.45 g/m*3 6 C 22.5 km/h
2649 10-01-2015 18:45:00 8.9 C 7.27 g/m*3 5.33 C 27.4 km/h
2650 10-01-2015 18:50:00 8.8 C 7.31 g/m*3 5.08 C 29 km/h
Sensor: Nr:Datum:Temp:Abs-Feuchte:Windchill:Wind:
Aussen-T/F 2651 10-01-2015 18:55:00 8.8 C 7.31 g/m*3 6.3 C 16.1 km/h
2652 10-01-2015 19:00:00 8.7 C 7.26 g/m*3 5.98 C 17.7 km/h
2653 10-01-2015 19:05:00 8.7 C 7.26 g/m*3 6.17 C 16.1 km/h
2654 10-01-2015 19:10:00 8.7 C 7.26 g/m*3 5.81 C 19.3 km/h
2655 10-01-2015 19:15:00 8.7 C 7.09 g/m*3 5.98 C 17.7 km/h
2656 10-01-2015 19:20:00 8.7 C 7.01 g/m*3 5.49 C 22.5 km/h
2657 10-01-2015 19:25:00 8.7 C 7.01 g/m*3 6.17 C 16.1 km/h
2658 10-01-2015 20:05:00 8.8 C 8.7 g/m*3 5.62 C 22.5 km/h
2659 10-01-2015 20:10:00 8.8 C 8.7 g/m*3 6.11 C 17.7 km/h
2660 10-01-2015 20:15:00 8.8 C 8.7 g/m*3 6.97 C 11.3 km/h
2661 11-01-2015 01:45:00 5.1 C 6.84 g/m*3 3.71 C 6.4 km/h
2662 11-01-2015 01:50:00 5.1 C 5.27 g/m*3 3.71 C 6.4 km/h
2663 11-01-2015 01:55:00 5 C 5.23 g/m*3 2.72 C 9.7 km/h
2664 11-01-2015 02:00:00 5 C 5.23 g/m*3 3.11 C 8.1 km/h
2665 11-01-2015 02:05:00 5 C 5.23 g/m*3 3.11 C 8.1 km/h
2666 11-01-2015 02:25:00 4.8 C 5.23 g/m*3 4.8 C 4.8 km/h
2667 11-01-2015 02:30:00 4.7 C 5.13 g/m*3 4.7 C 3.2 km/h
2668 11-01-2015 02:35:00 4.5 C 5.13 g/m*3 4.5 C 4.8 km/h
2669 11-01-2015 02:40:00 4.4 C 5.09 g/m*3 4.4 C 4.8 km/h
2670 11-01-2015 02:45:00 4.4 C 5.09 g/m*3 4.4 C 3.2 km/h
2671 11-01-2015 02:50:00 4.4 C 5.09 g/m*3 4.4 C 4.8 km/h
2672 11-01-2015 02:55:00 4.4 C 5.09 g/m*3 4.4 C 4.8 km/h
2673 11-01-2015 03:00:00 4.3 C 5.06 g/m*3 4.3 C 4.8 km/h
2674 11-01-2015 03:05:00 4.2 C 5.03 g/m*3 4.2 C 4.8 km/h
2675 11-01-2015 03:10:00 4.2 C 5.15 g/m*3 4.2 C 4.8 km/h
Sensor: Nr:Datum:Temp:Abs-Feuchte:Windchill:Wind:
Aussen-T/F 2676 11-01-2015 03:15:00 3.8 C 5.14 g/m*3 3.8 C 4.8 km/h
2677 11-01-2015 03:20:00 3.9 C 5.18 g/m*3 3.9 C 3.2 km/h
2678 11-01-2015 03:25:00 3.9 C 5.18 g/m*3 3.9 C 4.8 km/h
2679 11-01-2015 05:45:00 3.4 C 6.11 g/m*3 1.23 C 8.1 km/h
2680 11-01-2015 05:50:00 3.4 C 6.11 g/m*3 1.75 C 6.4 km/h
2681 11-01-2015 08:30:00 3.8 C 6.27 g/m*3 0.35 C 14.5 km/h
2682 11-01-2015 08:35:00 3.8 C 4.83 g/m*3 -1.57 C 30.6 km/h
2683 11-01-2015 08:40:00 3.8 C 4.83 g/m*3 -1.57 C 30.6 km/h
2684 11-01-2015 08:45:00 3.8 C 4.83 g/m*3 0.94 C 11.3 km/h
2685 11-01-2015 08:50:00 4.1 C 4.86 g/m*3 0.72 C 14.5 km/h
2686 11-01-2015 08:55:00 4.2 C 4.9 g/m*3 1.43 C 11.3 km/h
2687 11-01-2015 09:00:00 4.2 C 4.9 g/m*3 1.43 C 11.3 km/h
2688 11-01-2015 09:05:00 4.2 C 4.9 g/m*3 1.77 C 9.7 km/h
2689 11-01-2015 11:15:00 4.9 C 5.47 g/m*3 1.97 C 12.9 km/h
2690 11-01-2015 11:20:00 5 C 5.44 g/m*3 1.15 C 19.3 km/h
2691 11-01-2015 11:25:00 5.1 C 5.4 g/m*3 1.95 C 14.5 km/h
2692 11-01-2015 11:30:00 5.1 C 5.4 g/m*3 1.71 C 16.1 km/h
2693 11-01-2015 11:35:00 5.2 C 5.44 g/m*3 1.83 C 16.1 km/h
2694 11-01-2015 11:40:00 5.2 C 5.44 g/m*3 2.34 C 12.9 km/h
2695 11-01-2015 11:45:00 5.2 C 5.44 g/m*3 1.83 C 16.1 km/h
2696 11-01-2015 11:50:00 5.2 C 5.37 g/m*3 2.07 C 14.5 km/h
2697 11-01-2015 11:55:00 5.2 C 5.37 g/m*3 1.83 C 16.1 km/h
2698 11-01-2015 12:00:00 5.2 C 5.37 g/m*3 2.07 C 14.5 km/h
2699 11-01-2015 12:05:00 5.2 C 5.37 g/m*3 1.4 C 19.3 km/h
2700 11-01-2015 12:10:00 5.2 C 5.37 g/m*3 2.07 C 14.5 km/h
Sensor: Nr:Datum:Temp:Abs-Feuchte:Windchill:Wind:
Aussen-T/F 2701 11-01-2015 12:15:00 5.3 C 5.41 g/m*3 1.96 C 16.1 km/h
2702 11-01-2015 12:20:00 5.5 C 5.41 g/m*3 1.59 C 20.9 km/h
2703 11-01-2015 12:25:00 5.6 C 5.23 g/m*3 1.54 C 22.5 km/h
2704 11-01-2015 12:30:00 5.6 C 5.16 g/m*3 2.57 C 14.5 km/h
2705 11-01-2015 12:35:00 5.6 C 5.16 g/m*3 1.91 C 19.3 km/h
2706 11-01-2015 12:40:00 5.6 C 5.16 g/m*3 1.91 C 19.3 km/h
2707 11-01-2015 12:45:00 5.7 C 5.19 g/m*3 2.24 C 17.7 km/h
2708 11-01-2015 12:50:00 5.7 C 5.19 g/m*3 1.35 C 25.7 km/h
2709 11-01-2015 12:55:00 5.8 C 5.16 g/m*3 1.32 C 27.4 km/h
2710 11-01-2015 13:00:00 5.9 C 5.12 g/m*3 2.29 C 19.3 km/h
2711 11-01-2015 13:05:00 6.1 C 5.19 g/m*3 2.18 C 22.5 km/h
2712 11-01-2015 13:10:00 6 C 5.15 g/m*3 1.44 C 29 km/h
2713 11-01-2015 13:15:00 6 C 5.08 g/m*3 2.41 C 19.3 km/h
2714 11-01-2015 13:20:00 6 C 5.15 g/m*3 2.41 C 19.3 km/h
2715 11-01-2015 13:25:00 6 C 5.08 g/m*3 1.31 C 30.6 km/h
2716 11-01-2015 13:30:00 6.1 C 5.11 g/m*3 2.02 C 24.1 km/h
2717 11-01-2015 13:35:00 6.1 C 5.04 g/m*3 1.86 C 25.7 km/h
2718 11-01-2015 13:40:00 6.1 C 5.04 g/m*3 1.71 C 27.4 km/h
2719 11-01-2015 13:45:00 6.1 C 5.11 g/m*3 2.18 C 22.5 km/h
2720 11-01-2015 13:50:00 6 C 5.08 g/m*3 2.61 C 17.7 km/h
2721 11-01-2015 13:55:00 6 C 5.15 g/m*3 2.41 C 19.3 km/h
2722 11-01-2015 14:00:00 6.1 C 5.19 g/m*3 2.35 C 20.9 km/h
2723 11-01-2015 14:05:00 6.1 C 5.04 g/m*3 2.35 C 20.9 km/h
2724 11-01-2015 14:10:00 6.2 C 5.07 g/m*3 2.48 C 20.9 km/h
2725 11-01-2015 14:15:00 6.2 C 5.07 g/m*3 2.48 C 20.9 km/h
Sensor: Nr:Datum:Temp:Abs-Feuchte:Windchill:Wind:
Aussen-T/F 2726 11-01-2015 14:20:00 6.2 C 5.07 g/m*3 1.7 C 29 km/h
2727 11-01-2015 14:25:00 6.2 C 5.15 g/m*3 2.66 C 19.3 km/h
2728 11-01-2015 14:30:00 6.1 C 5.11 g/m*3 2.95 C 16.1 km/h
2729 11-01-2015 14:35:00 6.1 C 5.11 g/m*3 2.73 C 17.7 km/h
2730 11-01-2015 14:40:00 6.1 C 5.11 g/m*3 2.35 C 20.9 km/h
2731 11-01-2015 15:00:00 6.1 C 5.11 g/m*3 2.35 C 20.9 km/h
2732 11-01-2015 15:05:00 6.2 C 5.07 g/m*3 2.66 C 19.3 km/h
2733 11-01-2015 15:10:00 6.2 C 5.15 g/m*3 2.86 C 17.7 km/h
2734 11-01-2015 15:15:00 6.1 C 5.11 g/m*3 1.44 C 30.6 km/h
2735 11-01-2015 15:20:00 6.1 C 5.11 g/m*3 2.54 C 19.3 km/h
2736 11-01-2015 15:25:00 6.1 C 5.04 g/m*3 2.02 C 24.1 km/h
2737 11-01-2015 15:30:00 6.1 C 5.04 g/m*3 1.31 C 32.2 km/h
2738 11-01-2015 15:35:00 6.1 C 5.04 g/m*3 1.31 C 32.2 km/h
2739 11-01-2015 15:40:00 6 C 5.08 g/m*3 2.23 C 20.9 km/h
2740 11-01-2015 15:45:00 5.9 C 5.12 g/m*3 2.48 C 17.7 km/h
2741 11-01-2015 15:50:00 5.8 C 5.16 g/m*3 2.58 C 16.1 km/h
2742 11-01-2015 15:55:00 5.8 C 5.16 g/m*3 2.36 C 17.7 km/h
2743 11-01-2015 16:00:00 5.8 C 5.16 g/m*3 2.36 C 17.7 km/h
2744 11-01-2015 16:05:00 5.7 C 5.12 g/m*3 2.45 C 16.1 km/h
2745 11-01-2015 16:10:00 5.7 C 5.12 g/m*3 2.45 C 16.1 km/h
2746 11-01-2015 16:15:00 5.7 C 5.05 g/m*3 2.24 C 17.7 km/h
2747 11-01-2015 16:20:00 5.7 C 5.12 g/m*3 2.45 C 16.1 km/h
2748 11-01-2015 16:25:00 5.7 C 5.12 g/m*3 2.45 C 16.1 km/h
2749 11-01-2015 16:30:00 5.7 C 5.12 g/m*3 2.69 C 14.5 km/h
2750 11-01-2015 16:35:00 5.6 C 5.09 g/m*3 3.44 C 9.7 km/h
Sensor: Nr:Datum:Temp:Abs-Feuchte:Windchill:Wind:
Aussen-T/F 2751 11-01-2015 16:40:00 5.6 C 5.09 g/m*3 3.11 C 11.3 km/h
2752 11-01-2015 16:45:00 5.6 C 5.09 g/m*3 1.91 C 19.3 km/h
2753 11-01-2015 17:05:00 5.5 C 7.02 g/m*3 2.7 C 12.9 km/h
2754 11-01-2015 17:10:00 5.5 C 7.02 g/m*3 1.78 C 19.3 km/h
2755 11-01-2015 17:15:00 5.5 C 7.02 g/m*3 2.7 C 12.9 km/h
2756 11-01-2015 17:20:00 5.5 C 7.02 g/m*3 2.7 C 12.9 km/h
2757 11-01-2015 17:25:00 5.4 C 6.98 g/m*3 2.32 C 14.5 km/h
2758 11-01-2015 17:30:00 5.5 C 7.02 g/m*3 2.7 C 12.9 km/h
2759 11-01-2015 17:35:00 5.5 C 7.02 g/m*3 2.44 C 14.5 km/h
2760 11-01-2015 18:15:00 5.6 C 7.07 g/m*3 2.33 C 16.1 km/h
2761 11-01-2015 18:20:00 5.6 C 7.07 g/m*3 3.11 C 11.3 km/h
2762 11-01-2015 18:25:00 5.6 C 5.02 g/m*3 3.44 C 9.7 km/h
2763 11-01-2015 18:30:00 5.6 C 5.02 g/m*3 3.11 C 11.3 km/h
2764 11-01-2015 18:35:00 5.5 C 5.06 g/m*3 4.17 C 6.4 km/h
2765 11-01-2015 18:40:00 5.4 C 5.02 g/m*3 2.58 C 12.9 km/h
2766 11-01-2015 18:45:00 5.5 C 5.06 g/m*3 3.32 C 9.7 km/h
2767 11-01-2015 18:50:00 5.4 C 5.09 g/m*3 3.58 C 8.1 km/h
2768 11-01-2015 18:55:00 5.4 C 5.09 g/m*3 2.87 C 11.3 km/h
2769 11-01-2015 19:00:00 5.5 C 5.13 g/m*3 1.78 C 19.3 km/h
2770 11-01-2015 19:05:00 5.6 C 5.16 g/m*3 3.11 C 11.3 km/h
2771 11-01-2015 19:10:00 5.5 C 5.13 g/m*3 2.99 C 11.3 km/h
2772 11-01-2015 19:15:00 5.5 C 5.13 g/m*3 1.99 C 17.7 km/h
2773 11-01-2015 19:20:00 5.6 C 5.16 g/m*3 3.44 C 9.7 km/h
2774 11-01-2015 19:25:00 5.6 C 5.16 g/m*3 2.57 C 14.5 km/h
2775 11-01-2015 19:30:00 5.6 C 5.16 g/m*3 2.57 C 14.5 km/h
Sensor: Nr:Datum:Temp:Abs-Feuchte:Windchill:Wind:
Aussen-T/F 2776 11-01-2015 19:35:00 5.6 C 5.16 g/m*3 3.81 C 8.1 km/h
2777 11-01-2015 19:40:00 5.7 C 5.19 g/m*3 2.69 C 14.5 km/h
2778 11-01-2015 19:45:00 5.7 C 5.19 g/m*3 2.45 C 16.1 km/h
2779 11-01-2015 19:50:00 5.8 C 5.23 g/m*3 1.8 C 22.5 km/h
2780 11-01-2015 19:55:00 5.8 C 5.23 g/m*3 3.07 C 12.9 km/h
2781 11-01-2015 20:00:00 5.8 C 5.23 g/m*3 2.81 C 14.5 km/h
2782 11-01-2015 20:05:00 5.8 C 5.23 g/m*3 3.07 C 12.9 km/h
2783 11-01-2015 20:10:00 5.8 C 5.23 g/m*3 2.81 C 14.5 km/h
2784 11-01-2015 20:15:00 5.8 C 5.23 g/m*3 3.07 C 12.9 km/h
2785 11-01-2015 20:20:00 5.8 C 5.23 g/m*3 3.68 C 9.7 km/h
2786 11-01-2015 20:25:00 5.7 C 5.19 g/m*3 3.23 C 11.3 km/h
2787 11-01-2015 20:30:00 5.7 C 5.19 g/m*3 2.24 C 17.7 km/h
2788 11-01-2015 20:35:00 5.7 C 5.27 g/m*3 3.56 C 9.7 km/h
2789 11-01-2015 20:40:00 5.7 C 5.27 g/m*3 3.56 C 9.7 km/h
2790 11-01-2015 20:45:00 5.7 C 5.27 g/m*3 3.23 C 11.3 km/h
2791 11-01-2015 20:50:00 5.7 C 5.27 g/m*3 2.69 C 14.5 km/h
2792 11-01-2015 20:55:00 5.8 C 5.3 g/m*3 3.07 C 12.9 km/h
2793 11-01-2015 21:00:00 5.8 C 5.3 g/m*3 3.36 C 11.3 km/h
2794 11-01-2015 21:05:00 5.9 C 5.34 g/m*3 4.17 C 8.1 km/h
2795 11-01-2015 21:10:00 5.9 C 5.34 g/m*3 2.7 C 16.1 km/h
2796 11-01-2015 21:15:00 5.9 C 5.34 g/m*3 3.48 C 11.3 km/h
2797 11-01-2015 21:20:00 5.9 C 5.41 g/m*3 3.19 C 12.9 km/h
2798 11-01-2015 21:25:00 5.9 C 5.48 g/m*3 2.1 C 20.9 km/h
2799 11-01-2015 21:30:00 5.8 C 5.44 g/m*3 3.36 C 11.3 km/h
2800 11-01-2015 21:35:00 5.8 C 5.44 g/m*3 3.07 C 12.9 km/h
Sensor: Nr:Datum:Temp:Abs-Feuchte:Windchill:Wind:
Aussen-T/F 2801 11-01-2015 21:40:00 5.8 C 5.44 g/m*3 3.36 C 11.3 km/h
2802 11-01-2015 21:45:00 5.8 C 5.44 g/m*3 2.58 C 16.1 km/h
2803 11-01-2015 21:50:00 5.8 C 5.44 g/m*3 3.07 C 12.9 km/h
2804 11-01-2015 21:55:00 5.8 C 5.44 g/m*3 3.36 C 11.3 km/h
2805 11-01-2015 22:00:00 5.8 C 5.52 g/m*3 3.36 C 11.3 km/h
2806 11-01-2015 22:05:00 5.8 C 5.52 g/m*3 3.68 C 9.7 km/h
2807 11-01-2015 22:10:00 5.8 C 5.52 g/m*3 3.07 C 12.9 km/h
2808 11-01-2015 22:15:00 5.8 C 5.52 g/m*3 3.36 C 11.3 km/h
2809 12-01-2015 00:10:00 5.8 C 5.95 g/m*3 2.16 C 19.3 km/h
2810 12-01-2015 00:15:00 5.8 C 5.95 g/m*3 3.07 C 12.9 km/h
2811 12-01-2015 00:20:00 5.6 C 5.87 g/m*3 2.57 C 14.5 km/h
2812 12-01-2015 00:25:00 5.6 C 5.87 g/m*3 1.54 C 22.5 km/h
2813 12-01-2015 00:30:00 5.6 C 5.94 g/m*3 1.54 C 22.5 km/h
2814 12-01-2015 00:35:00 5.6 C 5.94 g/m*3 2.83 C 12.9 km/h
2815 12-01-2015 00:40:00 5.6 C 6.01 g/m*3 1.54 C 22.5 km/h
2816 12-01-2015 00:45:00 5.6 C 6.08 g/m*3 1.72 C 20.9 km/h
2817 12-01-2015 00:50:00 5.6 C 6.08 g/m*3 1.38 C 24.1 km/h
2818 12-01-2015 00:55:00 5.6 C 6.08 g/m*3 1.38 C 24.1 km/h
2819 12-01-2015 01:00:00 5.5 C 6.11 g/m*3 2.7 C 12.9 km/h
2820 12-01-2015 01:05:00 5.5 C 6.11 g/m*3 2.7 C 12.9 km/h
2821 12-01-2015 01:10:00 5.4 C 6.07 g/m*3 2.32 C 14.5 km/h
2822 12-01-2015 01:15:00 5.3 C 6.03 g/m*3 1.74 C 17.7 km/h
2823 12-01-2015 01:20:00 5.3 C 6.17 g/m*3 2.46 C 12.9 km/h
2824 12-01-2015 01:25:00 5.3 C 6.17 g/m*3 1.53 C 19.3 km/h
2825 12-01-2015 01:30:00 5.2 C 6.2 g/m*3 1.83 C 16.1 km/h
Sensor: Nr:Datum:Temp:Abs-Feuchte:Windchill:Wind:
Aussen-T/F 2826 12-01-2015 01:35:00 5.2 C 6.2 g/m*3 1.83 C 16.1 km/h
2827 12-01-2015 01:40:00 5.1 C 6.16 g/m*3 1.28 C 19.3 km/h
2828 12-01-2015 01:45:00 5.2 C 6.2 g/m*3 1.61 C 17.7 km/h
2829 12-01-2015 01:50:00 5.2 C 6.2 g/m*3 1.83 C 16.1 km/h
2830 12-01-2015 01:55:00 5.2 C 6.2 g/m*3 1.61 C 17.7 km/h
2831 12-01-2015 02:00:00 5.3 C 6.24 g/m*3 1.96 C 16.1 km/h
2832 12-01-2015 02:05:00 5.3 C 6.24 g/m*3 1.74 C 17.7 km/h
2833 12-01-2015 02:10:00 5.3 C 6.17 g/m*3 2.46 C 12.9 km/h
2834 12-01-2015 02:15:00 5.4 C 6.21 g/m*3 1.86 C 17.7 km/h
2835 12-01-2015 02:20:00 5.4 C 6.21 g/m*3 2.32 C 14.5 km/h
2836 12-01-2015 02:25:00 5.4 C 6.21 g/m*3 2.08 C 16.1 km/h
2837 12-01-2015 02:30:00 5.4 C 6.21 g/m*3 2.87 C 11.3 km/h
2838 12-01-2015 02:35:00 5.7 C 6.26 g/m*3 2.95 C 12.9 km/h
2839 12-01-2015 02:40:00 5.7 C 6.26 g/m*3 2.69 C 14.5 km/h
2840 12-01-2015 02:45:00 5.8 C 6.3 g/m*3 2.81 C 14.5 km/h
2841 12-01-2015 02:50:00 5.8 C 6.3 g/m*3 3.07 C 12.9 km/h
2842 12-01-2015 02:55:00 5.8 C 6.3 g/m*3 2.81 C 14.5 km/h
2843 12-01-2015 03:00:00 5.8 C 6.3 g/m*3 3.36 C 11.3 km/h
2844 12-01-2015 03:05:00 5.8 C 6.3 g/m*3 3.36 C 11.3 km/h
2845 12-01-2015 03:10:00 5.9 C 6.35 g/m*3 3.8 C 9.7 km/h
2846 12-01-2015 03:15:00 5.9 C 6.35 g/m*3 2.48 C 17.7 km/h
2847 12-01-2015 03:20:00 6 C 6.31 g/m*3 3.6 C 11.3 km/h
2848 12-01-2015 03:25:00 6 C 6.31 g/m*3 3.92 C 9.7 km/h
2849 12-01-2015 03:30:00 6.1 C 6.36 g/m*3 2.54 C 19.3 km/h
2850 12-01-2015 03:35:00 6.1 C 6.36 g/m*3 3.43 C 12.9 km/h
Sensor: Nr:Datum:Temp:Abs-Feuchte:Windchill:Wind:
Aussen-T/F 2851 12-01-2015 03:40:00 6.1 C 6.36 g/m*3 3.72 C 11.3 km/h
2852 12-01-2015 03:45:00 6.1 C 6.43 g/m*3 3.72 C 11.3 km/h
2853 12-01-2015 03:50:00 6.1 C 6.43 g/m*3 3.72 C 11.3 km/h
2854 12-01-2015 03:55:00 6.1 C 6.43 g/m*3 2.73 C 17.7 km/h
2855 12-01-2015 04:00:00 6.1 C 6.43 g/m*3 3.18 C 14.5 km/h
2856 12-01-2015 04:05:00 6.1 C 6.43 g/m*3 2.73 C 17.7 km/h
2857 12-01-2015 04:10:00 6.1 C 6.43 g/m*3 3.72 C 11.3 km/h
2858 12-01-2015 04:15:00 6.1 C 6.5 g/m*3 3.18 C 14.5 km/h
2859 12-01-2015 04:20:00 6 C 6.46 g/m*3 3.31 C 12.9 km/h
2860 12-01-2015 04:25:00 6 C 6.46 g/m*3 3.92 C 9.7 km/h
2861 12-01-2015 04:30:00 6 C 6.46 g/m*3 3.31 C 12.9 km/h
2862 12-01-2015 04:35:00 6 C 6.46 g/m*3 3.92 C 9.7 km/h
2863 12-01-2015 04:40:00 6.1 C 6.5 g/m*3 2.73 C 17.7 km/h
2864 12-01-2015 04:45:00 6.1 C 6.5 g/m*3 2.95 C 16.1 km/h
2865 12-01-2015 04:50:00 6.1 C 6.5 g/m*3 3.43 C 12.9 km/h
2866 12-01-2015 04:55:00 6.2 C 6.55 g/m*3 4.52 C 8.1 km/h
2867 12-01-2015 05:00:00 6.2 C 6.47 g/m*3 4.52 C 8.1 km/h
2868 12-01-2015 05:05:00 6.2 C 6.55 g/m*3 6.2 C 4.8 km/h
2869 12-01-2015 05:10:00 6.2 C 6.55 g/m*3 4.98 C 6.4 km/h
2870 12-01-2015 05:15:00 6.2 C 6.55 g/m*3 3.56 C 12.9 km/h
2871 12-01-2015 05:20:00 6.2 C 6.55 g/m*3 4.52 C 8.1 km/h
2872 12-01-2015 05:25:00 6.2 C 6.55 g/m*3 3.84 C 11.3 km/h
2873 12-01-2015 05:30:00 6.2 C 6.55 g/m*3 4.15 C 9.7 km/h
2874 12-01-2015 05:35:00 6.2 C 6.55 g/m*3 3.56 C 12.9 km/h
2875 12-01-2015 05:40:00 6.2 C 6.47 g/m*3 3.56 C 12.9 km/h
Sensor: Nr:Datum:Temp:Abs-Feuchte:Windchill:Wind:
Aussen-T/F 2876 12-01-2015 05:45:00 6.3 C 6.44 g/m*3 3.43 C 14.5 km/h
2877 12-01-2015 05:50:00 6.3 C 6.44 g/m*3 3.43 C 14.5 km/h
2878 12-01-2015 05:55:00 6.3 C 6.44 g/m*3 3.43 C 14.5 km/h
2879 12-01-2015 06:00:00 6.3 C 6.44 g/m*3 3.68 C 12.9 km/h
2880 12-01-2015 06:05:00 6.4 C 6.41 g/m*3 2.91 C 19.3 km/h
2881 12-01-2015 06:10:00 6.4 C 6.41 g/m*3 3.8 C 12.9 km/h
2882 12-01-2015 06:15:00 6.4 C 6.41 g/m*3 4.08 C 11.3 km/h
2883 12-01-2015 06:20:00 6.5 C 6.45 g/m*3 3.23 C 17.7 km/h
2884 12-01-2015 06:25:00 6.6 C 6.42 g/m*3 2.82 C 22.5 km/h
2885 12-01-2015 06:30:00 6.6 C 6.42 g/m*3 3.17 C 19.3 km/h
2886 12-01-2015 06:35:00 6.6 C 6.42 g/m*3 3.57 C 16.1 km/h
2887 12-01-2015 06:40:00 6.6 C 6.42 g/m*3 3.57 C 16.1 km/h
2888 12-01-2015 06:45:00 6.5 C 6.45 g/m*3 4.2 C 11.3 km/h
2889 12-01-2015 06:50:00 6.5 C 6.45 g/m*3 3.92 C 12.9 km/h
2890 12-01-2015 06:55:00 6.5 C 6.37 g/m*3 3.92 C 12.9 km/h
2891 12-01-2015 07:00:00 6.5 C 6.45 g/m*3 4.2 C 11.3 km/h
2892 12-01-2015 07:05:00 6.4 C 6.33 g/m*3 3.11 C 17.7 km/h
2893 12-01-2015 07:10:00 6.4 C 6.33 g/m*3 4.08 C 11.3 km/h
2894 12-01-2015 07:15:00 6.5 C 6.45 g/m*3 3.92 C 12.9 km/h
2895 12-01-2015 07:20:00 6.5 C 6.37 g/m*3 3.44 C 16.1 km/h
2896 12-01-2015 07:25:00 6.5 C 6.37 g/m*3 3.92 C 12.9 km/h
2897 12-01-2015 07:30:00 6.5 C 6.37 g/m*3 3.04 C 19.3 km/h
2898 12-01-2015 07:35:00 6.6 C 6.34 g/m*3 3.79 C 14.5 km/h
2899 12-01-2015 07:40:00 6.6 C 6.34 g/m*3 2.99 C 20.9 km/h
2900 12-01-2015 07:45:00 6.6 C 6.34 g/m*3 3.57 C 16.1 km/h
Sensor: Nr:Datum:Temp:Abs-Feuchte:Windchill:Wind:
Aussen-T/F 2901 12-01-2015 07:50:00 6.7 C 6.38 g/m*3 2.64 C 25.7 km/h
2902 12-01-2015 07:55:00 6.7 C 6.38 g/m*3 3.92 C 14.5 km/h
2903 12-01-2015 08:00:00 6.7 C 6.38 g/m*3 4.17 C 12.9 km/h
2904 12-01-2015 08:05:00 6.6 C 6.27 g/m*3 3.57 C 16.1 km/h
2905 12-01-2015 08:10:00 6.6 C 6.27 g/m*3 3.79 C 14.5 km/h
2906 12-01-2015 08:15:00 6.7 C 6.31 g/m*3 2.79 C 24.1 km/h
2907 12-01-2015 08:20:00 6.7 C 6.31 g/m*3 3.92 C 14.5 km/h
2908 12-01-2015 08:25:00 6.7 C 6.31 g/m*3 4.17 C 12.9 km/h
2909 12-01-2015 08:30:00 6.7 C 6.31 g/m*3 4.17 C 12.9 km/h
2910 12-01-2015 08:35:00 6.7 C 6.31 g/m*3 3.69 C 16.1 km/h
2911 12-01-2015 08:40:00 6.7 C 6.31 g/m*3 3.29 C 19.3 km/h
2912 12-01-2015 08:45:00 6.7 C 6.31 g/m*3 4.17 C 12.9 km/h
2913 12-01-2015 08:50:00 6.7 C 6.31 g/m*3 4.17 C 12.9 km/h
2914 12-01-2015 08:55:00 6.7 C 6.31 g/m*3 4.44 C 11.3 km/h
2915 12-01-2015 09:00:00 6.7 C 6.23 g/m*3 3.11 C 20.9 km/h
2916 12-01-2015 09:05:00 6.7 C 6.23 g/m*3 4.17 C 12.9 km/h
2917 12-01-2015 09:10:00 6.8 C 6.27 g/m*3 3.61 C 17.7 km/h
2918 12-01-2015 09:15:00 6.8 C 6.27 g/m*3 3.61 C 17.7 km/h
2919 12-01-2015 09:20:00 6.8 C 6.27 g/m*3 3.61 C 17.7 km/h
2920 12-01-2015 09:25:00 6.8 C 6.19 g/m*3 3.61 C 17.7 km/h
2921 12-01-2015 09:30:00 6.8 C 6.19 g/m*3 4.04 C 14.5 km/h
2922 12-01-2015 09:35:00 6.9 C 6.24 g/m*3 3.94 C 16.1 km/h
2923 12-01-2015 09:40:00 6.8 C 6.19 g/m*3 4.87 C 9.7 km/h
2924 12-01-2015 09:45:00 6.8 C 6.19 g/m*3 4.04 C 14.5 km/h
2925 12-01-2015 09:50:00 6.8 C 6.19 g/m*3 4.56 C 11.3 km/h
Sensor: Nr:Datum:Temp:Abs-Feuchte:Windchill:Wind:
Aussen-T/F 2926 12-01-2015 09:55:00 6.9 C 6.24 g/m*3 4.41 C 12.9 km/h
2927 12-01-2015 10:00:00 6.9 C 6.24 g/m*3 4.16 C 14.5 km/h
2928 12-01-2015 10:05:00 6.9 C 6.24 g/m*3 4.99 C 9.7 km/h
2929 12-01-2015 10:10:00 6.9 C 6.24 g/m*3 3.2 C 22.5 km/h
2930 12-01-2015 10:15:00 6.9 C 6.24 g/m*3 4.16 C 14.5 km/h
2931 12-01-2015 10:20:00 7 C 6.28 g/m*3 4.29 C 14.5 km/h
2932 12-01-2015 10:25:00 7.1 C 6.24 g/m*3 3.62 C 20.9 km/h
2933 12-01-2015 10:30:00 7.1 C 6.24 g/m*3 4.19 C 16.1 km/h
2934 12-01-2015 10:35:00 7.1 C 6.24 g/m*3 4.19 C 16.1 km/h
2935 12-01-2015 10:40:00 7.1 C 6.24 g/m*3 4.19 C 16.1 km/h
2936 12-01-2015 10:45:00 7.1 C 6.32 g/m*3 4.41 C 14.5 km/h
2937 12-01-2015 10:50:00 7.1 C 6.32 g/m*3 5.58 C 8.1 km/h
2938 12-01-2015 10:55:00 7 C 6.28 g/m*3 3.86 C 17.7 km/h
2939 12-01-2015 11:00:00 7 C 6.35 g/m*3 3.49 C 20.9 km/h
2940 12-01-2015 11:05:00 6.9 C 6.31 g/m*3 4.41 C 12.9 km/h
2941 12-01-2015 11:10:00 6.9 C 6.39 g/m*3 3.54 C 19.3 km/h
2942 12-01-2015 11:15:00 6.8 C 6.35 g/m*3 3.82 C 16.1 km/h
2943 12-01-2015 11:20:00 6.8 C 6.42 g/m*3 4.56 C 11.3 km/h
2944 12-01-2015 11:25:00 6.7 C 6.38 g/m*3 3.92 C 14.5 km/h
2945 12-01-2015 11:30:00 6.7 C 6.46 g/m*3 4.75 C 9.7 km/h
2946 12-01-2015 11:35:00 6.6 C 6.42 g/m*3 4.04 C 12.9 km/h
2947 12-01-2015 11:40:00 6.6 C 6.42 g/m*3 3.57 C 16.1 km/h
2948 12-01-2015 11:45:00 6.6 C 6.42 g/m*3 4.04 C 12.9 km/h
2949 12-01-2015 11:50:00 6.6 C 6.42 g/m*3 3.57 C 16.1 km/h
2950 12-01-2015 11:55:00 6.7 C 6.46 g/m*3 3.92 C 14.5 km/h
Sensor: Nr:Datum:Temp:Abs-Feuchte:Windchill:Wind:
Aussen-T/F 2951 12-01-2015 12:00:00 6.7 C 6.46 g/m*3 5.11 C 8.1 km/h
2952 12-01-2015 12:05:00 6.7 C 6.38 g/m*3 3.92 C 14.5 km/h
2953 12-01-2015 12:10:00 6.8 C 6.42 g/m*3 5.22 C 8.1 km/h
2954 12-01-2015 12:15:00 6.8 C 6.42 g/m*3 3.61 C 17.7 km/h
2955 12-01-2015 12:20:00 6.8 C 6.42 g/m*3 3.82 C 16.1 km/h
2956 12-01-2015 12:25:00 6.8 C 6.42 g/m*3 4.29 C 12.9 km/h
2957 12-01-2015 12:30:00 6.9 C 6.47 g/m*3 4.68 C 11.3 km/h
2958 12-01-2015 12:35:00 6.9 C 6.47 g/m*3 4.68 C 11.3 km/h
2959 12-01-2015 13:10:00 7.3 C 7.9 g/m*3 5.47 C 9.7 km/h
2960 12-01-2015 13:15:00 7.3 C 6.48 g/m*3 4.9 C 12.9 km/h
2961 12-01-2015 13:20:00 7.3 C 6.4 g/m*3 5.81 C 8.1 km/h
2962 12-01-2015 13:25:00 7.3 C 6.4 g/m*3 5.47 C 9.7 km/h
2963 12-01-2015 13:30:00 7.3 C 6.4 g/m*3 4.66 C 14.5 km/h
2964 12-01-2015 13:35:00 7.4 C 6.44 g/m*3 4.78 C 14.5 km/h
2965 12-01-2015 13:40:00 7.4 C 6.44 g/m*3 5.28 C 11.3 km/h
2966 12-01-2015 13:45:00 7.4 C 6.44 g/m*3 4.56 C 16.1 km/h
2967 12-01-2015 13:50:00 7.4 C 6.44 g/m*3 4.56 C 16.1 km/h
2968 12-01-2015 13:55:00 7.5 C 6.48 g/m*3 5.14 C 12.9 km/h
2969 12-01-2015 14:00:00 7.5 C 6.48 g/m*3 5.14 C 12.9 km/h
2970 12-01-2015 14:05:00 7.6 C 6.53 g/m*3 4.61 C 17.7 km/h
2971 12-01-2015 14:10:00 7.6 C 6.53 g/m*3 4.81 C 16.1 km/h
2972 12-01-2015 14:15:00 7.6 C 6.53 g/m*3 5.26 C 12.9 km/h
2973 12-01-2015 14:20:00 7.6 C 6.53 g/m*3 4.81 C 16.1 km/h
2974 12-01-2015 14:25:00 7.6 C 6.53 g/m*3 4.81 C 16.1 km/h
2975 12-01-2015 14:30:00 7.6 C 6.53 g/m*3 4.81 C 16.1 km/h
Sensor: Nr:Datum:Temp:Abs-Feuchte:Windchill:Wind:
Aussen-T/F 2976 12-01-2015 14:35:00 7.6 C 6.53 g/m*3 5.02 C 14.5 km/h
2977 12-01-2015 14:40:00 7.6 C 6.53 g/m*3 4.81 C 16.1 km/h
2978 12-01-2015 14:45:00 7.6 C 6.53 g/m*3 5.82 C 9.7 km/h
2979 12-01-2015 14:50:00 7.6 C 6.53 g/m*3 5.53 C 11.3 km/h
2980 12-01-2015 14:55:00 7.6 C 6.53 g/m*3 4.25 C 20.9 km/h
2981 12-01-2015 15:20:00 7.5 C 6.56 g/m*3 4.9 C 14.5 km/h
2982 12-01-2015 15:25:00 7.4 C 6.52 g/m*3 5.02 C 12.9 km/h
2983 12-01-2015 15:30:00 7.4 C 6.6 g/m*3 5.28 C 11.3 km/h
2984 12-01-2015 15:35:00 7.4 C 6.6 g/m*3 5.02 C 12.9 km/h
2985 12-01-2015 15:40:00 7.4 C 6.6 g/m*3 4.78 C 14.5 km/h
2986 12-01-2015 15:45:00 7.3 C 6.64 g/m*3 3.71 C 22.5 km/h
2987 12-01-2015 15:50:00 7.3 C 6.64 g/m*3 4.9 C 12.9 km/h
2988 12-01-2015 15:55:00 7.2 C 6.59 g/m*3 5.35 C 9.7 km/h
2989 12-01-2015 16:00:00 7.2 C 6.59 g/m*3 4.11 C 17.7 km/h
2990 12-01-2015 16:05:00 7.2 C 6.59 g/m*3 3.75 C 20.9 km/h
2991 12-01-2015 16:10:00 7.2 C 6.59 g/m*3 4.77 C 12.9 km/h
2992 12-01-2015 16:15:00 7.1 C 6.55 g/m*3 3.8 C 19.3 km/h
2993 12-01-2015 16:20:00 7.1 C 6.55 g/m*3 4.65 C 12.9 km/h
2994 12-01-2015 16:25:00 7.1 C 6.55 g/m*3 4.41 C 14.5 km/h
2995 12-01-2015 16:45:00 7.1 C 7.8 g/m*3 2.62 C 32.2 km/h
2996 12-01-2015 16:50:00 7.1 C 6.63 g/m*3 2.62 C 32.2 km/h
2997 12-01-2015 16:55:00 7.1 C 6.63 g/m*3 3.15 C 25.7 km/h
2998 12-01-2015 17:00:00 7.1 C 6.63 g/m*3 3.98 C 17.7 km/h
2999 12-01-2015 17:05:00 7.1 C 6.63 g/m*3 3.98 C 17.7 km/h
3000 12-01-2015 17:10:00 7.1 C 6.63 g/m*3 4.19 C 16.1 km/h
Sensor: Nr:Datum:Temp:Abs-Feuchte:Windchill:Wind:
Aussen-T/F 3001 12-01-2015 17:15:00 7.1 C 6.63 g/m*3 3.3 C 24.1 km/h
3002 12-01-2015 17:20:00 7.1 C 6.63 g/m*3 3.8 C 19.3 km/h
3003 12-01-2015 17:25:00 7.1 C 6.63 g/m*3 3.8 C 19.3 km/h
3004 12-01-2015 17:30:00 7.1 C 6.55 g/m*3 4.19 C 16.1 km/h
3005 12-01-2015 17:35:00 7.1 C 6.55 g/m*3 4.65 C 12.9 km/h
3006 12-01-2015 17:40:00 7.1 C 6.55 g/m*3 4.19 C 16.1 km/h
3007 12-01-2015 17:45:00 7.1 C 6.55 g/m*3 4.41 C 14.5 km/h
3008 12-01-2015 17:50:00 7.1 C 6.47 g/m*3 3.62 C 20.9 km/h
3009 12-01-2015 17:55:00 7.2 C 6.52 g/m*3 4.53 C 14.5 km/h
3010 12-01-2015 18:00:00 7.2 C 6.52 g/m*3 5.04 C 11.3 km/h
3011 12-01-2015 18:05:00 7.2 C 6.44 g/m*3 5.04 C 11.3 km/h
3012 12-01-2015 18:10:00 7.2 C 6.44 g/m*3 4.77 C 12.9 km/h
3013 12-01-2015 18:15:00 7.3 C 6.48 g/m*3 3.71 C 22.5 km/h
3014 12-01-2015 18:20:00 7.3 C 6.4 g/m*3 4.44 C 16.1 km/h
3015 12-01-2015 18:25:00 7.4 C 6.44 g/m*3 4.78 C 14.5 km/h
3016 12-01-2015 18:30:00 7.5 C 6.4 g/m*3 4.13 C 20.9 km/h
3017 12-01-2015 18:35:00 7.6 C 6.44 g/m*3 5.02 C 14.5 km/h
3018 12-01-2015 18:40:00 7.6 C 6.44 g/m*3 4.61 C 17.7 km/h
3019 12-01-2015 18:45:00 7.6 C 6.44 g/m*3 4.61 C 17.7 km/h
3020 12-01-2015 18:50:00 7.7 C 6.49 g/m*3 4.93 C 16.1 km/h
3021 12-01-2015 18:55:00 7.7 C 6.49 g/m*3 3.92 C 25.7 km/h
3022 12-01-2015 19:00:00 7.7 C 6.49 g/m*3 5.94 C 9.7 km/h
3023 12-01-2015 19:05:00 7.7 C 6.49 g/m*3 5.38 C 12.9 km/h
3024 12-01-2015 19:10:00 7.7 C 6.49 g/m*3 5.15 C 14.5 km/h
3025 12-01-2015 19:15:00 7.7 C 6.49 g/m*3 5.65 C 11.3 km/h
Sensor: Nr:Datum:Temp:Abs-Feuchte:Windchill:Wind:
Aussen-T/F 3026 12-01-2015 19:20:00 7.7 C 6.57 g/m*3 5.15 C 14.5 km/h
3027 12-01-2015 19:25:00 7.7 C 6.57 g/m*3 4.73 C 17.7 km/h
3028 12-01-2015 19:30:00 7.8 C 6.61 g/m*3 5.51 C 12.9 km/h
3029 12-01-2015 19:35:00 7.8 C 6.61 g/m*3 5.06 C 16.1 km/h
3030 12-01-2015 19:40:00 7.8 C 6.61 g/m*3 5.27 C 14.5 km/h
3031 12-01-2015 19:45:00 7.8 C 6.61 g/m*3 5.51 C 12.9 km/h
3032 12-01-2015 19:50:00 7.8 C 6.61 g/m*3 6.06 C 9.7 km/h
3033 12-01-2015 19:55:00 7.8 C 6.61 g/m*3 5.51 C 12.9 km/h
3034 12-01-2015 20:00:00 7.9 C 6.65 g/m*3 5.39 C 14.5 km/h
3035 12-01-2015 20:05:00 7.9 C 6.65 g/m*3 5.39 C 14.5 km/h
3036 12-01-2015 20:10:00 7.9 C 6.65 g/m*3 5.89 C 11.3 km/h
3037 12-01-2015 20:15:00 8 C 6.7 g/m*3 6.01 C 11.3 km/h
3038 12-01-2015 20:20:00 8.1 C 6.66 g/m*3 5.64 C 14.5 km/h
3039 12-01-2015 20:25:00 8.1 C 6.66 g/m*3 6.42 C 9.7 km/h
3040 12-01-2015 20:30:00 8.2 C 6.7 g/m*3 5.01 C 20.9 km/h
3041 12-01-2015 20:35:00 8.3 C 6.74 g/m*3 5.89 C 14.5 km/h
3042 12-01-2015 20:40:00 8.3 C 6.74 g/m*3 6.12 C 12.9 km/h
3043 12-01-2015 20:45:00 8.3 C 6.74 g/m*3 5.14 C 20.9 km/h
3044 12-01-2015 20:50:00 8.3 C 6.74 g/m*3 5.89 C 14.5 km/h
3045 12-01-2015 21:15:00 8.4 C 6.62 g/m*3 5.27 C 20.9 km/h
3046 12-01-2015 21:20:00 8.4 C 6.62 g/m*3 5.27 C 20.9 km/h
3047 12-01-2015 21:25:00 8.4 C 6.53 g/m*3 5.43 C 19.3 km/h
3048 12-01-2015 21:30:00 8.5 C 6.57 g/m*3 5.56 C 19.3 km/h
3049 12-01-2015 21:35:00 8.5 C 6.57 g/m*3 5.73 C 17.7 km/h
3050 12-01-2015 21:40:00 8.4 C 6.53 g/m*3 5.11 C 22.5 km/h
Sensor: Nr:Datum:Temp:Abs-Feuchte:Windchill:Wind:
Aussen-T/F 3051 12-01-2015 21:45:00 8.5 C 6.49 g/m*3 5.39 C 20.9 km/h
3052 12-01-2015 21:50:00 8.5 C 6.49 g/m*3 4.95 C 25.7 km/h
3053 12-01-2015 21:55:00 8.4 C 6.45 g/m*3 5.43 C 19.3 km/h
3054 12-01-2015 22:00:00 8.4 C 6.45 g/m*3 5.43 C 19.3 km/h
3055 12-01-2015 22:05:00 8.4 C 6.45 g/m*3 5.27 C 20.9 km/h
3056 12-01-2015 22:10:00 8.3 C 6.41 g/m*3 5.68 C 16.1 km/h
3057 12-01-2015 22:15:00 8.3 C 6.41 g/m*3 6.37 C 11.3 km/h
3058 12-01-2015 22:20:00 8.3 C 6.41 g/m*3 5.48 C 17.7 km/h
3059 12-01-2015 22:25:00 8.3 C 6.41 g/m*3 5.48 C 17.7 km/h
3060 12-01-2015 22:30:00 8.3 C 6.41 g/m*3 5.48 C 17.7 km/h
3061 12-01-2015 22:35:00 8.3 C 6.41 g/m*3 4.7 C 25.7 km/h
3062 12-01-2015 22:40:00 8.3 C 6.41 g/m*3 5.31 C 19.3 km/h
3063 12-01-2015 22:45:00 8.3 C 6.41 g/m*3 5.68 C 16.1 km/h
3064 12-01-2015 23:10:00 8.6 C 6.44 g/m*3 5.22 C 24.1 km/h
3065 12-01-2015 23:15:00 8.6 C 6.44 g/m*3 5.22 C 24.1 km/h
3066 12-01-2015 23:20:00 8.6 C 6.44 g/m*3 5.68 C 19.3 km/h
3067 12-01-2015 23:25:00 8.6 C 6.44 g/m*3 5.86 C 17.7 km/h
3068 12-01-2015 23:30:00 8.6 C 6.44 g/m*3 6.05 C 16.1 km/h
3069 12-01-2015 23:35:00 8.6 C 6.44 g/m*3 5.68 C 19.3 km/h
3070 12-01-2015 23:40:00 8.7 C 6.49 g/m*3 6.6 C 12.9 km/h
3071 12-01-2015 23:45:00 8.7 C 6.49 g/m*3 5.98 C 17.7 km/h
3072 12-01-2015 23:50:00 8.7 C 6.49 g/m*3 5.81 C 19.3 km/h
3073 12-01-2015 23:55:00 8.7 C 6.49 g/m*3 5.81 C 19.3 km/h
3074 13-01-2015 00:00:00 8.7 C 6.57 g/m*3 5.81 C 19.3 km/h
3075 13-01-2015 00:05:00 8.7 C 6.57 g/m*3 5.65 C 20.9 km/h
Sensor: Nr:Datum:Temp:Abs-Feuchte:Windchill:Wind:
Aussen-T/F 3076 13-01-2015 00:10:00 8.7 C 6.57 g/m*3 5.65 C 20.9 km/h
3077 13-01-2015 00:15:00 8.8 C 6.61 g/m*3 6.11 C 17.7 km/h
3078 13-01-2015 00:20:00 8.8 C 6.61 g/m*3 5.2 C 27.4 km/h
3079 13-01-2015 00:25:00 8.8 C 6.61 g/m*3 5.2 C 27.4 km/h
3080 13-01-2015 00:30:00 8.8 C 6.61 g/m*3 5.93 C 19.3 km/h
3081 13-01-2015 00:35:00 8.8 C 6.61 g/m*3 5.62 C 22.5 km/h
3082 13-01-2015 00:40:00 8.8 C 6.7 g/m*3 5.34 C 25.7 km/h
3083 13-01-2015 00:45:00 8.9 C 6.66 g/m*3 6.23 C 17.7 km/h
3084 13-01-2015 00:50:00 8.9 C 6.75 g/m*3 5.75 C 22.5 km/h
3085 13-01-2015 00:55:00 8.9 C 6.66 g/m*3 5.6 C 24.1 km/h
3086 13-01-2015 01:00:00 8.9 C 6.66 g/m*3 5.9 C 20.9 km/h
3087 13-01-2015 01:05:00 8.9 C 6.66 g/m*3 6.42 C 16.1 km/h
3088 13-01-2015 01:10:00 8.9 C 6.66 g/m*3 5.9 C 20.9 km/h
3089 13-01-2015 01:15:00 9 C 6.7 g/m*3 5.46 C 27.4 km/h
3090 13-01-2015 01:20:00 8.9 C 6.66 g/m*3 5.9 C 20.9 km/h
3091 13-01-2015 01:25:00 8.9 C 6.66 g/m*3 6.42 C 16.1 km/h
3092 13-01-2015 01:30:00 8.9 C 6.66 g/m*3 5.6 C 24.1 km/h
3093 13-01-2015 01:35:00 8.9 C 6.75 g/m*3 6.23 C 17.7 km/h
3094 13-01-2015 01:40:00 8.9 C 6.75 g/m*3 5.9 C 20.9 km/h
3095 13-01-2015 01:45:00 8.9 C 6.75 g/m*3 6.42 C 16.1 km/h
3096 13-01-2015 01:50:00 8.9 C 6.75 g/m*3 5.6 C 24.1 km/h
3097 13-01-2015 01:55:00 9 C 6.79 g/m*3 6.19 C 19.3 km/h
3098 13-01-2015 02:00:00 9.1 C 6.74 g/m*3 6.15 C 20.9 km/h
3099 13-01-2015 02:05:00 9.1 C 6.74 g/m*3 6 C 22.5 km/h
3100 13-01-2015 02:10:00 9.1 C 6.74 g/m*3 6.67 C 16.1 km/h
Sensor: Nr:Datum:Temp:Abs-Feuchte:Windchill:Wind:
Aussen-T/F 3101 13-01-2015 02:15:00 8.9 C 6.75 g/m*3 5.9 C 20.9 km/h
3102 13-01-2015 02:20:00 8.9 C 6.75 g/m*3 5.75 C 22.5 km/h
3103 13-01-2015 02:25:00 8.9 C 6.75 g/m*3 6.42 C 16.1 km/h
3104 13-01-2015 02:30:00 8.9 C 6.75 g/m*3 6.23 C 17.7 km/h
3105 13-01-2015 02:35:00 8.9 C 6.75 g/m*3 5.75 C 22.5 km/h
3106 13-01-2015 02:40:00 8.9 C 6.75 g/m*3 6.06 C 19.3 km/h
3107 13-01-2015 02:45:00 8.9 C 6.75 g/m*3 6.06 C 19.3 km/h
3108 13-01-2015 02:50:00 8.9 C 6.75 g/m*3 6.23 C 17.7 km/h
3109 13-01-2015 02:55:00 8.9 C 6.75 g/m*3 5.9 C 20.9 km/h
3110 13-01-2015 03:00:00 8.8 C 6.79 g/m*3 6.5 C 14.5 km/h
3111 13-01-2015 03:05:00 8.8 C 6.79 g/m*3 6.11 C 17.7 km/h
3112 13-01-2015 03:10:00 8.9 C 6.75 g/m*3 5.9 C 20.9 km/h
3113 13-01-2015 03:15:00 8.8 C 6.79 g/m*3 6.3 C 16.1 km/h
3114 13-01-2015 03:20:00 8.9 C 6.83 g/m*3 6.62 C 14.5 km/h
3115 13-01-2015 03:25:00 8.9 C 6.75 g/m*3 6.85 C 12.9 km/h
3116 13-01-2015 03:30:00 8.9 C 6.83 g/m*3 6.06 C 19.3 km/h
3117 13-01-2015 03:35:00 8.9 C 6.83 g/m*3 6.42 C 16.1 km/h
3118 13-01-2015 03:40:00 8.9 C 6.83 g/m*3 7.37 C 9.7 km/h
3119 13-01-2015 03:45:00 8.9 C 6.83 g/m*3 7.37 C 9.7 km/h
3120 13-01-2015 03:50:00 8.9 C 6.83 g/m*3 7.09 C 11.3 km/h
3121 13-01-2015 03:55:00 8.9 C 6.83 g/m*3 7.69 C 8.1 km/h
3122 13-01-2015 04:00:00 8.9 C 6.75 g/m*3 7.69 C 8.1 km/h
3123 13-01-2015 04:05:00 9.1 C 6.83 g/m*3 7.33 C 11.3 km/h
3124 13-01-2015 04:10:00 9.1 C 6.74 g/m*3 7.09 C 12.9 km/h
3125 13-01-2015 04:15:00 9.1 C 6.74 g/m*3 7.61 C 9.7 km/h
Sensor: Nr:Datum:Temp:Abs-Feuchte:Windchill:Wind:
Aussen-T/F 3126 13-01-2015 04:20:00 9.1 C 6.74 g/m*3 7.33 C 11.3 km/h
3127 13-01-2015 04:25:00 9.1 C 6.74 g/m*3 7.33 C 11.3 km/h
3128 13-01-2015 04:30:00 9.2 C 6.7 g/m*3 7.21 C 12.9 km/h
3129 13-01-2015 04:35:00 9.3 C 6.65 g/m*3 7.12 C 14.5 km/h
3130 13-01-2015 04:40:00 9.3 C 6.65 g/m*3 7.58 C 11.3 km/h
3131 13-01-2015 04:45:00 9.3 C 6.65 g/m*3 6.56 C 19.3 km/h
3132 13-01-2015 04:50:00 9.4 C 6.6 g/m*3 7.24 C 14.5 km/h
3133 13-01-2015 04:55:00 9.4 C 6.6 g/m*3 7.46 C 12.9 km/h
3134 13-01-2015 05:00:00 9.4 C 6.6 g/m*3 6.86 C 17.7 km/h
3135 13-01-2015 05:05:00 9.4 C 6.51 g/m*3 7.24 C 14.5 km/h
3136 13-01-2015 05:10:00 9.4 C 6.51 g/m*3 7.24 C 14.5 km/h
3137 13-01-2015 05:15:00 9.4 C 6.51 g/m*3 7.7 C 11.3 km/h
3138 13-01-2015 05:20:00 9.2 C 6.52 g/m*3 7.46 C 11.3 km/h
3139 13-01-2015 05:25:00 9.1 C 6.57 g/m*3 8.33 C 6.4 km/h
3140 13-01-2015 05:30:00 9 C 6.52 g/m*3 7.21 C 11.3 km/h
3141 13-01-2015 05:35:00 9.1 C 6.48 g/m*3 8.33 C 6.4 km/h
3142 13-01-2015 05:40:00 9.1 C 6.57 g/m*3 7.93 C 8.1 km/h
3143 13-01-2015 05:45:00 9.1 C 6.57 g/m*3 8.33 C 6.4 km/h
3144 13-01-2015 05:50:00 9.1 C 6.65 g/m*3 9.1 C 4.8 km/h
3145 13-01-2015 05:55:00 9 C 6.52 g/m*3 8.21 C 6.4 km/h
3146 13-01-2015 06:00:00 9.1 C 6.48 g/m*3 9.1 C 3.2 km/h
3147 13-01-2015 06:05:00 9.2 C 6.43 g/m*3 7.46 C 11.3 km/h
3148 13-01-2015 06:10:00 9.4 C 6.42 g/m*3 8.68 C 6.4 km/h
3149 13-01-2015 06:15:00 9.3 C 6.47 g/m*3 8.56 C 6.4 km/h
3150 13-01-2015 06:20:00 9.3 C 6.38 g/m*3 8.56 C 6.4 km/h
Sensor: Nr:Datum:Temp:Abs-Feuchte:Windchill:Wind:
Aussen-T/F 3151 13-01-2015 06:25:00 9.4 C 6.42 g/m*3 7.7 C 11.3 km/h
3152 13-01-2015 06:30:00 9.4 C 6.51 g/m*3 9.4 C 4.8 km/h
3153 13-01-2015 06:35:00 9.4 C 6.42 g/m*3 8.68 C 6.4 km/h
3154 13-01-2015 06:40:00 9.4 C 6.33 g/m*3 9.4 C 4.8 km/h
3155 13-01-2015 06:45:00 9.3 C 6.29 g/m*3 9.3 C 4.8 km/h
3156 13-01-2015 06:50:00 9.2 C 6.34 g/m*3 9.2 C 3.2 km/h
3157 13-01-2015 06:55:00 9.2 C 6.34 g/m*3 9.2 C 4.8 km/h
3158 13-01-2015 07:00:00 8.9 C 6.39 g/m*3 8.9 C 1.6 km/h
3159 13-01-2015 07:05:00 8.7 C 6.31 g/m*3 8.7 C 4.8 km/h
3160 13-01-2015 07:10:00 8.6 C 6.27 g/m*3 7.75 C 6.4 km/h
3161 13-01-2015 07:15:00 8.6 C 6.19 g/m*3 8.6 C 4.8 km/h
3162 13-01-2015 07:20:00 8.6 C 6.19 g/m*3 8.6 C 3.2 km/h
3163 13-01-2015 07:25:00 8.4 C 6.45 g/m*3 7.52 C 6.4 km/h
3164 13-01-2015 07:30:00 8.2 C 6.62 g/m*3 8.2 C 3.2 km/h
3165 13-01-2015 07:35:00 8.3 C 6.41 g/m*3 6.66 C 9.7 km/h
3166 13-01-2015 07:40:00 8.7 C 6.4 g/m*3 7.87 C 6.4 km/h
3167 13-01-2015 07:45:00 8.8 C 6.61 g/m*3 8.8 C 3.2 km/h
3168 13-01-2015 07:50:00 8.8 C 6.61 g/m*3 8.8 C 3.2 km/h
3169 13-01-2015 08:05:00 9 C 8.82 g/m*3 7.81 C 8.1 km/h
3170 13-01-2015 08:10:00 9 C 8.82 g/m*3 7.81 C 8.1 km/h
3171 13-01-2015 12:10:00 11.2 C 10.14 g/m*3 11.2 C 20.9 km/h
3172 13-01-2015 12:15:00 11.2 C 6.59 g/m*3 11.2 C 22.5 km/h
3173 13-01-2015 12:20:00 11.3 C 6.63 g/m*3 11.3 C 9.7 km/h
3174 13-01-2015 12:25:00 11.3 C 6.63 g/m*3 11.3 C 14.5 km/h
3175 13-01-2015 12:30:00 11.4 C 6.57 g/m*3 11.4 C 16.1 km/h
Sensor: Nr:Datum:Temp:Abs-Feuchte:Windchill:Wind:
Aussen-T/F 3176 13-01-2015 12:35:00 11.3 C 6.63 g/m*3 11.3 C 11.3 km/h
3177 13-01-2015 12:40:00 11.3 C 6.53 g/m*3 11.3 C 17.7 km/h
3178 13-01-2015 12:45:00 11.6 C 6.65 g/m*3 11.6 C 16.1 km/h
3179 13-01-2015 12:50:00 11.7 C 6.59 g/m*3 11.7 C 20.9 km/h
3180 13-01-2015 12:55:00 11.8 C 6.63 g/m*3 11.8 C 19.3 km/h
3181 13-01-2015 13:00:00 11.9 C 6.57 g/m*3 11.9 C 17.7 km/h
3182 13-01-2015 13:05:00 11.9 C 6.67 g/m*3 11.9 C 14.5 km/h
3183 13-01-2015 13:10:00 12.2 C 6.69 g/m*3 12.2 C 20.9 km/h
3184 13-01-2015 13:15:00 12.4 C 6.56 g/m*3 12.4 C 22.5 km/h
3185 13-01-2015 13:20:00 12.6 C 6.53 g/m*3 12.6 C 24.1 km/h
3186 13-01-2015 13:25:00 12.8 C 6.61 g/m*3 12.8 C 16.1 km/h
3187 13-01-2015 13:30:00 12.9 C 6.65 g/m*3 12.9 C 17.7 km/h
3188 13-01-2015 13:35:00 13.1 C 6.62 g/m*3 13.1 C 14.5 km/h
3189 13-01-2015 13:40:00 13.2 C 6.66 g/m*3 13.2 C 14.5 km/h
3190 13-01-2015 13:45:00 13.2 C 6.66 g/m*3 13.2 C 20.9 km/h
3191 13-01-2015 13:50:00 13.2 C 6.54 g/m*3 13.2 C 19.3 km/h
3192 13-01-2015 13:55:00 13.3 C 6.59 g/m*3 13.3 C 25.7 km/h
3193 13-01-2015 14:00:00 13.3 C 6.47 g/m*3 13.3 C 17.7 km/h
3194 13-01-2015 14:05:00 13.3 C 6.59 g/m*3 13.3 C 27.4 km/h
3195 13-01-2015 14:10:00 13.4 C 6.51 g/m*3 13.4 C 25.7 km/h
3196 13-01-2015 14:15:00 13.3 C 6.47 g/m*3 13.3 C 25.7 km/h
3197 13-01-2015 14:20:00 13.4 C 6.51 g/m*3 13.4 C 20.9 km/h
3198 13-01-2015 14:25:00 13.6 C 6.71 g/m*3 13.6 C 20.9 km/h
3199 13-01-2015 14:30:00 13.6 C 6.59 g/m*3 13.6 C 22.5 km/h
3200 13-01-2015 14:35:00 13.6 C 6.59 g/m*3 13.6 C 24.1 km/h
Sensor: Nr:Datum:Temp:Abs-Feuchte:Windchill:Wind:
Aussen-T/F 3201 13-01-2015 14:40:00 13.6 C 6.59 g/m*3 13.6 C 17.7 km/h
3202 13-01-2015 14:45:00 13.6 C 6.59 g/m*3 13.6 C 14.5 km/h
3203 13-01-2015 14:50:00 13.5 C 6.55 g/m*3 13.5 C 24.1 km/h
3204 13-01-2015 14:55:00 13.5 C 6.55 g/m*3 13.5 C 20.9 km/h
3205 13-01-2015 15:00:00 13.4 C 6.63 g/m*3 13.4 C 24.1 km/h
3206 13-01-2015 15:05:00 13.4 C 6.63 g/m*3 13.4 C 19.3 km/h
3207 13-01-2015 15:10:00 13.5 C 6.78 g/m*3 13.5 C 16.1 km/h
3208 13-01-2015 15:15:00 13.5 C 6.78 g/m*3 13.5 C 14.5 km/h
3209 13-01-2015 15:20:00 13.4 C 6.74 g/m*3 13.4 C 25.7 km/h
3210 13-01-2015 15:25:00 13.4 C 6.74 g/m*3 13.4 C 14.5 km/h
3211 13-01-2015 15:30:00 13.4 C 6.74 g/m*3 13.4 C 11.3 km/h
3212 13-01-2015 15:35:00 13.1 C 6.62 g/m*3 13.1 C 16.1 km/h
3213 13-01-2015 15:40:00 13.1 C 6.62 g/m*3 13.1 C 12.9 km/h
3214 13-01-2015 16:10:00 11.9 C 7.84 g/m*3 11.9 C 19.3 km/h
3215 13-01-2015 16:15:00 11.9 C 7.84 g/m*3 11.9 C 17.7 km/h
3216 13-01-2015 16:20:00 11.9 C 7.94 g/m*3 11.9 C 20.9 km/h
3217 13-01-2015 16:25:00